<?xml version="1.0" encoding="UTF-8" standalone="no" ?>
<gpx xmlns="http://www.topografix.com/GPX/1/1" xmlns:xsi="http://www.w3.org/2001/XMLSchema-instance" xsi:schemaLocation="http://www.topografix.com/GPX/1/1 http://www.topografix.com/GPX/1/1/gpx.xsd" version="1.1" creator="VisuGPX - https://www.visugpx.com">
  <metadata>
    <name>circuit 24 vtt Mensignac</name>
    <desc><![CDATA[Petit circuit vtt autour de Mensignac]]></desc>
  </metadata>
  <trk>
    <name><![CDATA[20181227183225-hGsRk]]></name>
    <trkseg>
      <trkpt lat="45.22588" lon="0.55957">
        <ele>189.2</ele>
      </trkpt>
      <trkpt lat="45.22548" lon="0.55853">
        <ele>185</ele>
      </trkpt>
      <trkpt lat="45.22482" lon="0.5578">
        <ele>178.2</ele>
      </trkpt>
      <trkpt lat="45.22441" lon="0.55561">
        <ele>168.8</ele>
      </trkpt>
      <trkpt lat="45.22424" lon="0.55419">
        <ele>168.5</ele>
      </trkpt>
      <trkpt lat="45.22429" lon="0.5536">
        <ele>172</ele>
      </trkpt>
      <trkpt lat="45.2243" lon="0.553">
        <ele>175.1</ele>
      </trkpt>
      <trkpt lat="45.22419" lon="0.55045">
        <ele>176.4</ele>
      </trkpt>
      <trkpt lat="45.22377" lon="0.54999">
        <ele>174.3</ele>
      </trkpt>
      <trkpt lat="45.22342" lon="0.54997">
        <ele>174.5</ele>
      </trkpt>
      <trkpt lat="45.22315" lon="0.55025">
        <ele>177.6</ele>
      </trkpt>
      <trkpt lat="45.22241" lon="0.55096">
        <ele>184.7</ele>
      </trkpt>
      <trkpt lat="45.22185" lon="0.55159">
        <ele>187.3</ele>
      </trkpt>
      <trkpt lat="45.22151" lon="0.55217">
        <ele>185.7</ele>
      </trkpt>
      <trkpt lat="45.22124" lon="0.55294">
        <ele>183.2</ele>
      </trkpt>
      <trkpt lat="45.22127" lon="0.55361">
        <ele>182.4</ele>
      </trkpt>
      <trkpt lat="45.22108" lon="0.5535">
        <ele>181.2</ele>
      </trkpt>
      <trkpt lat="45.22079" lon="0.55358">
        <ele>174.3</ele>
      </trkpt>
      <trkpt lat="45.22037" lon="0.55373">
        <ele>171.1</ele>
      </trkpt>
      <trkpt lat="45.21999" lon="0.55378">
        <ele>162.2</ele>
      </trkpt>
      <trkpt lat="45.21957" lon="0.5539">
        <ele>160.5</ele>
      </trkpt>
      <trkpt lat="45.21913" lon="0.55401">
        <ele>157</ele>
      </trkpt>
      <trkpt lat="45.21885" lon="0.55405">
        <ele>157.2</ele>
      </trkpt>
      <trkpt lat="45.21879" lon="0.55404">
        <ele>157.3</ele>
      </trkpt>
      <trkpt lat="45.21866" lon="0.55409">
        <ele>157.5</ele>
      </trkpt>
      <trkpt lat="45.21851" lon="0.5542">
        <ele>158.4</ele>
      </trkpt>
      <trkpt lat="45.21845" lon="0.55443">
        <ele>158.6</ele>
      </trkpt>
      <trkpt lat="45.21832" lon="0.55507">
        <ele>160.4</ele>
      </trkpt>
      <trkpt lat="45.21805" lon="0.55539">
        <ele>164.2</ele>
      </trkpt>
      <trkpt lat="45.21758" lon="0.55569">
        <ele>167.7</ele>
      </trkpt>
      <trkpt lat="45.21718" lon="0.55597">
        <ele>171.4</ele>
      </trkpt>
      <trkpt lat="45.21665" lon="0.55624">
        <ele>175.3</ele>
      </trkpt>
      <trkpt lat="45.21609" lon="0.55636">
        <ele>176</ele>
      </trkpt>
      <trkpt lat="45.21551" lon="0.55653">
        <ele>179.7</ele>
      </trkpt>
      <trkpt lat="45.21521" lon="0.55658">
        <ele>181.2</ele>
      </trkpt>
      <trkpt lat="45.21492" lon="0.55643">
        <ele>185</ele>
      </trkpt>
      <trkpt lat="45.21477" lon="0.55611">
        <ele>186.5</ele>
      </trkpt>
      <trkpt lat="45.21466" lon="0.55579">
        <ele>187.4</ele>
      </trkpt>
      <trkpt lat="45.21451" lon="0.55561">
        <ele>187.8</ele>
      </trkpt>
      <trkpt lat="45.21427" lon="0.55554">
        <ele>188.3</ele>
      </trkpt>
      <trkpt lat="45.21343" lon="0.55538">
        <ele>190.2</ele>
      </trkpt>
      <trkpt lat="45.21314" lon="0.55535">
        <ele>189.8</ele>
      </trkpt>
      <trkpt lat="45.21284" lon="0.55534">
        <ele>189.4</ele>
      </trkpt>
      <trkpt lat="45.21255" lon="0.5553">
        <ele>188.8</ele>
      </trkpt>
      <trkpt lat="45.21226" lon="0.55529">
        <ele>183.9</ele>
      </trkpt>
      <trkpt lat="45.2122" lon="0.55476">
        <ele>180.2</ele>
      </trkpt>
      <trkpt lat="45.2122" lon="0.55413">
        <ele>180.5</ele>
      </trkpt>
      <trkpt lat="45.21226" lon="0.55346">
        <ele>181.2</ele>
      </trkpt>
      <trkpt lat="45.21246" lon="0.55249">
        <ele>186.4</ele>
      </trkpt>
      <trkpt lat="45.21267" lon="0.5516">
        <ele>183.5</ele>
      </trkpt>
      <trkpt lat="45.21299" lon="0.55082">
        <ele>176.7</ele>
      </trkpt>
      <trkpt lat="45.21319" lon="0.54965">
        <ele>165.7</ele>
      </trkpt>
      <trkpt lat="45.21328" lon="0.54881">
        <ele>155.6</ele>
      </trkpt>
      <trkpt lat="45.21341" lon="0.54791">
        <ele>146.5</ele>
      </trkpt>
      <trkpt lat="45.21345" lon="0.54737">
        <ele>141.5</ele>
      </trkpt>
      <trkpt lat="45.21353" lon="0.54704">
        <ele>139.7</ele>
      </trkpt>
      <trkpt lat="45.21359" lon="0.54684">
        <ele>138.8</ele>
      </trkpt>
      <trkpt lat="45.21382" lon="0.54633">
        <ele>136.2</ele>
      </trkpt>
      <trkpt lat="45.21386" lon="0.54603">
        <ele>142.19999694824</ele>
        <time>2018-05-05T06:49:32.000Z</time>
      </trkpt>
      <trkpt lat="45.21381" lon="0.54588">
        <ele>141.60000610352</ele>
        <time>2018-05-05T06:49:34.000Z</time>
      </trkpt>
      <trkpt lat="45.2138" lon="0.54579">
        <ele>141.60000610352</ele>
        <time>2018-05-05T06:49:35.000Z</time>
      </trkpt>
      <trkpt lat="45.21371" lon="0.54525">
        <ele>141.39999389648</ele>
        <time>2018-05-05T06:49:42.000Z</time>
      </trkpt>
      <trkpt lat="45.21364" lon="0.54477">
        <ele>142.60000610352</ele>
        <time>2018-05-05T06:49:49.000Z</time>
      </trkpt>
      <trkpt lat="45.21359" lon="0.54449">
        <ele>143.60000610352</ele>
        <time>2018-05-05T06:49:55.000Z</time>
      </trkpt>
      <trkpt lat="45.21359" lon="0.54444">
        <ele>143.80000305176</ele>
        <time>2018-05-05T06:49:56.000Z</time>
      </trkpt>
      <trkpt lat="45.21356" lon="0.54423">
        <ele>144.80000305176</ele>
        <time>2018-05-05T06:50:01.000Z</time>
      </trkpt>
      <trkpt lat="45.21354" lon="0.54413">
        <ele>145.80000305176</ele>
        <time>2018-05-05T06:50:04.000Z</time>
      </trkpt>
      <trkpt lat="45.21353" lon="0.54409">
        <ele>146</ele>
        <time>2018-05-05T06:50:05.000Z</time>
      </trkpt>
      <trkpt lat="45.21351" lon="0.54392">
        <ele>147.19999694824</ele>
        <time>2018-05-05T06:50:11.000Z</time>
      </trkpt>
      <trkpt lat="45.21348" lon="0.54378">
        <ele>148.19999694824</ele>
        <time>2018-05-05T06:50:16.000Z</time>
      </trkpt>
      <trkpt lat="45.21346" lon="0.5437">
        <ele>148.80000305176</ele>
        <time>2018-05-05T06:50:19.000Z</time>
      </trkpt>
      <trkpt lat="45.21345" lon="0.54362">
        <ele>149.39999389648</ele>
        <time>2018-05-05T06:50:22.000Z</time>
      </trkpt>
      <trkpt lat="45.21343" lon="0.54345">
        <ele>150.60000610352</ele>
        <time>2018-05-05T06:50:28.000Z</time>
      </trkpt>
      <trkpt lat="45.21339" lon="0.54326">
        <ele>152</ele>
        <time>2018-05-05T06:50:35.000Z</time>
      </trkpt>
      <trkpt lat="45.21339" lon="0.54323">
        <ele>152</ele>
        <time>2018-05-05T06:50:36.000Z</time>
      </trkpt>
      <trkpt lat="45.21335" lon="0.543">
        <ele>153</ele>
        <time>2018-05-05T06:50:44.000Z</time>
      </trkpt>
      <trkpt lat="45.21334" lon="0.54297">
        <ele>153.19999694824</ele>
        <time>2018-05-05T06:50:45.000Z</time>
      </trkpt>
      <trkpt lat="45.21331" lon="0.54279">
        <ele>154</ele>
        <time>2018-05-05T06:50:51.000Z</time>
      </trkpt>
      <trkpt lat="45.2133" lon="0.5427">
        <ele>154.39999389648</ele>
        <time>2018-05-05T06:50:54.000Z</time>
      </trkpt>
      <trkpt lat="45.21328" lon="0.54258">
        <ele>155.19999694824</ele>
        <time>2018-05-05T06:50:58.000Z</time>
      </trkpt>
      <trkpt lat="45.21326" lon="0.54248">
        <ele>155.60000610352</ele>
        <time>2018-05-05T06:51:01.000Z</time>
      </trkpt>
      <trkpt lat="45.21325" lon="0.54238">
        <ele>156.19999694824</ele>
        <time>2018-05-05T06:51:04.000Z</time>
      </trkpt>
      <trkpt lat="45.21322" lon="0.54224">
        <ele>156.60000610352</ele>
        <time>2018-05-05T06:51:08.000Z</time>
      </trkpt>
      <trkpt lat="45.2132" lon="0.5421">
        <ele>157.19999694824</ele>
        <time>2018-05-05T06:51:12.000Z</time>
      </trkpt>
      <trkpt lat="45.21318" lon="0.542">
        <ele>157.60000610352</ele>
        <time>2018-05-05T06:51:15.000Z</time>
      </trkpt>
      <trkpt lat="45.21317" lon="0.54191">
        <ele>158.39999389648</ele>
        <time>2018-05-05T06:51:18.000Z</time>
      </trkpt>
      <trkpt lat="45.21313" lon="0.54179">
        <ele>158.80000305176</ele>
        <time>2018-05-05T06:51:22.000Z</time>
      </trkpt>
      <trkpt lat="45.21312" lon="0.54171">
        <ele>159.39999389648</ele>
        <time>2018-05-05T06:51:24.000Z</time>
      </trkpt>
      <trkpt lat="45.21308" lon="0.54157">
        <ele>160</ele>
        <time>2018-05-05T06:51:28.000Z</time>
      </trkpt>
      <trkpt lat="45.21298" lon="0.54141">
        <ele>159.60000610352</ele>
        <time>2018-05-05T06:51:33.000Z</time>
      </trkpt>
      <trkpt lat="45.21286" lon="0.54126">
        <ele>159.39999389648</ele>
        <time>2018-05-05T06:51:37.000Z</time>
      </trkpt>
      <trkpt lat="45.21283" lon="0.54122">
        <ele>159</ele>
        <time>2018-05-05T06:51:38.000Z</time>
      </trkpt>
      <trkpt lat="45.21275" lon="0.54114">
        <ele>158.80000305176</ele>
        <time>2018-05-05T06:51:40.000Z</time>
      </trkpt>
      <trkpt lat="45.21272" lon="0.5411">
        <ele>158.80000305176</ele>
        <time>2018-05-05T06:51:41.000Z</time>
      </trkpt>
      <trkpt lat="45.21262" lon="0.54096">
        <ele>158.60000610352</ele>
        <time>2018-05-05T06:51:44.000Z</time>
      </trkpt>
      <trkpt lat="45.21256" lon="0.54085">
        <ele>158.39999389648</ele>
        <time>2018-05-05T06:51:46.000Z</time>
      </trkpt>
      <trkpt lat="45.2124" lon="0.54059">
        <ele>158.39999389648</ele>
        <time>2018-05-05T06:51:51.000Z</time>
      </trkpt>
      <trkpt lat="45.21231" lon="0.54045">
        <ele>158.19999694824</ele>
        <time>2018-05-05T06:51:54.000Z</time>
      </trkpt>
      <trkpt lat="45.21221" lon="0.54029">
        <ele>158.19999694824</ele>
        <time>2018-05-05T06:51:57.000Z</time>
      </trkpt>
      <trkpt lat="45.21202" lon="0.53998">
        <ele>158.39999389648</ele>
        <time>2018-05-05T06:52:03.000Z</time>
      </trkpt>
      <trkpt lat="45.21178" lon="0.53958">
        <ele>158.80000305176</ele>
        <time>2018-05-05T06:52:11.000Z</time>
      </trkpt>
      <trkpt lat="45.21163" lon="0.53933">
        <ele>159.19999694824</ele>
        <time>2018-05-05T06:52:16.000Z</time>
      </trkpt>
      <trkpt lat="45.21154" lon="0.53919">
        <ele>159.19999694824</ele>
        <time>2018-05-05T06:52:19.000Z</time>
      </trkpt>
      <trkpt lat="45.21148" lon="0.5391">
        <ele>159.39999389648</ele>
        <time>2018-05-05T06:52:21.000Z</time>
      </trkpt>
      <trkpt lat="45.21136" lon="0.53891">
        <ele>159.80000305176</ele>
        <time>2018-05-05T06:52:25.000Z</time>
      </trkpt>
      <trkpt lat="45.21117" lon="0.53863">
        <ele>160.60000610352</ele>
        <time>2018-05-05T06:52:31.000Z</time>
      </trkpt>
      <trkpt lat="45.21111" lon="0.53854">
        <ele>160.80000305176</ele>
        <time>2018-05-05T06:52:33.000Z</time>
      </trkpt>
      <trkpt lat="45.21086" lon="0.53815">
        <ele>160.80000305176</ele>
        <time>2018-05-05T06:52:41.000Z</time>
      </trkpt>
      <trkpt lat="45.21058" lon="0.5377">
        <ele>160.80000305176</ele>
        <time>2018-05-05T06:52:50.000Z</time>
      </trkpt>
      <trkpt lat="45.2103" lon="0.53726">
        <ele>160.19999694824</ele>
        <time>2018-05-05T06:52:58.000Z</time>
      </trkpt>
      <trkpt lat="45.21008" lon="0.53689">
        <ele>159.80000305176</ele>
        <time>2018-05-05T06:53:04.000Z</time>
      </trkpt>
      <trkpt lat="45.20999" lon="0.53678">
        <ele>159.60000610352</ele>
        <time>2018-05-05T06:53:06.000Z</time>
      </trkpt>
      <trkpt lat="45.20981" lon="0.53652">
        <ele>160</ele>
        <time>2018-05-05T06:53:11.000Z</time>
      </trkpt>
      <trkpt lat="45.20967" lon="0.53629">
        <ele>160.60000610352</ele>
        <time>2018-05-05T06:53:15.000Z</time>
      </trkpt>
      <trkpt lat="45.20958" lon="0.5361">
        <ele>160.80000305176</ele>
        <time>2018-05-05T06:53:18.000Z</time>
      </trkpt>
      <trkpt lat="45.20935" lon="0.53556">
        <ele>161</ele>
        <time>2018-05-05T06:53:26.000Z</time>
      </trkpt>
      <trkpt lat="45.20919" lon="0.53506">
        <ele>160.80000305176</ele>
        <time>2018-05-05T06:53:33.000Z</time>
      </trkpt>
      <trkpt lat="45.20901" lon="0.53461">
        <ele>161.39999389648</ele>
        <time>2018-05-05T06:53:40.000Z</time>
      </trkpt>
      <trkpt lat="45.20896" lon="0.5345">
        <ele>161.60000610352</ele>
        <time>2018-05-05T06:53:42.000Z</time>
      </trkpt>
      <trkpt lat="45.20879" lon="0.53423">
        <ele>162.39999389648</ele>
        <time>2018-05-05T06:53:47.000Z</time>
      </trkpt>
      <trkpt lat="45.20853" lon="0.53393">
        <ele>162.19999694824</ele>
        <time>2018-05-05T06:53:53.000Z</time>
      </trkpt>
      <trkpt lat="45.20823" lon="0.53373">
        <ele>160.60000610352</ele>
        <time>2018-05-05T06:53:58.000Z</time>
      </trkpt>
      <trkpt lat="45.20817" lon="0.53369">
        <ele>160.39999389648</ele>
        <time>2018-05-05T06:53:59.000Z</time>
      </trkpt>
      <trkpt lat="45.20799" lon="0.53358">
        <ele>159.60000610352</ele>
        <time>2018-05-05T06:54:02.000Z</time>
      </trkpt>
      <trkpt lat="45.20782" lon="0.53346">
        <ele>158.80000305176</ele>
        <time>2018-05-05T06:54:05.000Z</time>
      </trkpt>
      <trkpt lat="45.20771" lon="0.53336">
        <ele>158.60000610352</ele>
        <time>2018-05-05T06:54:07.000Z</time>
      </trkpt>
      <trkpt lat="45.20759" lon="0.53321">
        <ele>158.80000305176</ele>
        <time>2018-05-05T06:54:10.000Z</time>
      </trkpt>
      <trkpt lat="45.20756" lon="0.53315">
        <ele>158.80000305176</ele>
        <time>2018-05-05T06:54:11.000Z</time>
      </trkpt>
      <trkpt lat="45.20754" lon="0.53305">
        <ele>159.39999389648</ele>
        <time>2018-05-05T06:54:13.000Z</time>
      </trkpt>
      <trkpt lat="45.20754" lon="0.53293">
        <ele>160.60000610352</ele>
        <time>2018-05-05T06:54:16.000Z</time>
      </trkpt>
      <trkpt lat="45.20755" lon="0.53287">
        <ele>161.19999694824</ele>
        <time>2018-05-05T06:54:18.000Z</time>
      </trkpt>
      <trkpt lat="45.20755" lon="0.53281">
        <ele>161.80000305176</ele>
        <time>2018-05-05T06:54:20.000Z</time>
      </trkpt>
      <trkpt lat="45.20756" lon="0.53271">
        <ele>163</ele>
        <time>2018-05-05T06:54:24.000Z</time>
      </trkpt>
      <trkpt lat="45.20756" lon="0.53268">
        <ele>163.19999694824</ele>
        <time>2018-05-05T06:54:25.000Z</time>
      </trkpt>
      <trkpt lat="45.20756" lon="0.5326">
        <ele>164.19999694824</ele>
        <time>2018-05-05T06:54:28.000Z</time>
      </trkpt>
      <trkpt lat="45.20758" lon="0.53251">
        <ele>165.39999389648</ele>
        <time>2018-05-05T06:54:32.000Z</time>
      </trkpt>
      <trkpt lat="45.20758" lon="0.53249">
        <ele>165.60000610352</ele>
        <time>2018-05-05T06:54:33.000Z</time>
      </trkpt>
      <trkpt lat="45.20758" lon="0.53243">
        <ele>166.39999389648</ele>
        <time>2018-05-05T06:54:36.000Z</time>
      </trkpt>
      <trkpt lat="45.20759" lon="0.53235">
        <ele>167.19999694824</ele>
        <time>2018-05-05T06:54:39.000Z</time>
      </trkpt>
      <trkpt lat="45.20759" lon="0.5323">
        <ele>167.60000610352</ele>
        <time>2018-05-05T06:54:41.000Z</time>
      </trkpt>
      <trkpt lat="45.20758" lon="0.53218">
        <ele>168.60000610352</ele>
        <time>2018-05-05T06:54:46.000Z</time>
      </trkpt>
      <trkpt lat="45.20758" lon="0.53216">
        <ele>168.80000305176</ele>
        <time>2018-05-05T06:54:47.000Z</time>
      </trkpt>
      <trkpt lat="45.20755" lon="0.5321">
        <ele>169.60000610352</ele>
        <time>2018-05-05T06:54:50.000Z</time>
      </trkpt>
      <trkpt lat="45.2075" lon="0.53204">
        <ele>170.60000610352</ele>
        <time>2018-05-05T06:54:53.000Z</time>
      </trkpt>
      <trkpt lat="45.20741" lon="0.53195">
        <ele>171.80000305176</ele>
        <time>2018-05-05T06:54:58.000Z</time>
      </trkpt>
      <trkpt lat="45.20739" lon="0.53193">
        <ele>172</ele>
        <time>2018-05-05T06:54:59.000Z</time>
      </trkpt>
      <trkpt lat="45.20734" lon="0.53184">
        <ele>172.80000305176</ele>
        <time>2018-05-05T06:55:04.000Z</time>
      </trkpt>
      <trkpt lat="45.20732" lon="0.5318">
        <ele>173</ele>
        <time>2018-05-05T06:55:06.000Z</time>
      </trkpt>
      <trkpt lat="45.20729" lon="0.53169">
        <ele>173.80000305176</ele>
        <time>2018-05-05T06:55:11.000Z</time>
      </trkpt>
      <trkpt lat="45.20726" lon="0.53163">
        <ele>174.19999694824</ele>
        <time>2018-05-05T06:55:13.000Z</time>
      </trkpt>
      <trkpt lat="45.20721" lon="0.53151">
        <ele>174.80000305176</ele>
        <time>2018-05-05T06:55:18.000Z</time>
      </trkpt>
      <trkpt lat="45.20716" lon="0.53139">
        <ele>175.60000610352</ele>
        <time>2018-05-05T06:55:23.000Z</time>
      </trkpt>
      <trkpt lat="45.20714" lon="0.53135">
        <ele>176</ele>
        <time>2018-05-05T06:55:25.000Z</time>
      </trkpt>
      <trkpt lat="45.20706" lon="0.53119">
        <ele>177</ele>
        <time>2018-05-05T06:55:32.000Z</time>
      </trkpt>
      <trkpt lat="45.207" lon="0.5311">
        <ele>178.19999694824</ele>
        <time>2018-05-05T06:55:37.000Z</time>
      </trkpt>
      <trkpt lat="45.20698" lon="0.53105">
        <ele>178.39999389648</ele>
        <time>2018-05-05T06:55:39.000Z</time>
      </trkpt>
      <trkpt lat="45.20695" lon="0.53098">
        <ele>179.39999389648</ele>
        <time>2018-05-05T06:55:42.000Z</time>
      </trkpt>
      <trkpt lat="45.2069" lon="0.53089">
        <ele>180.39999389648</ele>
        <time>2018-05-05T06:55:46.000Z</time>
      </trkpt>
      <trkpt lat="45.20689" lon="0.53087">
        <ele>180.60000610352</ele>
        <time>2018-05-05T06:55:47.000Z</time>
      </trkpt>
      <trkpt lat="45.20685" lon="0.53075">
        <ele>181.60000610352</ele>
        <time>2018-05-05T06:55:52.000Z</time>
      </trkpt>
      <trkpt lat="45.20683" lon="0.53071">
        <ele>182</ele>
        <time>2018-05-05T06:55:54.000Z</time>
      </trkpt>
      <trkpt lat="45.2068" lon="0.53066">
        <ele>182.60000610352</ele>
        <time>2018-05-05T06:55:57.000Z</time>
      </trkpt>
      <trkpt lat="45.20676" lon="0.53061">
        <ele>183.80000305176</ele>
        <time>2018-05-05T06:56:01.000Z</time>
      </trkpt>
      <trkpt lat="45.20675" lon="0.53058">
        <ele>184</ele>
        <time>2018-05-05T06:56:03.000Z</time>
      </trkpt>
      <trkpt lat="45.20673" lon="0.53055">
        <ele>184.80000305176</ele>
        <time>2018-05-05T06:56:05.000Z</time>
      </trkpt>
      <trkpt lat="45.20668" lon="0.53045">
        <ele>185.80000305176</ele>
        <time>2018-05-05T06:56:11.000Z</time>
      </trkpt>
      <trkpt lat="45.20667" lon="0.53044">
        <ele>186</ele>
        <time>2018-05-05T06:56:12.000Z</time>
      </trkpt>
      <trkpt lat="45.20663" lon="0.53038">
        <ele>187</ele>
        <time>2018-05-05T06:56:16.000Z</time>
      </trkpt>
      <trkpt lat="45.2066" lon="0.5303">
        <ele>188</ele>
        <time>2018-05-05T06:56:21.000Z</time>
      </trkpt>
      <trkpt lat="45.20659" lon="0.53029">
        <ele>188.19999694824</ele>
        <time>2018-05-05T06:56:22.000Z</time>
      </trkpt>
      <trkpt lat="45.20655" lon="0.53024">
        <ele>189.19999694824</ele>
        <time>2018-05-05T06:56:26.000Z</time>
      </trkpt>
      <trkpt lat="45.20654" lon="0.53022">
        <ele>189.39999389648</ele>
        <time>2018-05-05T06:56:27.000Z</time>
      </trkpt>
      <trkpt lat="45.20651" lon="0.53018">
        <ele>190.39999389648</ele>
        <time>2018-05-05T06:56:30.000Z</time>
      </trkpt>
      <trkpt lat="45.20646" lon="0.5301">
        <ele>191.39999389648</ele>
        <time>2018-05-05T06:56:35.000Z</time>
      </trkpt>
      <trkpt lat="45.20645" lon="0.53008">
        <ele>191.60000610352</ele>
        <time>2018-05-05T06:56:36.000Z</time>
      </trkpt>
      <trkpt lat="45.2064" lon="0.53001">
        <ele>192.60000610352</ele>
        <time>2018-05-05T06:56:41.000Z</time>
      </trkpt>
      <trkpt lat="45.20638" lon="0.52998">
        <ele>193</ele>
        <time>2018-05-05T06:56:43.000Z</time>
      </trkpt>
      <trkpt lat="45.20634" lon="0.52992">
        <ele>193.80000305176</ele>
        <time>2018-05-05T06:56:47.000Z</time>
      </trkpt>
      <trkpt lat="45.20632" lon="0.52986">
        <ele>194.19999694824</ele>
        <time>2018-05-05T06:56:50.000Z</time>
      </trkpt>
      <trkpt lat="45.20627" lon="0.52976">
        <ele>194.80000305176</ele>
        <time>2018-05-05T06:56:55.000Z</time>
      </trkpt>
      <trkpt lat="45.20624" lon="0.52973">
        <ele>195.19999694824</ele>
        <time>2018-05-05T06:56:57.000Z</time>
      </trkpt>
      <trkpt lat="45.20619" lon="0.52964">
        <ele>196</ele>
        <time>2018-05-05T06:57:01.000Z</time>
      </trkpt>
      <trkpt lat="45.20613" lon="0.52955">
        <ele>196.39999389648</ele>
        <time>2018-05-05T06:57:05.000Z</time>
      </trkpt>
      <trkpt lat="45.20605" lon="0.52942">
        <ele>197.19999694824</ele>
        <time>2018-05-05T06:57:11.000Z</time>
      </trkpt>
      <trkpt lat="45.20601" lon="0.52935">
        <ele>197.39999389648</ele>
        <time>2018-05-05T06:57:14.000Z</time>
      </trkpt>
      <trkpt lat="45.20594" lon="0.52924">
        <ele>198.19999694824</ele>
        <time>2018-05-05T06:57:19.000Z</time>
      </trkpt>
      <trkpt lat="45.20588" lon="0.52915">
        <ele>198.80000305176</ele>
        <time>2018-05-05T06:57:23.000Z</time>
      </trkpt>
      <trkpt lat="45.20581" lon="0.52906">
        <ele>199.39999389648</ele>
        <time>2018-05-05T06:57:27.000Z</time>
      </trkpt>
      <trkpt lat="45.20576" lon="0.52897">
        <ele>199.80000305176</ele>
        <time>2018-05-05T06:57:31.000Z</time>
      </trkpt>
      <trkpt lat="45.2057" lon="0.52889">
        <ele>200.39999389648</ele>
        <time>2018-05-05T06:57:35.000Z</time>
      </trkpt>
      <trkpt lat="45.20567" lon="0.52885">
        <ele>200.60000610352</ele>
        <time>2018-05-05T06:57:37.000Z</time>
      </trkpt>
      <trkpt lat="45.20561" lon="0.52877">
        <ele>201.39999389648</ele>
        <time>2018-05-05T06:57:41.000Z</time>
      </trkpt>
      <trkpt lat="45.20556" lon="0.52869">
        <ele>202.39999389648</ele>
        <time>2018-05-05T06:57:45.000Z</time>
      </trkpt>
      <trkpt lat="45.20555" lon="0.52867">
        <ele>202.39999389648</ele>
        <time>2018-05-05T06:57:46.000Z</time>
      </trkpt>
      <trkpt lat="45.20547" lon="0.52857">
        <ele>203.60000610352</ele>
        <time>2018-05-05T06:57:52.000Z</time>
      </trkpt>
      <trkpt lat="45.20546" lon="0.52855">
        <ele>203.80000305176</ele>
        <time>2018-05-05T06:57:53.000Z</time>
      </trkpt>
      <trkpt lat="45.20541" lon="0.52848">
        <ele>204.60000610352</ele>
        <time>2018-05-05T06:57:57.000Z</time>
      </trkpt>
      <trkpt lat="45.20537" lon="0.52843">
        <ele>205.39999389648</ele>
        <time>2018-05-05T06:58:00.000Z</time>
      </trkpt>
      <trkpt lat="45.20535" lon="0.5284">
        <ele>205.80000305176</ele>
        <time>2018-05-05T06:58:02.000Z</time>
      </trkpt>
      <trkpt lat="45.2053" lon="0.52833">
        <ele>206.80000305176</ele>
        <time>2018-05-05T06:58:06.000Z</time>
      </trkpt>
      <trkpt lat="45.20528" lon="0.5283">
        <ele>207.19999694824</ele>
        <time>2018-05-05T06:58:08.000Z</time>
      </trkpt>
      <trkpt lat="45.20524" lon="0.52823">
        <ele>208</ele>
        <time>2018-05-05T06:58:12.000Z</time>
      </trkpt>
      <trkpt lat="45.2052" lon="0.52818">
        <ele>208.60000610352</ele>
        <time>2018-05-05T06:58:15.000Z</time>
      </trkpt>
      <trkpt lat="45.20518" lon="0.52814">
        <ele>209.19999694824</ele>
        <time>2018-05-05T06:58:17.000Z</time>
      </trkpt>
      <trkpt lat="45.20513" lon="0.52805">
        <ele>210</ele>
        <time>2018-05-05T06:58:22.000Z</time>
      </trkpt>
      <trkpt lat="45.20512" lon="0.52803">
        <ele>210.19999694824</ele>
        <time>2018-05-05T06:58:23.000Z</time>
      </trkpt>
      <trkpt lat="45.20505" lon="0.52795">
        <ele>211</ele>
        <time>2018-05-05T06:58:28.000Z</time>
      </trkpt>
      <trkpt lat="45.20504" lon="0.52794">
        <ele>211.19999694824</ele>
        <time>2018-05-05T06:58:29.000Z</time>
      </trkpt>
      <trkpt lat="45.20495" lon="0.52787">
        <ele>212.19999694824</ele>
        <time>2018-05-05T06:58:35.000Z</time>
      </trkpt>
      <trkpt lat="45.20494" lon="0.52785">
        <ele>212.39999389648</ele>
        <time>2018-05-05T06:58:36.000Z</time>
      </trkpt>
      <trkpt lat="45.2049" lon="0.5278">
        <ele>213.39999389648</ele>
        <time>2018-05-05T06:58:41.000Z</time>
      </trkpt>
      <trkpt lat="45.20489" lon="0.52779">
        <ele>213.60000610352</ele>
        <time>2018-05-05T06:58:42.000Z</time>
      </trkpt>
      <trkpt lat="45.20479" lon="0.52772">
        <ele>214.39999389648</ele>
        <time>2018-05-05T06:58:48.000Z</time>
      </trkpt>
      <trkpt lat="45.20474" lon="0.52767">
        <ele>214.80000305176</ele>
        <time>2018-05-05T06:58:50.000Z</time>
      </trkpt>
      <trkpt lat="45.20466" lon="0.52758">
        <ele>215.60000610352</ele>
        <time>2018-05-05T06:58:55.000Z</time>
      </trkpt>
      <trkpt lat="45.20464" lon="0.52756">
        <ele>216</ele>
        <time>2018-05-05T06:58:56.000Z</time>
      </trkpt>
      <trkpt lat="45.2045" lon="0.52742">
        <ele>217</ele>
        <time>2018-05-05T06:59:03.000Z</time>
      </trkpt>
      <trkpt lat="45.20444" lon="0.52733">
        <ele>218</ele>
        <time>2018-05-05T06:59:08.000Z</time>
      </trkpt>
      <trkpt lat="45.20443" lon="0.52731">
        <ele>218.19999694824</ele>
        <time>2018-05-05T06:59:09.000Z</time>
      </trkpt>
      <trkpt lat="45.20436" lon="0.52719">
        <ele>219.39999389648</ele>
        <time>2018-05-05T06:59:15.000Z</time>
      </trkpt>
      <trkpt lat="45.20434" lon="0.52713">
        <ele>220.19999694824</ele>
        <time>2018-05-05T06:59:18.000Z</time>
      </trkpt>
      <trkpt lat="45.20432" lon="0.5271">
        <ele>220.60000610352</ele>
        <time>2018-05-05T06:59:20.000Z</time>
      </trkpt>
      <trkpt lat="45.20428" lon="0.52704">
        <ele>221.19999694824</ele>
        <time>2018-05-05T06:59:24.000Z</time>
      </trkpt>
      <trkpt lat="45.20427" lon="0.52702">
        <ele>221.60000610352</ele>
        <time>2018-05-05T06:59:25.000Z</time>
      </trkpt>
      <trkpt lat="45.2042" lon="0.52692">
        <ele>222.60000610352</ele>
        <time>2018-05-05T06:59:31.000Z</time>
      </trkpt>
      <trkpt lat="45.20414" lon="0.52683">
        <ele>223.60000610352</ele>
        <time>2018-05-05T06:59:37.000Z</time>
      </trkpt>
      <trkpt lat="45.20413" lon="0.52681">
        <ele>223.80000305176</ele>
        <time>2018-05-05T06:59:38.000Z</time>
      </trkpt>
      <trkpt lat="45.20401" lon="0.52669">
        <ele>224.60000610352</ele>
        <time>2018-05-05T06:59:45.000Z</time>
      </trkpt>
      <trkpt lat="45.20399" lon="0.52667">
        <ele>224.80000305176</ele>
        <time>2018-05-05T06:59:46.000Z</time>
      </trkpt>
      <trkpt lat="45.2039" lon="0.52658">
        <ele>225.39999389648</ele>
        <time>2018-05-05T06:59:51.000Z</time>
      </trkpt>
      <trkpt lat="45.20385" lon="0.52653">
        <ele>225.80000305176</ele>
        <time>2018-05-05T06:59:54.000Z</time>
      </trkpt>
      <trkpt lat="45.20377" lon="0.52645">
        <ele>226.19999694824</ele>
        <time>2018-05-05T06:59:58.000Z</time>
      </trkpt>
      <trkpt lat="45.20353" lon="0.52638">
        <ele>226.80000305176</ele>
        <time>2018-05-05T07:00:03.000Z</time>
      </trkpt>
      <trkpt lat="45.20325" lon="0.52626">
        <ele>227.39999389648</ele>
        <time>2018-05-05T07:00:10.000Z</time>
      </trkpt>
      <trkpt lat="45.20315" lon="0.52622">
        <ele>227.80000305176</ele>
        <time>2018-05-05T07:00:13.000Z</time>
      </trkpt>
      <trkpt lat="45.20305" lon="0.5262">
        <ele>228.19999694824</ele>
        <time>2018-05-05T07:00:16.000Z</time>
      </trkpt>
      <trkpt lat="45.20281" lon="0.52612">
        <ele>229</ele>
        <time>2018-05-05T07:00:23.000Z</time>
      </trkpt>
      <trkpt lat="45.20259" lon="0.52596">
        <ele>229.60000610352</ele>
        <time>2018-05-05T07:00:30.000Z</time>
      </trkpt>
      <trkpt lat="45.20246" lon="0.52587">
        <ele>229.60000610352</ele>
        <time>2018-05-05T07:00:35.000Z</time>
      </trkpt>
      <trkpt lat="45.20233" lon="0.5258">
        <ele>230</ele>
        <time>2018-05-05T07:00:39.000Z</time>
      </trkpt>
      <trkpt lat="45.20226" lon="0.52576">
        <ele>230</ele>
        <time>2018-05-05T07:00:41.000Z</time>
      </trkpt>
      <trkpt lat="45.2019" lon="0.52557">
        <ele>230.80000305176</ele>
        <time>2018-05-05T07:00:50.000Z</time>
      </trkpt>
      <trkpt lat="45.20158" lon="0.52546">
        <ele>230.60000610352</ele>
        <time>2018-05-05T07:00:57.000Z</time>
      </trkpt>
      <trkpt lat="45.20154" lon="0.52543">
        <ele>230.60000610352</ele>
        <time>2018-05-05T07:00:58.000Z</time>
      </trkpt>
      <trkpt lat="45.20147" lon="0.52532">
        <ele>230</ele>
        <time>2018-05-05T07:01:01.000Z</time>
      </trkpt>
      <trkpt lat="45.20145" lon="0.52529">
        <ele>230</ele>
        <time>2018-05-05T07:01:02.000Z</time>
      </trkpt>
      <trkpt lat="45.20142" lon="0.5252">
        <ele>229.60000610352</ele>
        <time>2018-05-05T07:01:06.000Z</time>
      </trkpt>
      <trkpt lat="45.20141" lon="0.5252">
        <ele>229.80000305176</ele>
        <time>2018-05-05T07:01:07.000Z</time>
      </trkpt>
      <trkpt lat="45.20137" lon="0.52525">
        <ele>229.80000305176</ele>
        <time>2018-05-05T07:01:10.000Z</time>
      </trkpt>
      <trkpt lat="45.20134" lon="0.52528">
        <ele>230</ele>
        <time>2018-05-05T07:01:11.000Z</time>
      </trkpt>
      <trkpt lat="45.20114" lon="0.52545">
        <ele>230.19999694824</ele>
        <time>2018-05-05T07:01:16.000Z</time>
      </trkpt>
      <trkpt lat="45.20081" lon="0.52565">
        <ele>230.60000610352</ele>
        <time>2018-05-05T07:01:23.000Z</time>
      </trkpt>
      <trkpt lat="45.2005" lon="0.52582">
        <ele>231</ele>
        <time>2018-05-05T07:01:30.000Z</time>
      </trkpt>
      <trkpt lat="45.20042" lon="0.52585">
        <ele>231</ele>
        <time>2018-05-05T07:01:32.000Z</time>
      </trkpt>
      <trkpt lat="45.20008" lon="0.52595">
        <ele>230.60000610352</ele>
        <time>2018-05-05T07:01:39.000Z</time>
      </trkpt>
      <trkpt lat="45.19992" lon="0.52597">
        <ele>230.19999694824</ele>
        <time>2018-05-05T07:01:42.000Z</time>
      </trkpt>
      <trkpt lat="45.19982" lon="0.52598">
        <ele>230</ele>
        <time>2018-05-05T07:01:44.000Z</time>
      </trkpt>
      <trkpt lat="45.19977" lon="0.52599">
        <ele>230</ele>
        <time>2018-05-05T07:01:45.000Z</time>
      </trkpt>
      <trkpt lat="45.1997" lon="0.52597">
        <ele>229.80000305176</ele>
        <time>2018-05-05T07:01:47.000Z</time>
      </trkpt>
      <trkpt lat="45.19967" lon="0.52593">
        <ele>229.39999389648</ele>
        <time>2018-05-05T07:01:48.000Z</time>
      </trkpt>
      <trkpt lat="45.19973" lon="0.52581">
        <ele>229.19999694824</ele>
        <time>2018-05-05T07:01:51.000Z</time>
      </trkpt>
      <trkpt lat="45.19992" lon="0.52548">
        <ele>229.39999389648</ele>
        <time>2018-05-05T07:01:56.000Z</time>
      </trkpt>
      <trkpt lat="45.19994" lon="0.5254">
        <ele>229.39999389648</ele>
        <time>2018-05-05T07:01:57.000Z</time>
      </trkpt>
      <trkpt lat="45.20001" lon="0.5251">
        <ele>229.19999694824</ele>
        <time>2018-05-05T07:02:01.000Z</time>
      </trkpt>
      <trkpt lat="45.20005" lon="0.52486">
        <ele>229</ele>
        <time>2018-05-05T07:02:04.000Z</time>
      </trkpt>
      <trkpt lat="45.20005" lon="0.52478">
        <ele>228.80000305176</ele>
        <time>2018-05-05T07:02:05.000Z</time>
      </trkpt>
      <trkpt lat="45.20007" lon="0.52452">
        <ele>228.39999389648</ele>
        <time>2018-05-05T07:02:08.000Z</time>
      </trkpt>
      <trkpt lat="45.20008" lon="0.5242">
        <ele>227.80000305176</ele>
        <time>2018-05-05T07:02:12.000Z</time>
      </trkpt>
      <trkpt lat="45.2001" lon="0.52399">
        <ele>227.39999389648</ele>
        <time>2018-05-05T07:02:15.000Z</time>
      </trkpt>
      <trkpt lat="45.20008" lon="0.52361">
        <ele>226.80000305176</ele>
        <time>2018-05-05T07:02:20.000Z</time>
      </trkpt>
      <trkpt lat="45.20007" lon="0.52346">
        <ele>226.39999389648</ele>
        <time>2018-05-05T07:02:22.000Z</time>
      </trkpt>
      <trkpt lat="45.20003" lon="0.52287">
        <ele>225.80000305176</ele>
        <time>2018-05-05T07:02:29.000Z</time>
      </trkpt>
      <trkpt lat="45.20002" lon="0.52278">
        <ele>225.60000610352</ele>
        <time>2018-05-05T07:02:30.000Z</time>
      </trkpt>
      <trkpt lat="45.19998" lon="0.52239">
        <ele>225</ele>
        <time>2018-05-05T07:02:34.000Z</time>
      </trkpt>
      <trkpt lat="45.19992" lon="0.5221">
        <ele>224.60000610352</ele>
        <time>2018-05-05T07:02:37.000Z</time>
      </trkpt>
      <trkpt lat="45.19982" lon="0.52173">
        <ele>223.80000305176</ele>
        <time>2018-05-05T07:02:41.000Z</time>
      </trkpt>
      <trkpt lat="45.1998" lon="0.52164">
        <ele>223.60000610352</ele>
        <time>2018-05-05T07:02:42.000Z</time>
      </trkpt>
      <trkpt lat="45.19977" lon="0.52157">
        <ele>223.19999694824</ele>
        <time>2018-05-05T07:02:43.000Z</time>
      </trkpt>
      <trkpt lat="45.19975" lon="0.52142">
        <ele>222</ele>
        <time>2018-05-05T07:02:45.000Z</time>
      </trkpt>
      <trkpt lat="45.19975" lon="0.52136">
        <ele>221.60000610352</ele>
        <time>2018-05-05T07:02:46.000Z</time>
      </trkpt>
      <trkpt lat="45.1998" lon="0.52127">
        <ele>221.80000305176</ele>
        <time>2018-05-05T07:02:49.000Z</time>
      </trkpt>
      <trkpt lat="45.19994" lon="0.5211">
        <ele>221.80000305176</ele>
        <time>2018-05-05T07:02:54.000Z</time>
      </trkpt>
      <trkpt lat="45.20007" lon="0.52086">
        <ele>222</ele>
        <time>2018-05-05T07:02:59.000Z</time>
      </trkpt>
      <trkpt lat="45.20016" lon="0.52064">
        <ele>222</ele>
        <time>2018-05-05T07:03:03.000Z</time>
      </trkpt>
      <trkpt lat="45.20021" lon="0.52052">
        <ele>222.39999389648</ele>
        <time>2018-05-05T07:03:05.000Z</time>
      </trkpt>
      <trkpt lat="45.20039" lon="0.52013">
        <ele>222.60000610352</ele>
        <time>2018-05-05T07:03:12.000Z</time>
      </trkpt>
      <trkpt lat="45.20055" lon="0.51984">
        <ele>221.60000610352</ele>
        <time>2018-05-05T07:03:17.000Z</time>
      </trkpt>
      <trkpt lat="45.20059" lon="0.51977">
        <ele>221.39999389648</ele>
        <time>2018-05-05T07:03:18.000Z</time>
      </trkpt>
      <trkpt lat="45.20067" lon="0.51962">
        <ele>221</ele>
        <time>2018-05-05T07:03:20.000Z</time>
      </trkpt>
      <trkpt lat="45.2007" lon="0.51955">
        <ele>221</ele>
        <time>2018-05-05T07:03:21.000Z</time>
      </trkpt>
      <trkpt lat="45.20076" lon="0.51939">
        <ele>220.80000305176</ele>
        <time>2018-05-05T07:03:23.000Z</time>
      </trkpt>
      <trkpt lat="45.20088" lon="0.51917">
        <ele>219.80000305176</ele>
        <time>2018-05-05T07:03:26.000Z</time>
      </trkpt>
      <trkpt lat="45.20098" lon="0.51904">
        <ele>219.60000610352</ele>
        <time>2018-05-05T07:03:28.000Z</time>
      </trkpt>
      <trkpt lat="45.20123" lon="0.51887">
        <ele>219.60000610352</ele>
        <time>2018-05-05T07:03:32.000Z</time>
      </trkpt>
      <trkpt lat="45.20157" lon="0.51863">
        <ele>219.39999389648</ele>
        <time>2018-05-05T07:03:38.000Z</time>
      </trkpt>
      <trkpt lat="45.20173" lon="0.51846">
        <ele>218</ele>
        <time>2018-05-05T07:03:41.000Z</time>
      </trkpt>
      <trkpt lat="45.20184" lon="0.51831">
        <ele>217.39999389648</ele>
        <time>2018-05-05T07:03:43.000Z</time>
      </trkpt>
      <trkpt lat="45.2019" lon="0.51824">
        <ele>216.80000305176</ele>
        <time>2018-05-05T07:03:44.000Z</time>
      </trkpt>
      <trkpt lat="45.20195" lon="0.51815">
        <ele>216.60000610352</ele>
        <time>2018-05-05T07:03:45.000Z</time>
      </trkpt>
      <trkpt lat="45.20204" lon="0.51797">
        <ele>215.80000305176</ele>
        <time>2018-05-05T07:03:47.000Z</time>
      </trkpt>
      <trkpt lat="45.20207" lon="0.51789">
        <ele>215</ele>
        <time>2018-05-05T07:03:48.000Z</time>
      </trkpt>
      <trkpt lat="45.2021" lon="0.51779">
        <ele>214.60000610352</ele>
        <time>2018-05-05T07:03:49.000Z</time>
      </trkpt>
      <trkpt lat="45.20215" lon="0.51748">
        <ele>213.39999389648</ele>
        <time>2018-05-05T07:03:52.000Z</time>
      </trkpt>
      <trkpt lat="45.20221" lon="0.51711">
        <ele>212.60000610352</ele>
        <time>2018-05-05T07:03:56.000Z</time>
      </trkpt>
      <trkpt lat="45.20223" lon="0.51704">
        <ele>212.39999389648</ele>
        <time>2018-05-05T07:03:57.000Z</time>
      </trkpt>
      <trkpt lat="45.20227" lon="0.5169">
        <ele>212.60000610352</ele>
        <time>2018-05-05T07:03:59.000Z</time>
      </trkpt>
      <trkpt lat="45.20232" lon="0.51668">
        <ele>213</ele>
        <time>2018-05-05T07:04:02.000Z</time>
      </trkpt>
      <trkpt lat="45.2024" lon="0.51623">
        <ele>214.19999694824</ele>
        <time>2018-05-05T07:04:08.000Z</time>
      </trkpt>
      <trkpt lat="45.20241" lon="0.51617">
        <ele>214.39999389648</ele>
        <time>2018-05-05T07:04:09.000Z</time>
      </trkpt>
      <trkpt lat="45.20245" lon="0.51594">
        <ele>215.39999389648</ele>
        <time>2018-05-05T07:04:13.000Z</time>
      </trkpt>
      <trkpt lat="45.20246" lon="0.51589">
        <ele>215.80000305176</ele>
        <time>2018-05-05T07:04:14.000Z</time>
      </trkpt>
      <trkpt lat="45.20248" lon="0.51566">
        <ele>216.19999694824</ele>
        <time>2018-05-05T07:04:19.000Z</time>
      </trkpt>
      <trkpt lat="45.20245" lon="0.51543">
        <ele>216.19999694824</ele>
        <time>2018-05-05T07:04:23.000Z</time>
      </trkpt>
      <trkpt lat="45.20244" lon="0.51537">
        <ele>216.19999694824</ele>
        <time>2018-05-05T07:04:24.000Z</time>
      </trkpt>
      <trkpt lat="45.20239" lon="0.51517">
        <ele>216.19999694824</ele>
        <time>2018-05-05T07:04:27.000Z</time>
      </trkpt>
      <trkpt lat="45.20235" lon="0.51502">
        <ele>215.80000305176</ele>
        <time>2018-05-05T07:04:29.000Z</time>
      </trkpt>
      <trkpt lat="45.20223" lon="0.51457">
        <ele>214.60000610352</ele>
        <time>2018-05-05T07:04:35.000Z</time>
      </trkpt>
      <trkpt lat="45.20221" lon="0.51449">
        <ele>214.39999389648</ele>
        <time>2018-05-05T07:04:36.000Z</time>
      </trkpt>
      <trkpt lat="45.2022" lon="0.5144">
        <ele>214.19999694824</ele>
        <time>2018-05-05T07:04:37.000Z</time>
      </trkpt>
      <trkpt lat="45.20216" lon="0.51411">
        <ele>215</ele>
        <time>2018-05-05T07:04:41.000Z</time>
      </trkpt>
      <trkpt lat="45.20214" lon="0.51397">
        <ele>215.19999694824</ele>
        <time>2018-05-05T07:04:43.000Z</time>
      </trkpt>
      <trkpt lat="45.20213" lon="0.51383">
        <ele>215.60000610352</ele>
        <time>2018-05-05T07:04:45.000Z</time>
      </trkpt>
      <trkpt lat="45.20212" lon="0.5137">
        <ele>216</ele>
        <time>2018-05-05T07:04:47.000Z</time>
      </trkpt>
      <trkpt lat="45.20213" lon="0.51357">
        <ele>216.19999694824</ele>
        <time>2018-05-05T07:04:49.000Z</time>
      </trkpt>
      <trkpt lat="45.20211" lon="0.51345">
        <ele>216.60000610352</ele>
        <time>2018-05-05T07:04:51.000Z</time>
      </trkpt>
      <trkpt lat="45.20205" lon="0.51312">
        <ele>217</ele>
        <time>2018-05-05T07:04:57.000Z</time>
      </trkpt>
      <trkpt lat="45.20209" lon="0.51279">
        <ele>217</ele>
        <time>2018-05-05T07:05:03.000Z</time>
      </trkpt>
      <trkpt lat="45.20215" lon="0.51258">
        <ele>216.80000305176</ele>
        <time>2018-05-05T07:05:07.000Z</time>
      </trkpt>
      <trkpt lat="45.20218" lon="0.51247">
        <ele>216.80000305176</ele>
        <time>2018-05-05T07:05:09.000Z</time>
      </trkpt>
      <trkpt lat="45.20227" lon="0.51207">
        <ele>217</ele>
        <time>2018-05-05T07:05:15.000Z</time>
      </trkpt>
      <trkpt lat="45.20235" lon="0.51165">
        <ele>217.39999389648</ele>
        <time>2018-05-05T07:05:22.000Z</time>
      </trkpt>
      <trkpt lat="45.2024" lon="0.51144">
        <ele>217.60000610352</ele>
        <time>2018-05-05T07:05:25.000Z</time>
      </trkpt>
      <trkpt lat="45.20244" lon="0.51126">
        <ele>217.80000305176</ele>
        <time>2018-05-05T07:05:28.000Z</time>
      </trkpt>
      <trkpt lat="45.20248" lon="0.51094">
        <ele>218.39999389648</ele>
        <time>2018-05-05T07:05:34.000Z</time>
      </trkpt>
      <trkpt lat="45.20253" lon="0.51053">
        <ele>217.80000305176</ele>
        <time>2018-05-05T07:05:41.000Z</time>
      </trkpt>
      <trkpt lat="45.20258" lon="0.5105">
        <ele>217.80000305176</ele>
        <time>2018-05-05T07:05:43.000Z</time>
      </trkpt>
      <trkpt lat="45.20262" lon="0.5105">
        <ele>218</ele>
        <time>2018-05-05T07:05:44.000Z</time>
      </trkpt>
      <trkpt lat="45.20283" lon="0.51056">
        <ele>218</ele>
        <time>2018-05-05T07:05:50.000Z</time>
      </trkpt>
      <trkpt lat="45.20309" lon="0.5107">
        <ele>216.60000610352</ele>
        <time>2018-05-05T07:05:56.000Z</time>
      </trkpt>
      <trkpt lat="45.20313" lon="0.51075">
        <ele>216.19999694824</ele>
        <time>2018-05-05T07:05:57.000Z</time>
      </trkpt>
      <trkpt lat="45.20324" lon="0.51084">
        <ele>215.60000610352</ele>
        <time>2018-05-05T07:05:59.000Z</time>
      </trkpt>
      <trkpt lat="45.20329" lon="0.51089">
        <ele>215.19999694824</ele>
        <time>2018-05-05T07:06:00.000Z</time>
      </trkpt>
      <trkpt lat="45.20335" lon="0.51092">
        <ele>214.60000610352</ele>
        <time>2018-05-05T07:06:01.000Z</time>
      </trkpt>
      <trkpt lat="45.20342" lon="0.51094">
        <ele>214</ele>
        <time>2018-05-05T07:06:02.000Z</time>
      </trkpt>
      <trkpt lat="45.20355" lon="0.51099">
        <ele>212.80000305176</ele>
        <time>2018-05-05T07:06:04.000Z</time>
      </trkpt>
      <trkpt lat="45.20361" lon="0.51101">
        <ele>211.39999389648</ele>
        <time>2018-05-05T07:06:05.000Z</time>
      </trkpt>
      <trkpt lat="45.20372" lon="0.51105">
        <ele>210.19999694824</ele>
        <time>2018-05-05T07:06:07.000Z</time>
      </trkpt>
      <trkpt lat="45.20383" lon="0.51109">
        <ele>209.60000610352</ele>
        <time>2018-05-05T07:06:09.000Z</time>
      </trkpt>
      <trkpt lat="45.20388" lon="0.51111">
        <ele>209.19999694824</ele>
        <time>2018-05-05T07:06:10.000Z</time>
      </trkpt>
      <trkpt lat="45.20411" lon="0.51118">
        <ele>208</ele>
        <time>2018-05-05T07:06:14.000Z</time>
      </trkpt>
      <trkpt lat="45.20416" lon="0.51119">
        <ele>207.60000610352</ele>
        <time>2018-05-05T07:06:15.000Z</time>
      </trkpt>
      <trkpt lat="45.20421" lon="0.51121">
        <ele>206.80000305176</ele>
        <time>2018-05-05T07:06:16.000Z</time>
      </trkpt>
      <trkpt lat="45.20435" lon="0.51128">
        <ele>204.80000305176</ele>
        <time>2018-05-05T07:06:18.000Z</time>
      </trkpt>
      <trkpt lat="45.20443" lon="0.51131">
        <ele>203.60000610352</ele>
        <time>2018-05-05T07:06:19.000Z</time>
      </trkpt>
      <trkpt lat="45.20449" lon="0.51135">
        <ele>202.60000610352</ele>
        <time>2018-05-05T07:06:20.000Z</time>
      </trkpt>
      <trkpt lat="45.20455" lon="0.51141">
        <ele>202</ele>
        <time>2018-05-05T07:06:21.000Z</time>
      </trkpt>
      <trkpt lat="45.20467" lon="0.51155">
        <ele>200.80000305176</ele>
        <time>2018-05-05T07:06:23.000Z</time>
      </trkpt>
      <trkpt lat="45.20475" lon="0.51161">
        <ele>199.39999389648</ele>
        <time>2018-05-05T07:06:25.000Z</time>
      </trkpt>
      <trkpt lat="45.2048" lon="0.51162">
        <ele>199</ele>
        <time>2018-05-05T07:06:26.000Z</time>
      </trkpt>
      <trkpt lat="45.20485" lon="0.51163">
        <ele>198.60000610352</ele>
        <time>2018-05-05T07:06:27.000Z</time>
      </trkpt>
      <trkpt lat="45.20496" lon="0.51166">
        <ele>197.80000305176</ele>
        <time>2018-05-05T07:06:29.000Z</time>
      </trkpt>
      <trkpt lat="45.20513" lon="0.51174">
        <ele>196.60000610352</ele>
        <time>2018-05-05T07:06:32.000Z</time>
      </trkpt>
      <trkpt lat="45.20523" lon="0.51179">
        <ele>195.60000610352</ele>
        <time>2018-05-05T07:06:34.000Z</time>
      </trkpt>
      <trkpt lat="45.20535" lon="0.51184">
        <ele>194.39999389648</ele>
        <time>2018-05-05T07:06:36.000Z</time>
      </trkpt>
      <trkpt lat="45.20548" lon="0.51191">
        <ele>193</ele>
        <time>2018-05-05T07:06:38.000Z</time>
      </trkpt>
      <trkpt lat="45.20561" lon="0.51201">
        <ele>191.19999694824</ele>
        <time>2018-05-05T07:06:40.000Z</time>
      </trkpt>
      <trkpt lat="45.20574" lon="0.51214">
        <ele>190</ele>
        <time>2018-05-05T07:06:42.000Z</time>
      </trkpt>
      <trkpt lat="45.2058" lon="0.5122">
        <ele>189.39999389648</ele>
        <time>2018-05-05T07:06:43.000Z</time>
      </trkpt>
      <trkpt lat="45.20586" lon="0.51228">
        <ele>188.80000305176</ele>
        <time>2018-05-05T07:06:44.000Z</time>
      </trkpt>
      <trkpt lat="45.20604" lon="0.51246">
        <ele>187.60000610352</ele>
        <time>2018-05-05T07:06:47.000Z</time>
      </trkpt>
      <trkpt lat="45.20616" lon="0.51255">
        <ele>186.60000610352</ele>
        <time>2018-05-05T07:06:49.000Z</time>
      </trkpt>
      <trkpt lat="45.20622" lon="0.5126">
        <ele>185.80000305176</ele>
        <time>2018-05-05T07:06:50.000Z</time>
      </trkpt>
      <trkpt lat="45.20628" lon="0.51266">
        <ele>185.19999694824</ele>
        <time>2018-05-05T07:06:51.000Z</time>
      </trkpt>
      <trkpt lat="45.20639" lon="0.51275">
        <ele>183</ele>
        <time>2018-05-05T07:06:53.000Z</time>
      </trkpt>
      <trkpt lat="45.20645" lon="0.5128">
        <ele>182</ele>
        <time>2018-05-05T07:06:54.000Z</time>
      </trkpt>
      <trkpt lat="45.2065" lon="0.51282">
        <ele>181</ele>
        <time>2018-05-05T07:06:55.000Z</time>
      </trkpt>
      <trkpt lat="45.20656" lon="0.51282">
        <ele>179.80000305176</ele>
        <time>2018-05-05T07:06:56.000Z</time>
      </trkpt>
      <trkpt lat="45.20665" lon="0.51274">
        <ele>178.19999694824</ele>
        <time>2018-05-05T07:06:58.000Z</time>
      </trkpt>
      <trkpt lat="45.20673" lon="0.51261">
        <ele>176.80000305176</ele>
        <time>2018-05-05T07:07:00.000Z</time>
      </trkpt>
      <trkpt lat="45.20677" lon="0.51253">
        <ele>176</ele>
        <time>2018-05-05T07:07:01.000Z</time>
      </trkpt>
      <trkpt lat="45.20679" lon="0.51248">
        <ele>175</ele>
        <time>2018-05-05T07:07:02.000Z</time>
      </trkpt>
      <trkpt lat="45.20682" lon="0.51241">
        <ele>174.19999694824</ele>
        <time>2018-05-05T07:07:03.000Z</time>
      </trkpt>
      <trkpt lat="45.20683" lon="0.51232">
        <ele>173.60000610352</ele>
        <time>2018-05-05T07:07:04.000Z</time>
      </trkpt>
      <trkpt lat="45.20684" lon="0.51215">
        <ele>172.80000305176</ele>
        <time>2018-05-05T07:07:06.000Z</time>
      </trkpt>
      <trkpt lat="45.20685" lon="0.51206">
        <ele>172.39999389648</ele>
        <time>2018-05-05T07:07:07.000Z</time>
      </trkpt>
      <trkpt lat="45.20686" lon="0.51198">
        <ele>171.80000305176</ele>
        <time>2018-05-05T07:07:08.000Z</time>
      </trkpt>
      <trkpt lat="45.20688" lon="0.51189">
        <ele>171.19999694824</ele>
        <time>2018-05-05T07:07:09.000Z</time>
      </trkpt>
      <trkpt lat="45.20693" lon="0.51174">
        <ele>169.39999389648</ele>
        <time>2018-05-05T07:07:11.000Z</time>
      </trkpt>
      <trkpt lat="45.20695" lon="0.51168">
        <ele>168.39999389648</ele>
        <time>2018-05-05T07:07:12.000Z</time>
      </trkpt>
      <trkpt lat="45.20697" lon="0.51164">
        <ele>167.60000610352</ele>
        <time>2018-05-05T07:07:13.000Z</time>
      </trkpt>
      <trkpt lat="45.207" lon="0.51155">
        <ele>166.39999389648</ele>
        <time>2018-05-05T07:07:15.000Z</time>
      </trkpt>
      <trkpt lat="45.20703" lon="0.51147">
        <ele>165</ele>
        <time>2018-05-05T07:07:17.000Z</time>
      </trkpt>
      <trkpt lat="45.20708" lon="0.51138">
        <ele>165</ele>
        <time>2018-05-05T07:07:20.000Z</time>
      </trkpt>
      <trkpt lat="45.2072" lon="0.51122">
        <ele>165.60000610352</ele>
        <time>2018-05-05T07:07:26.000Z</time>
      </trkpt>
      <trkpt lat="45.20726" lon="0.51115">
        <ele>166.19999694824</ele>
        <time>2018-05-05T07:07:29.000Z</time>
      </trkpt>
      <trkpt lat="45.20735" lon="0.51119">
        <ele>167</ele>
        <time>2018-05-05T07:07:35.000Z</time>
      </trkpt>
      <trkpt lat="45.20742" lon="0.51127">
        <ele>167.39999389648</ele>
        <time>2018-05-05T07:07:39.000Z</time>
      </trkpt>
      <trkpt lat="45.20744" lon="0.51128">
        <ele>168.39999389648</ele>
        <time>2018-05-05T07:07:42.000Z</time>
      </trkpt>
      <trkpt lat="45.20757" lon="0.51137">
        <ele>170.39999389648</ele>
        <time>2018-05-05T07:07:51.000Z</time>
      </trkpt>
      <trkpt lat="45.2076" lon="0.51142">
        <ele>171.39999389648</ele>
        <time>2018-05-05T07:07:55.000Z</time>
      </trkpt>
      <trkpt lat="45.20762" lon="0.51143">
        <ele>171.60000610352</ele>
        <time>2018-05-05T07:07:56.000Z</time>
      </trkpt>
      <trkpt lat="45.20769" lon="0.51149">
        <ele>172.80000305176</ele>
        <time>2018-05-05T07:08:00.000Z</time>
      </trkpt>
      <trkpt lat="45.20772" lon="0.51153">
        <ele>173.19999694824</ele>
        <time>2018-05-05T07:08:02.000Z</time>
      </trkpt>
      <trkpt lat="45.20776" lon="0.51157">
        <ele>174</ele>
        <time>2018-05-05T07:08:05.000Z</time>
      </trkpt>
      <trkpt lat="45.20782" lon="0.51162">
        <ele>175</ele>
        <time>2018-05-05T07:08:09.000Z</time>
      </trkpt>
      <trkpt lat="45.2079" lon="0.51168">
        <ele>176.19999694824</ele>
        <time>2018-05-05T07:08:14.000Z</time>
      </trkpt>
      <trkpt lat="45.20792" lon="0.51171">
        <ele>176.60000610352</ele>
        <time>2018-05-05T07:08:16.000Z</time>
      </trkpt>
      <trkpt lat="45.20795" lon="0.51175">
        <ele>177.39999389648</ele>
        <time>2018-05-05T07:08:19.000Z</time>
      </trkpt>
      <trkpt lat="45.20799" lon="0.51183">
        <ele>178.60000610352</ele>
        <time>2018-05-05T07:08:24.000Z</time>
      </trkpt>
      <trkpt lat="45.20802" lon="0.5119">
        <ele>179.60000610352</ele>
        <time>2018-05-05T07:08:28.000Z</time>
      </trkpt>
      <trkpt lat="45.20805" lon="0.51194">
        <ele>180.80000305176</ele>
        <time>2018-05-05T07:08:31.000Z</time>
      </trkpt>
      <trkpt lat="45.20805" lon="0.51196">
        <ele>181</ele>
        <time>2018-05-05T07:08:32.000Z</time>
      </trkpt>
      <trkpt lat="45.20808" lon="0.51203">
        <ele>182</ele>
        <time>2018-05-05T07:08:36.000Z</time>
      </trkpt>
      <trkpt lat="45.20812" lon="0.5121">
        <ele>182.80000305176</ele>
        <time>2018-05-05T07:08:40.000Z</time>
      </trkpt>
      <trkpt lat="45.20813" lon="0.51211">
        <ele>183</ele>
        <time>2018-05-05T07:08:41.000Z</time>
      </trkpt>
      <trkpt lat="45.20816" lon="0.51218">
        <ele>184.19999694824</ele>
        <time>2018-05-05T07:08:45.000Z</time>
      </trkpt>
      <trkpt lat="45.20819" lon="0.51225">
        <ele>185</ele>
        <time>2018-05-05T07:08:49.000Z</time>
      </trkpt>
      <trkpt lat="45.20819" lon="0.51227">
        <ele>185.39999389648</ele>
        <time>2018-05-05T07:08:50.000Z</time>
      </trkpt>
      <trkpt lat="45.20821" lon="0.51232">
        <ele>186.39999389648</ele>
        <time>2018-05-05T07:08:54.000Z</time>
      </trkpt>
      <trkpt lat="45.20901" lon="0.51406">
        <ele>209.19999694824</ele>
        <time>2018-05-05T07:10:38.000Z</time>
      </trkpt>
      <trkpt lat="45.20904" lon="0.51419">
        <ele>210.19999694824</ele>
        <time>2018-05-05T07:10:45.000Z</time>
      </trkpt>
      <trkpt lat="45.20908" lon="0.51432">
        <ele>211</ele>
        <time>2018-05-05T07:10:48.000Z</time>
      </trkpt>
      <trkpt lat="45.20911" lon="0.51438">
        <ele>211.19999694824</ele>
        <time>2018-05-05T07:10:50.000Z</time>
      </trkpt>
      <trkpt lat="45.20912" lon="0.51441">
        <ele>211.60000610352</ele>
        <time>2018-05-05T07:10:51.000Z</time>
      </trkpt>
      <trkpt lat="45.20917" lon="0.51453">
        <ele>212.39999389648</ele>
        <time>2018-05-05T07:10:55.000Z</time>
      </trkpt>
      <trkpt lat="45.20922" lon="0.51465">
        <ele>213.39999389648</ele>
        <time>2018-05-05T07:11:00.000Z</time>
      </trkpt>
      <trkpt lat="45.20928" lon="0.51478">
        <ele>214.60000610352</ele>
        <time>2018-05-05T07:11:06.000Z</time>
      </trkpt>
      <trkpt lat="45.20929" lon="0.5148">
        <ele>214.80000305176</ele>
        <time>2018-05-05T07:11:07.000Z</time>
      </trkpt>
      <trkpt lat="45.20929" lon="0.51483">
        <ele>215</ele>
        <time>2018-05-05T07:11:08.000Z</time>
      </trkpt>
      <trkpt lat="45.20931" lon="0.5149">
        <ele>215.60000610352</ele>
        <time>2018-05-05T07:11:11.000Z</time>
      </trkpt>
      <trkpt lat="45.20934" lon="0.51498">
        <ele>216</ele>
        <time>2018-05-05T07:11:14.000Z</time>
      </trkpt>
      <trkpt lat="45.20937" lon="0.51507">
        <ele>216.80000305176</ele>
        <time>2018-05-05T07:11:18.000Z</time>
      </trkpt>
      <trkpt lat="45.2094" lon="0.51516">
        <ele>217.39999389648</ele>
        <time>2018-05-05T07:11:22.000Z</time>
      </trkpt>
      <trkpt lat="45.20942" lon="0.5152">
        <ele>217.80000305176</ele>
        <time>2018-05-05T07:11:24.000Z</time>
      </trkpt>
      <trkpt lat="45.20946" lon="0.5153">
        <ele>218.60000610352</ele>
        <time>2018-05-05T07:11:29.000Z</time>
      </trkpt>
      <trkpt lat="45.20947" lon="0.51535">
        <ele>219</ele>
        <time>2018-05-05T07:11:31.000Z</time>
      </trkpt>
      <trkpt lat="45.2095" lon="0.51547">
        <ele>219.60000610352</ele>
        <time>2018-05-05T07:11:35.000Z</time>
      </trkpt>
      <trkpt lat="45.20953" lon="0.51555">
        <ele>220</ele>
        <time>2018-05-05T07:11:38.000Z</time>
      </trkpt>
      <trkpt lat="45.20958" lon="0.51569">
        <ele>221.19999694824</ele>
        <time>2018-05-05T07:11:43.000Z</time>
      </trkpt>
      <trkpt lat="45.20963" lon="0.51586">
        <ele>222.19999694824</ele>
        <time>2018-05-05T07:11:50.000Z</time>
      </trkpt>
      <trkpt lat="45.20967" lon="0.51598">
        <ele>223.19999694824</ele>
        <time>2018-05-05T07:11:57.000Z</time>
      </trkpt>
      <trkpt lat="45.2098" lon="0.51628">
        <ele>224.80000305176</ele>
        <time>2018-05-05T07:12:08.000Z</time>
      </trkpt>
      <trkpt lat="45.20986" lon="0.51636">
        <ele>225.19999694824</ele>
        <time>2018-05-05T07:12:11.000Z</time>
      </trkpt>
      <trkpt lat="45.20998" lon="0.5165">
        <ele>225.60000610352</ele>
        <time>2018-05-05T07:12:18.000Z</time>
      </trkpt>
      <trkpt lat="45.21004" lon="0.51656">
        <ele>226</ele>
        <time>2018-05-05T07:12:21.000Z</time>
      </trkpt>
      <trkpt lat="45.21012" lon="0.51662">
        <ele>226.39999389648</ele>
        <time>2018-05-05T07:12:24.000Z</time>
      </trkpt>
      <trkpt lat="45.21032" lon="0.51681">
        <ele>226.80000305176</ele>
        <time>2018-05-05T07:12:32.000Z</time>
      </trkpt>
      <trkpt lat="45.21038" lon="0.51688">
        <ele>227</ele>
        <time>2018-05-05T07:12:34.000Z</time>
      </trkpt>
      <trkpt lat="45.21056" lon="0.51709">
        <ele>227.39999389648</ele>
        <time>2018-05-05T07:12:41.000Z</time>
      </trkpt>
      <trkpt lat="45.21067" lon="0.51723">
        <ele>228.19999694824</ele>
        <time>2018-05-05T07:12:47.000Z</time>
      </trkpt>
      <trkpt lat="45.21071" lon="0.51727">
        <ele>228.60000610352</ele>
        <time>2018-05-05T07:12:49.000Z</time>
      </trkpt>
      <trkpt lat="45.21077" lon="0.51741">
        <ele>229.39999389648</ele>
        <time>2018-05-05T07:12:54.000Z</time>
      </trkpt>
      <trkpt lat="45.21081" lon="0.51747">
        <ele>229.80000305176</ele>
        <time>2018-05-05T07:12:57.000Z</time>
      </trkpt>
      <trkpt lat="45.21089" lon="0.5176">
        <ele>230.39999389648</ele>
        <time>2018-05-05T07:13:02.000Z</time>
      </trkpt>
      <trkpt lat="45.21092" lon="0.51766">
        <ele>230.80000305176</ele>
        <time>2018-05-05T07:13:04.000Z</time>
      </trkpt>
      <trkpt lat="45.21103" lon="0.51786">
        <ele>231.39999389648</ele>
        <time>2018-05-05T07:13:11.000Z</time>
      </trkpt>
      <trkpt lat="45.21105" lon="0.5179">
        <ele>231.60000610352</ele>
        <time>2018-05-05T07:13:12.000Z</time>
      </trkpt>
      <trkpt lat="45.21117" lon="0.51815">
        <ele>232</ele>
        <time>2018-05-05T07:13:19.000Z</time>
      </trkpt>
      <trkpt lat="45.21128" lon="0.5183">
        <ele>231.19999694824</ele>
        <time>2018-05-05T07:13:25.000Z</time>
      </trkpt>
      <trkpt lat="45.21131" lon="0.5183">
        <ele>231.19999694824</ele>
        <time>2018-05-05T07:13:26.000Z</time>
      </trkpt>
      <trkpt lat="45.2114" lon="0.51831">
        <ele>231</ele>
        <time>2018-05-05T07:13:29.000Z</time>
      </trkpt>
      <trkpt lat="45.21157" lon="0.5183">
        <ele>230.39999389648</ele>
        <time>2018-05-05T07:13:34.000Z</time>
      </trkpt>
      <trkpt lat="45.21163" lon="0.51826">
        <ele>230.39999389648</ele>
        <time>2018-05-05T07:13:36.000Z</time>
      </trkpt>
      <trkpt lat="45.21178" lon="0.51819">
        <ele>230.19999694824</ele>
        <time>2018-05-05T07:13:40.000Z</time>
      </trkpt>
      <trkpt lat="45.21198" lon="0.51814">
        <ele>230.19999694824</ele>
        <time>2018-05-05T07:13:47.000Z</time>
      </trkpt>
      <trkpt lat="45.21216" lon="0.51817">
        <ele>230.39999389648</ele>
        <time>2018-05-05T07:13:52.000Z</time>
      </trkpt>
      <trkpt lat="45.21238" lon="0.51822">
        <ele>230.60000610352</ele>
        <time>2018-05-05T07:13:58.000Z</time>
      </trkpt>
      <trkpt lat="45.21263" lon="0.51822">
        <ele>230.60000610352</ele>
        <time>2018-05-05T07:14:05.000Z</time>
      </trkpt>
      <trkpt lat="45.21278" lon="0.51824">
        <ele>230.80000305176</ele>
        <time>2018-05-05T07:14:10.000Z</time>
      </trkpt>
      <trkpt lat="45.21294" lon="0.5183">
        <ele>229.60000610352</ele>
        <time>2018-05-05T07:14:17.000Z</time>
      </trkpt>
      <trkpt lat="45.21298" lon="0.51831">
        <ele>229.19999694824</ele>
        <time>2018-05-05T07:14:19.000Z</time>
      </trkpt>
      <trkpt lat="45.21305" lon="0.51834">
        <ele>228.80000305176</ele>
        <time>2018-05-05T07:14:23.000Z</time>
      </trkpt>
      <trkpt lat="45.21311" lon="0.51836">
        <ele>228.19999694824</ele>
        <time>2018-05-05T07:14:27.000Z</time>
      </trkpt>
      <trkpt lat="45.2132" lon="0.51836">
        <ele>227.39999389648</ele>
        <time>2018-05-05T07:14:30.000Z</time>
      </trkpt>
      <trkpt lat="45.21324" lon="0.51837">
        <ele>227.19999694824</ele>
        <time>2018-05-05T07:14:32.000Z</time>
      </trkpt>
      <trkpt lat="45.21339" lon="0.5184">
        <ele>226</ele>
        <time>2018-05-05T07:14:38.000Z</time>
      </trkpt>
      <trkpt lat="45.21341" lon="0.5184">
        <ele>225.80000305176</ele>
        <time>2018-05-05T07:14:39.000Z</time>
      </trkpt>
      <trkpt lat="45.21354" lon="0.51839">
        <ele>225.39999389648</ele>
        <time>2018-05-05T07:14:45.000Z</time>
      </trkpt>
      <trkpt lat="45.21361" lon="0.51838">
        <ele>225</ele>
        <time>2018-05-05T07:14:49.000Z</time>
      </trkpt>
      <trkpt lat="45.21366" lon="0.51835">
        <ele>224.60000610352</ele>
        <time>2018-05-05T07:14:52.000Z</time>
      </trkpt>
      <trkpt lat="45.21379" lon="0.51833">
        <ele>224</ele>
        <time>2018-05-05T07:15:00.000Z</time>
      </trkpt>
      <trkpt lat="45.21392" lon="0.51832">
        <ele>224</ele>
        <time>2018-05-05T07:15:06.000Z</time>
      </trkpt>
      <trkpt lat="45.21406" lon="0.51829">
        <ele>223.39999389648</ele>
        <time>2018-05-05T07:15:12.000Z</time>
      </trkpt>
      <trkpt lat="45.21413" lon="0.51828">
        <ele>223</ele>
        <time>2018-05-05T07:15:15.000Z</time>
      </trkpt>
      <trkpt lat="45.2143" lon="0.51824">
        <ele>222.19999694824</ele>
        <time>2018-05-05T07:15:20.000Z</time>
      </trkpt>
      <trkpt lat="45.21451" lon="0.5183">
        <ele>222.19999694824</ele>
        <time>2018-05-05T07:15:26.000Z</time>
      </trkpt>
      <trkpt lat="45.21481" lon="0.51838">
        <ele>223</ele>
        <time>2018-05-05T07:15:33.000Z</time>
      </trkpt>
      <trkpt lat="45.21504" lon="0.51844">
        <ele>223.39999389648</ele>
        <time>2018-05-05T07:15:40.000Z</time>
      </trkpt>
      <trkpt lat="45.21517" lon="0.51856">
        <ele>223.80000305176</ele>
        <time>2018-05-05T07:15:46.000Z</time>
      </trkpt>
      <trkpt lat="45.21526" lon="0.51862">
        <ele>223.80000305176</ele>
        <time>2018-05-05T07:15:50.000Z</time>
      </trkpt>
      <trkpt lat="45.21528" lon="0.51866">
        <ele>224</ele>
        <time>2018-05-05T07:15:52.000Z</time>
      </trkpt>
      <trkpt lat="45.21532" lon="0.51872">
        <ele>224</ele>
        <time>2018-05-05T07:15:55.000Z</time>
      </trkpt>
      <trkpt lat="45.21533" lon="0.51875">
        <ele>224</ele>
        <time>2018-05-05T07:15:56.000Z</time>
      </trkpt>
      <trkpt lat="45.21535" lon="0.51879">
        <ele>224</ele>
        <time>2018-05-05T07:15:57.000Z</time>
      </trkpt>
      <trkpt lat="45.21545" lon="0.51888">
        <ele>223.60000610352</ele>
        <time>2018-05-05T07:16:02.000Z</time>
      </trkpt>
      <trkpt lat="45.21548" lon="0.5189">
        <ele>223.39999389648</ele>
        <time>2018-05-05T07:16:03.000Z</time>
      </trkpt>
      <trkpt lat="45.21558" lon="0.51897">
        <ele>223</ele>
        <time>2018-05-05T07:16:06.000Z</time>
      </trkpt>
      <trkpt lat="45.21566" lon="0.51902">
        <ele>222.60000610352</ele>
        <time>2018-05-05T07:16:08.000Z</time>
      </trkpt>
      <trkpt lat="45.21587" lon="0.51916">
        <ele>221.80000305176</ele>
        <time>2018-05-05T07:16:13.000Z</time>
      </trkpt>
      <trkpt lat="45.21602" lon="0.51925">
        <ele>221.19999694824</ele>
        <time>2018-05-05T07:16:16.000Z</time>
      </trkpt>
      <trkpt lat="45.2161" lon="0.51929">
        <ele>221.19999694824</ele>
        <time>2018-05-05T07:16:17.000Z</time>
      </trkpt>
      <trkpt lat="45.21625" lon="0.51935">
        <ele>220.60000610352</ele>
        <time>2018-05-05T07:16:19.000Z</time>
      </trkpt>
      <trkpt lat="45.21643" lon="0.51941">
        <ele>220</ele>
        <time>2018-05-05T07:16:22.000Z</time>
      </trkpt>
      <trkpt lat="45.21661" lon="0.51947">
        <ele>219.60000610352</ele>
        <time>2018-05-05T07:16:25.000Z</time>
      </trkpt>
      <trkpt lat="45.21688" lon="0.5196">
        <ele>219</ele>
        <time>2018-05-05T07:16:30.000Z</time>
      </trkpt>
      <trkpt lat="45.21732" lon="0.51984">
        <ele>218.39999389648</ele>
        <time>2018-05-05T07:16:38.000Z</time>
      </trkpt>
      <trkpt lat="45.21738" lon="0.51987">
        <ele>218.19999694824</ele>
        <time>2018-05-05T07:16:39.000Z</time>
      </trkpt>
      <trkpt lat="45.2178" lon="0.52012">
        <ele>217.60000610352</ele>
        <time>2018-05-05T07:16:47.000Z</time>
      </trkpt>
      <trkpt lat="45.21792" lon="0.52015">
        <ele>217.60000610352</ele>
        <time>2018-05-05T07:16:49.000Z</time>
      </trkpt>
      <trkpt lat="45.21809" lon="0.52015">
        <ele>217.39999389648</ele>
        <time>2018-05-05T07:16:52.000Z</time>
      </trkpt>
      <trkpt lat="45.21814" lon="0.52013">
        <ele>217.39999389648</ele>
        <time>2018-05-05T07:16:53.000Z</time>
      </trkpt>
      <trkpt lat="45.21819" lon="0.52011">
        <ele>217.19999694824</ele>
        <time>2018-05-05T07:16:54.000Z</time>
      </trkpt>
      <trkpt lat="45.21837" lon="0.52001">
        <ele>216.19999694824</ele>
        <time>2018-05-05T07:16:57.000Z</time>
      </trkpt>
      <trkpt lat="45.2185" lon="0.51994">
        <ele>215.19999694824</ele>
        <time>2018-05-05T07:16:59.000Z</time>
      </trkpt>
      <trkpt lat="45.21864" lon="0.5199">
        <ele>214.19999694824</ele>
        <time>2018-05-05T07:17:01.000Z</time>
      </trkpt>
      <trkpt lat="45.2187" lon="0.51989">
        <ele>213.80000305176</ele>
        <time>2018-05-05T07:17:02.000Z</time>
      </trkpt>
      <trkpt lat="45.21893" lon="0.5199">
        <ele>212.39999389648</ele>
        <time>2018-05-05T07:17:05.000Z</time>
      </trkpt>
      <trkpt lat="45.2191" lon="0.51992">
        <ele>211.39999389648</ele>
        <time>2018-05-05T07:17:07.000Z</time>
      </trkpt>
      <trkpt lat="45.21928" lon="0.51996">
        <ele>210.19999694824</ele>
        <time>2018-05-05T07:17:09.000Z</time>
      </trkpt>
      <trkpt lat="45.21945" lon="0.52">
        <ele>209</ele>
        <time>2018-05-05T07:17:11.000Z</time>
      </trkpt>
      <trkpt lat="45.21961" lon="0.52006">
        <ele>207.39999389648</ele>
        <time>2018-05-05T07:17:13.000Z</time>
      </trkpt>
      <trkpt lat="45.21969" lon="0.52009">
        <ele>206.80000305176</ele>
        <time>2018-05-05T07:17:14.000Z</time>
      </trkpt>
      <trkpt lat="45.21978" lon="0.52012">
        <ele>206.19999694824</ele>
        <time>2018-05-05T07:17:15.000Z</time>
      </trkpt>
      <trkpt lat="45.21994" lon="0.52018">
        <ele>204.80000305176</ele>
        <time>2018-05-05T07:17:17.000Z</time>
      </trkpt>
      <trkpt lat="45.22002" lon="0.52021">
        <ele>203.19999694824</ele>
        <time>2018-05-05T07:17:18.000Z</time>
      </trkpt>
      <trkpt lat="45.22019" lon="0.52028">
        <ele>201.80000305176</ele>
        <time>2018-05-05T07:17:20.000Z</time>
      </trkpt>
      <trkpt lat="45.22041" lon="0.5204">
        <ele>200.39999389648</ele>
        <time>2018-05-05T07:17:22.000Z</time>
      </trkpt>
      <trkpt lat="45.22067" lon="0.52056">
        <ele>199</ele>
        <time>2018-05-05T07:17:24.000Z</time>
      </trkpt>
      <trkpt lat="45.22092" lon="0.52075">
        <ele>197.60000610352</ele>
        <time>2018-05-05T07:17:26.000Z</time>
      </trkpt>
      <trkpt lat="45.22104" lon="0.52083">
        <ele>197</ele>
        <time>2018-05-05T07:17:27.000Z</time>
      </trkpt>
      <trkpt lat="45.22116" lon="0.52091">
        <ele>196</ele>
        <time>2018-05-05T07:17:28.000Z</time>
      </trkpt>
      <trkpt lat="45.22127" lon="0.52097">
        <ele>194.39999389648</ele>
        <time>2018-05-05T07:17:29.000Z</time>
      </trkpt>
      <trkpt lat="45.22149" lon="0.5211">
        <ele>192.19999694824</ele>
        <time>2018-05-05T07:17:31.000Z</time>
      </trkpt>
      <trkpt lat="45.22193" lon="0.52136">
        <ele>190.60000610352</ele>
        <time>2018-05-05T07:17:35.000Z</time>
      </trkpt>
      <trkpt lat="45.22203" lon="0.52144">
        <ele>190</ele>
        <time>2018-05-05T07:17:36.000Z</time>
      </trkpt>
      <trkpt lat="45.22212" lon="0.52152">
        <ele>189.39999389648</ele>
        <time>2018-05-05T07:17:37.000Z</time>
      </trkpt>
      <trkpt lat="45.22229" lon="0.52171">
        <ele>188.19999694824</ele>
        <time>2018-05-05T07:17:39.000Z</time>
      </trkpt>
      <trkpt lat="45.22238" lon="0.5218">
        <ele>187.60000610352</ele>
        <time>2018-05-05T07:17:40.000Z</time>
      </trkpt>
      <trkpt lat="45.22247" lon="0.52188">
        <ele>187</ele>
        <time>2018-05-05T07:17:41.000Z</time>
      </trkpt>
      <trkpt lat="45.22255" lon="0.52197">
        <ele>185.60000610352</ele>
        <time>2018-05-05T07:17:42.000Z</time>
      </trkpt>
      <trkpt lat="45.22273" lon="0.52213">
        <ele>184.39999389648</ele>
        <time>2018-05-05T07:17:44.000Z</time>
      </trkpt>
      <trkpt lat="45.2229" lon="0.5223">
        <ele>183</ele>
        <time>2018-05-05T07:17:46.000Z</time>
      </trkpt>
      <trkpt lat="45.22307" lon="0.52247">
        <ele>181.80000305176</ele>
        <time>2018-05-05T07:17:48.000Z</time>
      </trkpt>
      <trkpt lat="45.22331" lon="0.52275">
        <ele>180.39999389648</ele>
        <time>2018-05-05T07:17:51.000Z</time>
      </trkpt>
      <trkpt lat="45.22347" lon="0.52292">
        <ele>179.60000610352</ele>
        <time>2018-05-05T07:17:53.000Z</time>
      </trkpt>
      <trkpt lat="45.22354" lon="0.52301">
        <ele>179</ele>
        <time>2018-05-05T07:17:54.000Z</time>
      </trkpt>
      <trkpt lat="45.2237" lon="0.52319">
        <ele>178</ele>
        <time>2018-05-05T07:17:56.000Z</time>
      </trkpt>
      <trkpt lat="45.22385" lon="0.52336">
        <ele>177</ele>
        <time>2018-05-05T07:17:58.000Z</time>
      </trkpt>
      <trkpt lat="45.22401" lon="0.52354">
        <ele>175.80000305176</ele>
        <time>2018-05-05T07:18:00.000Z</time>
      </trkpt>
      <trkpt lat="45.22409" lon="0.52363">
        <ele>175</ele>
        <time>2018-05-05T07:18:01.000Z</time>
      </trkpt>
      <trkpt lat="45.22418" lon="0.52371">
        <ele>174.60000610352</ele>
        <time>2018-05-05T07:18:02.000Z</time>
      </trkpt>
      <trkpt lat="45.22437" lon="0.52382">
        <ele>173.60000610352</ele>
        <time>2018-05-05T07:18:04.000Z</time>
      </trkpt>
      <trkpt lat="45.22447" lon="0.52386">
        <ele>173</ele>
        <time>2018-05-05T07:18:05.000Z</time>
      </trkpt>
      <trkpt lat="45.22456" lon="0.52389">
        <ele>171.80000305176</ele>
        <time>2018-05-05T07:18:06.000Z</time>
      </trkpt>
      <trkpt lat="45.22473" lon="0.5239">
        <ele>170.60000610352</ele>
        <time>2018-05-05T07:18:08.000Z</time>
      </trkpt>
      <trkpt lat="45.22499" lon="0.52387">
        <ele>169.80000305176</ele>
        <time>2018-05-05T07:18:11.000Z</time>
      </trkpt>
      <trkpt lat="45.22515" lon="0.52384">
        <ele>169.80000305176</ele>
        <time>2018-05-05T07:18:13.000Z</time>
      </trkpt>
      <trkpt lat="45.22523" lon="0.52384">
        <ele>169.60000610352</ele>
        <time>2018-05-05T07:18:14.000Z</time>
      </trkpt>
      <trkpt lat="45.22546" lon="0.52386">
        <ele>169.60000610352</ele>
        <time>2018-05-05T07:18:17.000Z</time>
      </trkpt>
      <trkpt lat="45.22553" lon="0.52388">
        <ele>169.39999389648</ele>
        <time>2018-05-05T07:18:18.000Z</time>
      </trkpt>
      <trkpt lat="45.22582" lon="0.52404">
        <ele>169.60000610352</ele>
        <time>2018-05-05T07:18:23.000Z</time>
      </trkpt>
      <trkpt lat="45.22614" lon="0.52434">
        <ele>169.39999389648</ele>
        <time>2018-05-05T07:18:29.000Z</time>
      </trkpt>
      <trkpt lat="45.22646" lon="0.52472">
        <ele>168.60000610352</ele>
        <time>2018-05-05T07:18:35.000Z</time>
      </trkpt>
      <trkpt lat="45.22651" lon="0.52479">
        <ele>168.60000610352</ele>
        <time>2018-05-05T07:18:36.000Z</time>
      </trkpt>
      <trkpt lat="45.22656" lon="0.52486">
        <ele>168.39999389648</ele>
        <time>2018-05-05T07:18:37.000Z</time>
      </trkpt>
      <trkpt lat="45.22668" lon="0.52507">
        <ele>168.39999389648</ele>
        <time>2018-05-05T07:18:40.000Z</time>
      </trkpt>
      <trkpt lat="45.22684" lon="0.52541">
        <ele>168.19999694824</ele>
        <time>2018-05-05T07:18:45.000Z</time>
      </trkpt>
      <trkpt lat="45.22694" lon="0.52565">
        <ele>167.39999389648</ele>
        <time>2018-05-05T07:18:48.000Z</time>
      </trkpt>
      <trkpt lat="45.22703" lon="0.52581">
        <ele>166.60000610352</ele>
        <time>2018-05-05T07:18:50.000Z</time>
      </trkpt>
      <trkpt lat="45.22707" lon="0.5259">
        <ele>166.19999694824</ele>
        <time>2018-05-05T07:18:51.000Z</time>
      </trkpt>
      <trkpt lat="45.22721" lon="0.5261">
        <ele>165.19999694824</ele>
        <time>2018-05-05T07:18:53.000Z</time>
      </trkpt>
      <trkpt lat="45.22729" lon="0.52622">
        <ele>164</ele>
        <time>2018-05-05T07:18:54.000Z</time>
      </trkpt>
      <trkpt lat="45.22745" lon="0.52644">
        <ele>162.80000305176</ele>
        <time>2018-05-05T07:18:56.000Z</time>
      </trkpt>
      <trkpt lat="45.22761" lon="0.52666">
        <ele>161.60000610352</ele>
        <time>2018-05-05T07:18:58.000Z</time>
      </trkpt>
      <trkpt lat="45.22776" lon="0.52688">
        <ele>160</ele>
        <time>2018-05-05T07:19:00.000Z</time>
      </trkpt>
      <trkpt lat="45.22783" lon="0.527">
        <ele>159</ele>
        <time>2018-05-05T07:19:01.000Z</time>
      </trkpt>
      <trkpt lat="45.2279" lon="0.52712">
        <ele>158.19999694824</ele>
        <time>2018-05-05T07:19:02.000Z</time>
      </trkpt>
      <trkpt lat="45.22804" lon="0.52735">
        <ele>156.80000305176</ele>
        <time>2018-05-05T07:19:04.000Z</time>
      </trkpt>
      <trkpt lat="45.22813" lon="0.52744">
        <ele>156.19999694824</ele>
        <time>2018-05-05T07:19:05.000Z</time>
      </trkpt>
      <trkpt lat="45.22823" lon="0.5275">
        <ele>155.60000610352</ele>
        <time>2018-05-05T07:19:06.000Z</time>
      </trkpt>
      <trkpt lat="45.22833" lon="0.52753">
        <ele>155</ele>
        <time>2018-05-05T07:19:07.000Z</time>
      </trkpt>
      <trkpt lat="45.22845" lon="0.52751">
        <ele>154</ele>
        <time>2018-05-05T07:19:08.000Z</time>
      </trkpt>
      <trkpt lat="45.22856" lon="0.52747">
        <ele>153</ele>
        <time>2018-05-05T07:19:09.000Z</time>
      </trkpt>
      <trkpt lat="45.22866" lon="0.5274">
        <ele>152.19999694824</ele>
        <time>2018-05-05T07:19:10.000Z</time>
      </trkpt>
      <trkpt lat="45.22875" lon="0.52732">
        <ele>151.39999389648</ele>
        <time>2018-05-05T07:19:11.000Z</time>
      </trkpt>
      <trkpt lat="45.22884" lon="0.52725">
        <ele>151</ele>
        <time>2018-05-05T07:19:12.000Z</time>
      </trkpt>
      <trkpt lat="45.22893" lon="0.52718">
        <ele>150.80000305176</ele>
        <time>2018-05-05T07:19:13.000Z</time>
      </trkpt>
      <trkpt lat="45.22929" lon="0.5269">
        <ele>151</ele>
        <time>2018-05-05T07:19:18.000Z</time>
      </trkpt>
      <trkpt lat="45.22951" lon="0.52675">
        <ele>152.39999389648</ele>
        <time>2018-05-05T07:19:22.000Z</time>
      </trkpt>
      <trkpt lat="45.22956" lon="0.52672">
        <ele>152.60000610352</ele>
        <time>2018-05-05T07:19:23.000Z</time>
      </trkpt>
      <trkpt lat="45.22973" lon="0.5266">
        <ele>153.60000610352</ele>
        <time>2018-05-05T07:19:27.000Z</time>
      </trkpt>
      <trkpt lat="45.2298" lon="0.52654">
        <ele>154.39999389648</ele>
        <time>2018-05-05T07:19:29.000Z</time>
      </trkpt>
      <trkpt lat="45.22984" lon="0.52652">
        <ele>154.60000610352</ele>
        <time>2018-05-05T07:19:30.000Z</time>
      </trkpt>
      <trkpt lat="45.22993" lon="0.52649">
        <ele>154.60000610352</ele>
        <time>2018-05-05T07:19:32.000Z</time>
      </trkpt>
      <trkpt lat="45.23001" lon="0.52646">
        <ele>155</ele>
        <time>2018-05-05T07:19:34.000Z</time>
      </trkpt>
      <trkpt lat="45.23017" lon="0.5264">
        <ele>155.60000610352</ele>
        <time>2018-05-05T07:19:38.000Z</time>
      </trkpt>
      <trkpt lat="45.23032" lon="0.52637">
        <ele>156</ele>
        <time>2018-05-05T07:19:42.000Z</time>
      </trkpt>
      <trkpt lat="45.2304" lon="0.52637">
        <ele>155.80000305176</ele>
        <time>2018-05-05T07:19:44.000Z</time>
      </trkpt>
      <trkpt lat="45.23057" lon="0.52646">
        <ele>155</ele>
        <time>2018-05-05T07:19:47.000Z</time>
      </trkpt>
      <trkpt lat="45.23062" lon="0.52652">
        <ele>154.60000610352</ele>
        <time>2018-05-05T07:19:48.000Z</time>
      </trkpt>
      <trkpt lat="45.23072" lon="0.52668">
        <ele>154.19999694824</ele>
        <time>2018-05-05T07:19:50.000Z</time>
      </trkpt>
      <trkpt lat="45.23077" lon="0.52677">
        <ele>153.60000610352</ele>
        <time>2018-05-05T07:19:51.000Z</time>
      </trkpt>
      <trkpt lat="45.23091" lon="0.52709">
        <ele>152.19999694824</ele>
        <time>2018-05-05T07:19:54.000Z</time>
      </trkpt>
      <trkpt lat="45.23107" lon="0.52744">
        <ele>151</ele>
        <time>2018-05-05T07:19:57.000Z</time>
      </trkpt>
      <trkpt lat="45.23123" lon="0.5278">
        <ele>149.80000305176</ele>
        <time>2018-05-05T07:20:00.000Z</time>
      </trkpt>
      <trkpt lat="45.23128" lon="0.52792">
        <ele>149.39999389648</ele>
        <time>2018-05-05T07:20:01.000Z</time>
      </trkpt>
      <trkpt lat="45.23148" lon="0.52837">
        <ele>148.60000610352</ele>
        <time>2018-05-05T07:20:05.000Z</time>
      </trkpt>
      <trkpt lat="45.23167" lon="0.5288">
        <ele>147.39999389648</ele>
        <time>2018-05-05T07:20:09.000Z</time>
      </trkpt>
      <trkpt lat="45.23186" lon="0.52924">
        <ele>146</ele>
        <time>2018-05-05T07:20:13.000Z</time>
      </trkpt>
      <trkpt lat="45.23192" lon="0.52949">
        <ele>145.39999389648</ele>
        <time>2018-05-05T07:20:15.000Z</time>
      </trkpt>
      <trkpt lat="45.23194" lon="0.52962">
        <ele>145</ele>
        <time>2018-05-05T07:20:16.000Z</time>
      </trkpt>
      <trkpt lat="45.23196" lon="0.52975">
        <ele>144.19999694824</ele>
        <time>2018-05-05T07:20:17.000Z</time>
      </trkpt>
      <trkpt lat="45.23199" lon="0.52988">
        <ele>143.39999389648</ele>
        <time>2018-05-05T07:20:18.000Z</time>
      </trkpt>
      <trkpt lat="45.23203" lon="0.53001">
        <ele>142.60000610352</ele>
        <time>2018-05-05T07:20:19.000Z</time>
      </trkpt>
      <trkpt lat="45.23208" lon="0.53012">
        <ele>142</ele>
        <time>2018-05-05T07:20:20.000Z</time>
      </trkpt>
      <trkpt lat="45.23224" lon="0.53046">
        <ele>140.80000305176</ele>
        <time>2018-05-05T07:20:23.000Z</time>
      </trkpt>
      <trkpt lat="45.23229" lon="0.53057">
        <ele>140.19999694824</ele>
        <time>2018-05-05T07:20:24.000Z</time>
      </trkpt>
      <trkpt lat="45.23238" lon="0.53077">
        <ele>139.39999389648</ele>
        <time>2018-05-05T07:20:26.000Z</time>
      </trkpt>
      <trkpt lat="45.23246" lon="0.53096">
        <ele>139</ele>
        <time>2018-05-05T07:20:28.000Z</time>
      </trkpt>
      <trkpt lat="45.23257" lon="0.53121">
        <ele>138</ele>
        <time>2018-05-05T07:20:31.000Z</time>
      </trkpt>
      <trkpt lat="45.23269" lon="0.53146">
        <ele>137.80000305176</ele>
        <time>2018-05-05T07:20:34.000Z</time>
      </trkpt>
      <trkpt lat="45.23273" lon="0.53153">
        <ele>137.60000610352</ele>
        <time>2018-05-05T07:20:35.000Z</time>
      </trkpt>
      <trkpt lat="45.23293" lon="0.5318">
        <ele>137.39999389648</ele>
        <time>2018-05-05T07:20:39.000Z</time>
      </trkpt>
      <trkpt lat="45.23336" lon="0.53218">
        <ele>136.80000305176</ele>
        <time>2018-05-05T07:20:46.000Z</time>
      </trkpt>
      <trkpt lat="45.23365" lon="0.53233">
        <ele>136</ele>
        <time>2018-05-05T07:20:50.000Z</time>
      </trkpt>
      <trkpt lat="45.23373" lon="0.53235">
        <ele>135.80000305176</ele>
        <time>2018-05-05T07:20:51.000Z</time>
      </trkpt>
      <trkpt lat="45.23399" lon="0.53238">
        <ele>134.39999389648</ele>
        <time>2018-05-05T07:20:54.000Z</time>
      </trkpt>
      <trkpt lat="45.23416" lon="0.53239">
        <ele>133.19999694824</ele>
        <time>2018-05-05T07:20:56.000Z</time>
      </trkpt>
      <trkpt lat="45.23443" lon="0.53239">
        <ele>132</ele>
        <time>2018-05-05T07:20:59.000Z</time>
      </trkpt>
      <trkpt lat="45.2347" lon="0.53239">
        <ele>130.39999389648</ele>
        <time>2018-05-05T07:21:02.000Z</time>
      </trkpt>
      <trkpt lat="45.23488" lon="0.5324">
        <ele>129.60000610352</ele>
        <time>2018-05-05T07:21:04.000Z</time>
      </trkpt>
      <trkpt lat="45.23496" lon="0.5324">
        <ele>129.39999389648</ele>
        <time>2018-05-05T07:21:05.000Z</time>
      </trkpt>
      <trkpt lat="45.23515" lon="0.5324">
        <ele>128.39999389648</ele>
        <time>2018-05-05T07:21:07.000Z</time>
      </trkpt>
      <trkpt lat="45.23534" lon="0.53239">
        <ele>127</ele>
        <time>2018-05-05T07:21:09.000Z</time>
      </trkpt>
      <trkpt lat="45.23561" lon="0.53236">
        <ele>125.40000152588</ele>
        <time>2018-05-05T07:21:12.000Z</time>
      </trkpt>
      <trkpt lat="45.2357" lon="0.53234">
        <ele>124.80000305176</ele>
        <time>2018-05-05T07:21:13.000Z</time>
      </trkpt>
      <trkpt lat="45.23579" lon="0.5323">
        <ele>124.19999694824</ele>
        <time>2018-05-05T07:21:14.000Z</time>
      </trkpt>
      <trkpt lat="45.23597" lon="0.5322">
        <ele>123.19999694824</ele>
        <time>2018-05-05T07:21:16.000Z</time>
      </trkpt>
      <trkpt lat="45.23615" lon="0.53209">
        <ele>122.19999694824</ele>
        <time>2018-05-05T07:21:18.000Z</time>
      </trkpt>
      <trkpt lat="45.23623" lon="0.53203">
        <ele>120.80000305176</ele>
        <time>2018-05-05T07:21:19.000Z</time>
      </trkpt>
      <trkpt lat="45.23649" lon="0.53187">
        <ele>119.40000152588</ele>
        <time>2018-05-05T07:21:22.000Z</time>
      </trkpt>
      <trkpt lat="45.23657" lon="0.53182">
        <ele>118.80000305176</ele>
        <time>2018-05-05T07:21:23.000Z</time>
      </trkpt>
      <trkpt lat="45.23665" lon="0.53178">
        <ele>118.59999847412</ele>
        <time>2018-05-05T07:21:24.000Z</time>
      </trkpt>
      <trkpt lat="45.23673" lon="0.53177">
        <ele>118.19999694824</ele>
        <time>2018-05-05T07:21:25.000Z</time>
      </trkpt>
      <trkpt lat="45.2368" lon="0.53181">
        <ele>117.80000305176</ele>
        <time>2018-05-05T07:21:26.000Z</time>
      </trkpt>
      <trkpt lat="45.23686" lon="0.53188">
        <ele>117.19999694824</ele>
        <time>2018-05-05T07:21:27.000Z</time>
      </trkpt>
      <trkpt lat="45.23691" lon="0.53195">
        <ele>116.80000305176</ele>
        <time>2018-05-05T07:21:28.000Z</time>
      </trkpt>
      <trkpt lat="45.23697" lon="0.53203">
        <ele>116.59999847412</ele>
        <time>2018-05-05T07:21:29.000Z</time>
      </trkpt>
      <trkpt lat="45.23724" lon="0.53222">
        <ele>116.40000152588</ele>
        <time>2018-05-05T07:21:33.000Z</time>
      </trkpt>
      <trkpt lat="45.23731" lon="0.53225">
        <ele>116.19999694824</ele>
        <time>2018-05-05T07:21:34.000Z</time>
      </trkpt>
      <trkpt lat="45.23739" lon="0.53227">
        <ele>116.19999694824</ele>
        <time>2018-05-05T07:21:35.000Z</time>
      </trkpt>
      <trkpt lat="45.2377" lon="0.53232">
        <ele>115.40000152588</ele>
        <time>2018-05-05T07:21:39.000Z</time>
      </trkpt>
      <trkpt lat="45.23785" lon="0.53234">
        <ele>115</ele>
        <time>2018-05-05T07:21:41.000Z</time>
      </trkpt>
      <trkpt lat="45.23822" lon="0.53234">
        <ele>114.40000152588</ele>
        <time>2018-05-05T07:21:46.000Z</time>
      </trkpt>
      <trkpt lat="45.23864" lon="0.5323">
        <ele>113.80000305176</ele>
        <time>2018-05-05T07:21:52.000Z</time>
      </trkpt>
      <trkpt lat="45.23878" lon="0.5323">
        <ele>113.59999847412</ele>
        <time>2018-05-05T07:21:54.000Z</time>
      </trkpt>
      <trkpt lat="45.23912" lon="0.53239">
        <ele>113</ele>
        <time>2018-05-05T07:21:59.000Z</time>
      </trkpt>
      <trkpt lat="45.23919" lon="0.53241">
        <ele>112.80000305176</ele>
        <time>2018-05-05T07:22:00.000Z</time>
      </trkpt>
      <trkpt lat="45.23941" lon="0.53246">
        <ele>112.19999694824</ele>
        <time>2018-05-05T07:22:04.000Z</time>
      </trkpt>
      <trkpt lat="45.23955" lon="0.53247">
        <ele>111.80000305176</ele>
        <time>2018-05-05T07:22:07.000Z</time>
      </trkpt>
      <trkpt lat="45.2396" lon="0.53249">
        <ele>111.80000305176</ele>
        <time>2018-05-05T07:22:09.000Z</time>
      </trkpt>
      <trkpt lat="45.23962" lon="0.53251">
        <ele>111.59999847412</ele>
        <time>2018-05-05T07:22:10.000Z</time>
      </trkpt>
      <trkpt lat="45.23964" lon="0.53259">
        <ele>111.59999847412</ele>
        <time>2018-05-05T07:22:12.000Z</time>
      </trkpt>
      <trkpt lat="45.23957" lon="0.53276">
        <ele>112</ele>
        <time>2018-05-05T07:22:16.000Z</time>
      </trkpt>
      <trkpt lat="45.23949" lon="0.53282">
        <ele>112.19999694824</ele>
        <time>2018-05-05T07:22:18.000Z</time>
      </trkpt>
      <trkpt lat="45.23941" lon="0.5329">
        <ele>112.40000152588</ele>
        <time>2018-05-05T07:22:20.000Z</time>
      </trkpt>
      <trkpt lat="45.23939" lon="0.53296">
        <ele>112.59999847412</ele>
        <time>2018-05-05T07:22:21.000Z</time>
      </trkpt>
      <trkpt lat="45.23932" lon="0.53315">
        <ele>112.59999847412</ele>
        <time>2018-05-05T07:22:24.000Z</time>
      </trkpt>
      <trkpt lat="45.23927" lon="0.53329">
        <ele>111.80000305176</ele>
        <time>2018-05-05T07:22:26.000Z</time>
      </trkpt>
      <trkpt lat="45.23927" lon="0.53346">
        <ele>111.40000152588</ele>
        <time>2018-05-05T07:22:29.000Z</time>
      </trkpt>
      <trkpt lat="45.23939" lon="0.53355">
        <ele>111.40000152588</ele>
        <time>2018-05-05T07:22:33.000Z</time>
      </trkpt>
      <trkpt lat="45.23949" lon="0.53371">
        <ele>111.59999847412</ele>
        <time>2018-05-05T07:22:36.000Z</time>
      </trkpt>
      <trkpt lat="45.23955" lon="0.53381">
        <ele>111.59999847412</ele>
        <time>2018-05-05T07:22:38.000Z</time>
      </trkpt>
      <trkpt lat="45.23967" lon="0.53385">
        <ele>111.80000305176</ele>
        <time>2018-05-05T07:22:41.000Z</time>
      </trkpt>
      <trkpt lat="45.23977" lon="0.53384">
        <ele>111.80000305176</ele>
        <time>2018-05-05T07:22:43.000Z</time>
      </trkpt>
      <trkpt lat="45.23996" lon="0.5338">
        <ele>111.80000305176</ele>
        <time>2018-05-05T07:22:46.000Z</time>
      </trkpt>
      <trkpt lat="45.2404" lon="0.53374">
        <ele>111.59999847412</ele>
        <time>2018-05-05T07:22:54.000Z</time>
      </trkpt>
      <trkpt lat="45.24073" lon="0.53362">
        <ele>111.59999847412</ele>
        <time>2018-05-05T07:23:01.000Z</time>
      </trkpt>
      <trkpt lat="45.24078" lon="0.53359">
        <ele>111.59999847412</ele>
        <time>2018-05-05T07:23:02.000Z</time>
      </trkpt>
      <trkpt lat="45.24115" lon="0.53345">
        <ele>111.40000152588</ele>
        <time>2018-05-05T07:23:10.000Z</time>
      </trkpt>
      <trkpt lat="45.2415" lon="0.53333">
        <ele>111.40000152588</ele>
        <time>2018-05-05T07:23:17.000Z</time>
      </trkpt>
      <trkpt lat="45.24187" lon="0.5332">
        <ele>110.59999847412</ele>
        <time>2018-05-05T07:23:24.000Z</time>
      </trkpt>
      <trkpt lat="45.24192" lon="0.53318">
        <ele>110.59999847412</ele>
        <time>2018-05-05T07:23:25.000Z</time>
      </trkpt>
      <trkpt lat="45.2423" lon="0.53308">
        <ele>110</ele>
        <time>2018-05-05T07:23:33.000Z</time>
      </trkpt>
      <trkpt lat="45.24265" lon="0.533">
        <ele>110</ele>
        <time>2018-05-05T07:23:40.000Z</time>
      </trkpt>
      <trkpt lat="45.24291" lon="0.53292">
        <ele>109.59999847412</ele>
        <time>2018-05-05T07:23:45.000Z</time>
      </trkpt>
      <trkpt lat="45.24302" lon="0.53289">
        <ele>109.40000152588</ele>
        <time>2018-05-05T07:23:47.000Z</time>
      </trkpt>
      <trkpt lat="45.24339" lon="0.53275">
        <ele>108.40000152588</ele>
        <time>2018-05-05T07:23:54.000Z</time>
      </trkpt>
      <trkpt lat="45.2435" lon="0.53271">
        <ele>108.19999694824</ele>
        <time>2018-05-05T07:23:56.000Z</time>
      </trkpt>
      <trkpt lat="45.24377" lon="0.53259">
        <ele>107.40000152588</ele>
        <time>2018-05-05T07:24:01.000Z</time>
      </trkpt>
      <trkpt lat="45.24386" lon="0.53253">
        <ele>107.19999694824</ele>
        <time>2018-05-05T07:24:03.000Z</time>
      </trkpt>
      <trkpt lat="45.24397" lon="0.53249">
        <ele>107</ele>
        <time>2018-05-05T07:24:06.000Z</time>
      </trkpt>
      <trkpt lat="45.24399" lon="0.53252">
        <ele>106.59999847412</ele>
        <time>2018-05-05T07:24:07.000Z</time>
      </trkpt>
      <trkpt lat="45.2441" lon="0.53273">
        <ele>106.80000305176</ele>
        <time>2018-05-05T07:24:12.000Z</time>
      </trkpt>
      <trkpt lat="45.24427" lon="0.5331">
        <ele>106.80000305176</ele>
        <time>2018-05-05T07:24:20.000Z</time>
      </trkpt>
      <trkpt lat="45.24441" lon="0.53346">
        <ele>107</ele>
        <time>2018-05-05T07:24:28.000Z</time>
      </trkpt>
      <trkpt lat="45.24455" lon="0.53383">
        <ele>107.80000305176</ele>
        <time>2018-05-05T07:24:36.000Z</time>
      </trkpt>
      <trkpt lat="45.2446" lon="0.53407">
        <ele>108.19999694824</ele>
        <time>2018-05-05T07:24:41.000Z</time>
      </trkpt>
      <trkpt lat="45.24464" lon="0.53421">
        <ele>108.40000152588</ele>
        <time>2018-05-05T07:24:44.000Z</time>
      </trkpt>
      <trkpt lat="45.24473" lon="0.5345">
        <ele>108.59999847412</ele>
        <time>2018-05-05T07:24:50.000Z</time>
      </trkpt>
      <trkpt lat="45.24476" lon="0.53474">
        <ele>109.40000152588</ele>
        <time>2018-05-05T07:24:55.000Z</time>
      </trkpt>
      <trkpt lat="45.24477" lon="0.53488">
        <ele>109.59999847412</ele>
        <time>2018-05-05T07:24:58.000Z</time>
      </trkpt>
      <trkpt lat="45.24479" lon="0.53501">
        <ele>109.80000305176</ele>
        <time>2018-05-05T07:25:01.000Z</time>
      </trkpt>
      <trkpt lat="45.24486" lon="0.53534">
        <ele>110.19999694824</ele>
        <time>2018-05-05T07:25:07.000Z</time>
      </trkpt>
      <trkpt lat="45.24498" lon="0.53569">
        <ele>110.40000152588</ele>
        <time>2018-05-05T07:25:14.000Z</time>
      </trkpt>
      <trkpt lat="45.24502" lon="0.53578">
        <ele>110.59999847412</ele>
        <time>2018-05-05T07:25:16.000Z</time>
      </trkpt>
      <trkpt lat="45.24508" lon="0.536">
        <ele>111</ele>
        <time>2018-05-05T07:25:20.000Z</time>
      </trkpt>
      <trkpt lat="45.24519" lon="0.53631">
        <ele>111.19999694824</ele>
        <time>2018-05-05T07:25:26.000Z</time>
      </trkpt>
      <trkpt lat="45.24526" lon="0.53649">
        <ele>111.59999847412</ele>
        <time>2018-05-05T07:25:30.000Z</time>
      </trkpt>
      <trkpt lat="45.24527" lon="0.53653">
        <ele>111.80000305176</ele>
        <time>2018-05-05T07:25:31.000Z</time>
      </trkpt>
      <trkpt lat="45.24535" lon="0.53687">
        <ele>112.59999847412</ele>
        <time>2018-05-05T07:25:38.000Z</time>
      </trkpt>
      <trkpt lat="45.24536" lon="0.5369">
        <ele>112.80000305176</ele>
        <time>2018-05-05T07:25:39.000Z</time>
      </trkpt>
      <trkpt lat="45.24537" lon="0.53701">
        <ele>114</ele>
        <time>2018-05-05T07:25:43.000Z</time>
      </trkpt>
      <trkpt lat="45.24537" lon="0.53706">
        <ele>114.59999847412</ele>
        <time>2018-05-05T07:25:45.000Z</time>
      </trkpt>
      <trkpt lat="45.24536" lon="0.5371">
        <ele>115.19999694824</ele>
        <time>2018-05-05T07:25:47.000Z</time>
      </trkpt>
      <trkpt lat="45.24534" lon="0.53716">
        <ele>116.19999694824</ele>
        <time>2018-05-05T07:25:51.000Z</time>
      </trkpt>
      <trkpt lat="45.24534" lon="0.53718">
        <ele>116.40000152588</ele>
        <time>2018-05-05T07:25:52.000Z</time>
      </trkpt>
      <trkpt lat="45.24531" lon="0.53736">
        <ele>118.59999847412</ele>
        <time>2018-05-05T07:26:00.000Z</time>
      </trkpt>
      <trkpt lat="45.2453" lon="0.5374">
        <ele>119</ele>
        <time>2018-05-05T07:26:02.000Z</time>
      </trkpt>
      <trkpt lat="45.24529" lon="0.53746">
        <ele>119.59999847412</ele>
        <time>2018-05-05T07:26:04.000Z</time>
      </trkpt>
      <trkpt lat="45.24527" lon="0.53752">
        <ele>120.80000305176</ele>
        <time>2018-05-05T07:26:07.000Z</time>
      </trkpt>
      <trkpt lat="45.24526" lon="0.53757">
        <ele>121.59999847412</ele>
        <time>2018-05-05T07:26:11.000Z</time>
      </trkpt>
      <trkpt lat="45.24492" lon="0.53789">
        <ele>131.2</ele>
      </trkpt>
      <trkpt lat="45.24445" lon="0.5379">
        <ele>135.2</ele>
      </trkpt>
      <trkpt lat="45.24404" lon="0.53793">
        <ele>146.3</ele>
      </trkpt>
      <trkpt lat="45.24384" lon="0.53791">
        <ele>147.6</ele>
      </trkpt>
      <trkpt lat="45.24364" lon="0.53802">
        <ele>147</ele>
        <time>2018-05-05T07:28:08.000Z</time>
      </trkpt>
      <trkpt lat="45.24355" lon="0.53806">
        <ele>147.60000610352</ele>
        <time>2018-05-05T07:28:12.000Z</time>
      </trkpt>
      <trkpt lat="45.2435" lon="0.53811">
        <ele>148</ele>
        <time>2018-05-05T07:28:15.000Z</time>
      </trkpt>
      <trkpt lat="45.24343" lon="0.53819">
        <ele>149</ele>
        <time>2018-05-05T07:28:19.000Z</time>
      </trkpt>
      <trkpt lat="45.24342" lon="0.53821">
        <ele>149.19999694824</ele>
        <time>2018-05-05T07:28:20.000Z</time>
      </trkpt>
      <trkpt lat="45.24337" lon="0.53827">
        <ele>152.5</ele>
      </trkpt>
      <trkpt lat="45.24338" lon="0.53832">
        <ele>150.19999694824</ele>
        <time>2018-05-05T07:28:26.000Z</time>
      </trkpt>
      <trkpt lat="45.24331" lon="0.53834">
        <ele>154.3</ele>
      </trkpt>
      <trkpt lat="45.24337" lon="0.53834">
        <ele>150.19999694824</ele>
        <time>2018-05-05T07:28:27.000Z</time>
      </trkpt>
      <trkpt lat="45.24333" lon="0.53843">
        <ele>151.19999694824</ele>
        <time>2018-05-05T07:28:32.000Z</time>
      </trkpt>
      <trkpt lat="45.24326" lon="0.53845">
        <ele>155.4</ele>
      </trkpt>
      <trkpt lat="45.24326" lon="0.53855">
        <ele>152.19999694824</ele>
        <time>2018-05-05T07:28:38.000Z</time>
      </trkpt>
      <trkpt lat="45.2432" lon="0.53863">
        <ele>153</ele>
        <time>2018-05-05T07:28:42.000Z</time>
      </trkpt>
      <trkpt lat="45.24317" lon="0.53868">
        <ele>153.39999389648</ele>
        <time>2018-05-05T07:28:44.000Z</time>
      </trkpt>
      <trkpt lat="45.24305" lon="0.53883">
        <ele>154.39999389648</ele>
        <time>2018-05-05T07:28:49.000Z</time>
      </trkpt>
      <trkpt lat="45.24293" lon="0.53896">
        <ele>155.39999389648</ele>
        <time>2018-05-05T07:28:54.000Z</time>
      </trkpt>
      <trkpt lat="45.2429" lon="0.53903">
        <ele>156.39999389648</ele>
        <time>2018-05-05T07:28:57.000Z</time>
      </trkpt>
      <trkpt lat="45.24289" lon="0.53904">
        <ele>156.60000610352</ele>
        <time>2018-05-05T07:28:58.000Z</time>
      </trkpt>
      <trkpt lat="45.24268" lon="0.53929">
        <ele>159.19999694824</ele>
        <time>2018-05-05T07:29:15.000Z</time>
      </trkpt>
      <trkpt lat="45.24265" lon="0.53933">
        <ele>159.39999389648</ele>
        <time>2018-05-05T07:29:17.000Z</time>
      </trkpt>
      <trkpt lat="45.24257" lon="0.53952">
        <ele>160.39999389648</ele>
        <time>2018-05-05T07:29:24.000Z</time>
      </trkpt>
      <trkpt lat="45.24243" lon="0.53976">
        <ele>158.8</ele>
      </trkpt>
      <trkpt lat="45.24243" lon="0.53991">
        <ele>159.6</ele>
      </trkpt>
      <trkpt lat="45.24246" lon="0.54003">
        <ele>161.39999389648</ele>
        <time>2018-05-05T07:29:35.000Z</time>
      </trkpt>
      <trkpt lat="45.24243" lon="0.54006">
        <ele>160.5</ele>
      </trkpt>
      <trkpt lat="45.24246" lon="0.54008">
        <ele>161.39999389648</ele>
        <time>2018-05-05T07:29:36.000Z</time>
      </trkpt>
      <trkpt lat="45.24243" lon="0.54025">
        <ele>160.2</ele>
      </trkpt>
      <trkpt lat="45.24243" lon="0.54043">
        <ele>162.19999694824</ele>
        <time>2018-05-05T07:29:43.000Z</time>
      </trkpt>
      <trkpt lat="45.24243" lon="0.54053">
        <ele>162.39999389648</ele>
        <time>2018-05-05T07:29:45.000Z</time>
      </trkpt>
      <trkpt lat="45.24243" lon="0.54069">
        <ele>163</ele>
        <time>2018-05-05T07:29:49.000Z</time>
      </trkpt>
      <trkpt lat="45.24244" lon="0.54085">
        <ele>163.60000610352</ele>
        <time>2018-05-05T07:29:53.000Z</time>
      </trkpt>
      <trkpt lat="45.24245" lon="0.54092">
        <ele>164</ele>
        <time>2018-05-05T07:29:55.000Z</time>
      </trkpt>
      <trkpt lat="45.24247" lon="0.54122">
        <ele>164.80000305176</ele>
        <time>2018-05-05T07:30:01.000Z</time>
      </trkpt>
      <trkpt lat="45.24247" lon="0.54127">
        <ele>164.80000305176</ele>
        <time>2018-05-05T07:30:02.000Z</time>
      </trkpt>
      <trkpt lat="45.24249" lon="0.54157">
        <ele>165.60000610352</ele>
        <time>2018-05-05T07:30:08.000Z</time>
      </trkpt>
      <trkpt lat="45.24249" lon="0.54167">
        <ele>166</ele>
        <time>2018-05-05T07:30:10.000Z</time>
      </trkpt>
      <trkpt lat="45.24249" lon="0.54179">
        <ele>166.19999694824</ele>
        <time>2018-05-05T07:30:13.000Z</time>
      </trkpt>
      <trkpt lat="45.24244" lon="0.54208">
        <ele>166.80000305176</ele>
        <time>2018-05-05T07:30:20.000Z</time>
      </trkpt>
      <trkpt lat="45.24239" lon="0.54221">
        <ele>167</ele>
        <time>2018-05-05T07:30:23.000Z</time>
      </trkpt>
      <trkpt lat="45.24234" lon="0.54237">
        <ele>167</ele>
        <time>2018-05-05T07:30:26.000Z</time>
      </trkpt>
      <trkpt lat="45.24224" lon="0.54271">
        <ele>167.19999694824</ele>
        <time>2018-05-05T07:30:32.000Z</time>
      </trkpt>
      <trkpt lat="45.24212" lon="0.54309">
        <ele>164.4</ele>
      </trkpt>
      <trkpt lat="45.2421" lon="0.54348">
        <ele>168</ele>
        <time>2018-05-05T07:30:44.000Z</time>
      </trkpt>
      <trkpt lat="45.2421" lon="0.54354">
        <ele>168</ele>
        <time>2018-05-05T07:30:45.000Z</time>
      </trkpt>
      <trkpt lat="45.24208" lon="0.54385">
        <ele>169</ele>
        <time>2018-05-05T07:30:51.000Z</time>
      </trkpt>
      <trkpt lat="45.24201" lon="0.54416">
        <ele>169.60000610352</ele>
        <time>2018-05-05T07:30:57.000Z</time>
      </trkpt>
      <trkpt lat="45.24194" lon="0.54454">
        <ele>170</ele>
        <time>2018-05-05T07:31:04.000Z</time>
      </trkpt>
      <trkpt lat="45.24188" lon="0.54513">
        <ele>169.60000610352</ele>
        <time>2018-05-05T07:31:11.000Z</time>
      </trkpt>
      <trkpt lat="45.2418" lon="0.54552">
        <ele>169.60000610352</ele>
        <time>2018-05-05T07:31:16.000Z</time>
      </trkpt>
      <trkpt lat="45.2417" lon="0.54589">
        <ele>169.60000610352</ele>
        <time>2018-05-05T07:31:22.000Z</time>
      </trkpt>
      <trkpt lat="45.24166" lon="0.54594">
        <ele>169.60000610352</ele>
        <time>2018-05-05T07:31:23.000Z</time>
      </trkpt>
      <trkpt lat="45.24152" lon="0.54618">
        <ele>169.39999389648</ele>
        <time>2018-05-05T07:31:27.000Z</time>
      </trkpt>
      <trkpt lat="45.24126" lon="0.54667">
        <ele>169.19999694824</ele>
        <time>2018-05-05T07:31:34.000Z</time>
      </trkpt>
      <trkpt lat="45.24106" lon="0.54706">
        <ele>169.80000305176</ele>
        <time>2018-05-05T07:31:41.000Z</time>
      </trkpt>
      <trkpt lat="45.241" lon="0.54717">
        <ele>170</ele>
        <time>2018-05-05T07:31:43.000Z</time>
      </trkpt>
      <trkpt lat="45.24086" lon="0.54746">
        <ele>171</ele>
        <time>2018-05-05T07:31:48.000Z</time>
      </trkpt>
      <trkpt lat="45.24083" lon="0.54753">
        <ele>171.19999694824</ele>
        <time>2018-05-05T07:31:49.000Z</time>
      </trkpt>
      <trkpt lat="45.2406" lon="0.54787">
        <ele>172.39999389648</ele>
        <time>2018-05-05T07:31:56.000Z</time>
      </trkpt>
      <trkpt lat="45.24057" lon="0.54792">
        <ele>172.39999389648</ele>
        <time>2018-05-05T07:31:57.000Z</time>
      </trkpt>
      <trkpt lat="45.2405" lon="0.54813">
        <ele>173</ele>
        <time>2018-05-05T07:32:01.000Z</time>
      </trkpt>
      <trkpt lat="45.24049" lon="0.54819">
        <ele>173.39999389648</ele>
        <time>2018-05-05T07:32:02.000Z</time>
      </trkpt>
      <trkpt lat="45.24044" lon="0.54848">
        <ele>174.39999389648</ele>
        <time>2018-05-05T07:32:07.000Z</time>
      </trkpt>
      <trkpt lat="45.24043" lon="0.54855">
        <ele>175</ele>
        <time>2018-05-05T07:32:08.000Z</time>
      </trkpt>
      <trkpt lat="45.24037" lon="0.54884">
        <ele>175.39999389648</ele>
        <time>2018-05-05T07:32:13.000Z</time>
      </trkpt>
      <trkpt lat="45.24035" lon="0.5489">
        <ele>175.60000610352</ele>
        <time>2018-05-05T07:32:14.000Z</time>
      </trkpt>
      <trkpt lat="45.24031" lon="0.54901">
        <ele>175.80000305176</ele>
        <time>2018-05-05T07:32:16.000Z</time>
      </trkpt>
      <trkpt lat="45.24016" lon="0.54939">
        <ele>176.60000610352</ele>
        <time>2018-05-05T07:32:23.000Z</time>
      </trkpt>
      <trkpt lat="45.24012" lon="0.5495">
        <ele>176.60000610352</ele>
        <time>2018-05-05T07:32:25.000Z</time>
      </trkpt>
      <trkpt lat="45.23995" lon="0.54994">
        <ele>177.39999389648</ele>
        <time>2018-05-05T07:32:33.000Z</time>
      </trkpt>
      <trkpt lat="45.23989" lon="0.5501">
        <ele>177.60000610352</ele>
        <time>2018-05-05T07:32:36.000Z</time>
      </trkpt>
      <trkpt lat="45.23987" lon="0.55016">
        <ele>177.60000610352</ele>
        <time>2018-05-05T07:32:37.000Z</time>
      </trkpt>
      <trkpt lat="45.23985" lon="0.55033">
        <ele>178</ele>
        <time>2018-05-05T07:32:40.000Z</time>
      </trkpt>
      <trkpt lat="45.23985" lon="0.5504">
        <ele>178.19999694824</ele>
        <time>2018-05-05T07:32:41.000Z</time>
      </trkpt>
      <trkpt lat="45.23984" lon="0.55072">
        <ele>178.60000610352</ele>
        <time>2018-05-05T07:32:47.000Z</time>
      </trkpt>
      <trkpt lat="45.23982" lon="0.55133">
        <ele>178.60000610352</ele>
        <time>2018-05-05T07:32:56.000Z</time>
      </trkpt>
      <trkpt lat="45.23983" lon="0.55189">
        <ele>178</ele>
        <time>2018-05-05T07:33:03.000Z</time>
      </trkpt>
      <trkpt lat="45.23982" lon="0.5524">
        <ele>177.60000610352</ele>
        <time>2018-05-05T07:33:09.000Z</time>
      </trkpt>
      <trkpt lat="45.23982" lon="0.55261">
        <ele>177.39999389648</ele>
        <time>2018-05-05T07:33:12.000Z</time>
      </trkpt>
      <trkpt lat="45.2398" lon="0.55297">
        <ele>177.19999694824</ele>
        <time>2018-05-05T07:33:18.000Z</time>
      </trkpt>
      <trkpt lat="45.23977" lon="0.55342">
        <ele>176.60000610352</ele>
        <time>2018-05-05T07:33:24.000Z</time>
      </trkpt>
      <trkpt lat="45.23977" lon="0.55351">
        <ele>176.39999389648</ele>
        <time>2018-05-05T07:33:25.000Z</time>
      </trkpt>
      <trkpt lat="45.23975" lon="0.55401">
        <ele>175.19999694824</ele>
        <time>2018-05-05T07:33:30.000Z</time>
      </trkpt>
      <trkpt lat="45.23969" lon="0.55439">
        <ele>174.39999389648</ele>
        <time>2018-05-05T07:33:34.000Z</time>
      </trkpt>
      <trkpt lat="45.23966" lon="0.55447">
        <ele>174.39999389648</ele>
        <time>2018-05-05T07:33:35.000Z</time>
      </trkpt>
      <trkpt lat="45.23956" lon="0.55459">
        <ele>174.19999694824</ele>
        <time>2018-05-05T07:33:37.000Z</time>
      </trkpt>
      <trkpt lat="45.23951" lon="0.55463">
        <ele>174.39999389648</ele>
        <time>2018-05-05T07:33:38.000Z</time>
      </trkpt>
      <trkpt lat="45.2394" lon="0.5547">
        <ele>174.39999389648</ele>
        <time>2018-05-05T07:33:40.000Z</time>
      </trkpt>
      <trkpt lat="45.23924" lon="0.55478">
        <ele>174.60000610352</ele>
        <time>2018-05-05T07:33:43.000Z</time>
      </trkpt>
      <trkpt lat="45.23892" lon="0.55495">
        <ele>174</ele>
        <time>2018-05-05T07:33:49.000Z</time>
      </trkpt>
      <trkpt lat="45.23874" lon="0.5551">
        <ele>173.19999694824</ele>
        <time>2018-05-05T07:33:52.000Z</time>
      </trkpt>
      <trkpt lat="45.23869" lon="0.55518">
        <ele>172.60000610352</ele>
        <time>2018-05-05T07:33:53.000Z</time>
      </trkpt>
      <trkpt lat="45.23864" lon="0.55539">
        <ele>171.80000305176</ele>
        <time>2018-05-05T07:33:55.000Z</time>
      </trkpt>
      <trkpt lat="45.23863" lon="0.55574">
        <ele>170.80000305176</ele>
        <time>2018-05-05T07:33:58.000Z</time>
      </trkpt>
      <trkpt lat="45.23863" lon="0.55586">
        <ele>170.39999389648</ele>
        <time>2018-05-05T07:33:59.000Z</time>
      </trkpt>
      <trkpt lat="45.23864" lon="0.5561">
        <ele>169.60000610352</ele>
        <time>2018-05-05T07:34:01.000Z</time>
      </trkpt>
      <trkpt lat="45.23865" lon="0.55637">
        <ele>168.39999389648</ele>
        <time>2018-05-05T07:34:03.000Z</time>
      </trkpt>
      <trkpt lat="45.23867" lon="0.55666">
        <ele>167</ele>
        <time>2018-05-05T07:34:05.000Z</time>
      </trkpt>
      <trkpt lat="45.23867" lon="0.55694">
        <ele>165.60000610352</ele>
        <time>2018-05-05T07:34:07.000Z</time>
      </trkpt>
      <trkpt lat="45.23867" lon="0.55722">
        <ele>163.60000610352</ele>
        <time>2018-05-05T07:34:09.000Z</time>
      </trkpt>
      <trkpt lat="45.23865" lon="0.55749">
        <ele>162.39999389648</ele>
        <time>2018-05-05T07:34:11.000Z</time>
      </trkpt>
      <trkpt lat="45.23863" lon="0.55761">
        <ele>162</ele>
        <time>2018-05-05T07:34:12.000Z</time>
      </trkpt>
      <trkpt lat="45.23859" lon="0.55792">
        <ele>161</ele>
        <time>2018-05-05T07:34:15.000Z</time>
      </trkpt>
      <trkpt lat="45.23865" lon="0.55823">
        <ele>161</ele>
        <time>2018-05-05T07:34:19.000Z</time>
      </trkpt>
      <trkpt lat="45.23867" lon="0.55829">
        <ele>161.19999694824</ele>
        <time>2018-05-05T07:34:20.000Z</time>
      </trkpt>
      <trkpt lat="45.23871" lon="0.55839">
        <ele>162</ele>
        <time>2018-05-05T07:34:22.000Z</time>
      </trkpt>
      <trkpt lat="45.23874" lon="0.55847">
        <ele>163</ele>
        <time>2018-05-05T07:34:24.000Z</time>
      </trkpt>
      <trkpt lat="45.23876" lon="0.55851">
        <ele>163.39999389648</ele>
        <time>2018-05-05T07:34:25.000Z</time>
      </trkpt>
      <trkpt lat="45.2388" lon="0.55861">
        <ele>164.39999389648</ele>
        <time>2018-05-05T07:34:28.000Z</time>
      </trkpt>
      <trkpt lat="45.23882" lon="0.55868">
        <ele>165</ele>
        <time>2018-05-05T07:34:30.000Z</time>
      </trkpt>
      <trkpt lat="45.23886" lon="0.55874">
        <ele>165.60000610352</ele>
        <time>2018-05-05T07:34:32.000Z</time>
      </trkpt>
      <trkpt lat="45.23888" lon="0.5588">
        <ele>166.80000305176</ele>
        <time>2018-05-05T07:34:34.000Z</time>
      </trkpt>
      <trkpt lat="45.23891" lon="0.55888">
        <ele>167.39999389648</ele>
        <time>2018-05-05T07:34:36.000Z</time>
      </trkpt>
      <trkpt lat="45.23893" lon="0.55891">
        <ele>167.80000305176</ele>
        <time>2018-05-05T07:34:37.000Z</time>
      </trkpt>
      <trkpt lat="45.23898" lon="0.55901">
        <ele>168.80000305176</ele>
        <time>2018-05-05T07:34:40.000Z</time>
      </trkpt>
      <trkpt lat="45.23901" lon="0.55912">
        <ele>169.80000305176</ele>
        <time>2018-05-05T07:34:43.000Z</time>
      </trkpt>
      <trkpt lat="45.23903" lon="0.55916">
        <ele>170.19999694824</ele>
        <time>2018-05-05T07:34:44.000Z</time>
      </trkpt>
      <trkpt lat="45.23909" lon="0.55929">
        <ele>171.19999694824</ele>
        <time>2018-05-05T07:34:48.000Z</time>
      </trkpt>
      <trkpt lat="45.23912" lon="0.55939">
        <ele>172.19999694824</ele>
        <time>2018-05-05T07:34:51.000Z</time>
      </trkpt>
      <trkpt lat="45.23918" lon="0.55954">
        <ele>173.39999389648</ele>
        <time>2018-05-05T07:34:55.000Z</time>
      </trkpt>
      <trkpt lat="45.23923" lon="0.55963">
        <ele>174.60000610352</ele>
        <time>2018-05-05T07:34:58.000Z</time>
      </trkpt>
      <trkpt lat="45.23929" lon="0.55975">
        <ele>175.60000610352</ele>
        <time>2018-05-05T07:35:02.000Z</time>
      </trkpt>
      <trkpt lat="45.23931" lon="0.55983">
        <ele>176.19999694824</ele>
        <time>2018-05-05T07:35:05.000Z</time>
      </trkpt>
      <trkpt lat="45.23931" lon="0.55984">
        <ele>176.39999389648</ele>
        <time>2018-05-05T07:35:06.000Z</time>
      </trkpt>
      <trkpt lat="45.23924" lon="0.55987">
        <ele>176.19999694824</ele>
        <time>2018-05-05T07:35:09.000Z</time>
      </trkpt>
      <trkpt lat="45.23907" lon="0.55996">
        <ele>175.39999389648</ele>
        <time>2018-05-05T07:35:14.000Z</time>
      </trkpt>
      <trkpt lat="45.23878" lon="0.5601">
        <ele>174.80000305176</ele>
        <time>2018-05-05T07:35:21.000Z</time>
      </trkpt>
      <trkpt lat="45.23865" lon="0.56015">
        <ele>174.60000610352</ele>
        <time>2018-05-05T07:35:24.000Z</time>
      </trkpt>
      <trkpt lat="45.23856" lon="0.56017">
        <ele>174.60000610352</ele>
        <time>2018-05-05T07:35:26.000Z</time>
      </trkpt>
      <trkpt lat="45.23847" lon="0.56018">
        <ele>174.39999389648</ele>
        <time>2018-05-05T07:35:28.000Z</time>
      </trkpt>
      <trkpt lat="45.23817" lon="0.56019">
        <ele>174.60000610352</ele>
        <time>2018-05-05T07:35:35.000Z</time>
      </trkpt>
      <trkpt lat="45.23787" lon="0.56016">
        <ele>174.80000305176</ele>
        <time>2018-05-05T07:35:42.000Z</time>
      </trkpt>
      <trkpt lat="45.23752" lon="0.56017">
        <ele>175</ele>
        <time>2018-05-05T07:35:50.000Z</time>
      </trkpt>
      <trkpt lat="45.23717" lon="0.56025">
        <ele>174.80000305176</ele>
        <time>2018-05-05T07:35:58.000Z</time>
      </trkpt>
      <trkpt lat="45.23686" lon="0.56035">
        <ele>175.39999389648</ele>
        <time>2018-05-05T07:36:06.000Z</time>
      </trkpt>
      <trkpt lat="45.23682" lon="0.56037">
        <ele>175.60000610352</ele>
        <time>2018-05-05T07:36:07.000Z</time>
      </trkpt>
      <trkpt lat="45.23657" lon="0.56051">
        <ele>176.60000610352</ele>
        <time>2018-05-05T07:36:14.000Z</time>
      </trkpt>
      <trkpt lat="45.23653" lon="0.56053">
        <ele>176.60000610352</ele>
        <time>2018-05-05T07:36:15.000Z</time>
      </trkpt>
      <trkpt lat="45.23616" lon="0.5607">
        <ele>176.39999389648</ele>
        <time>2018-05-05T07:36:23.000Z</time>
      </trkpt>
      <trkpt lat="45.23585" lon="0.56084">
        <ele>177</ele>
        <time>2018-05-05T07:36:30.000Z</time>
      </trkpt>
      <trkpt lat="45.23566" lon="0.56091">
        <ele>177.80000305176</ele>
        <time>2018-05-05T07:36:35.000Z</time>
      </trkpt>
      <trkpt lat="45.23556" lon="0.56095">
        <ele>178.19999694824</ele>
        <time>2018-05-05T07:36:38.000Z</time>
      </trkpt>
      <trkpt lat="45.23547" lon="0.56099">
        <ele>178.80000305176</ele>
        <time>2018-05-05T07:36:41.000Z</time>
      </trkpt>
      <trkpt lat="45.23536" lon="0.56103">
        <ele>179.19999694824</ele>
        <time>2018-05-05T07:36:45.000Z</time>
      </trkpt>
      <trkpt lat="45.23511" lon="0.56108">
        <ele>179.80000305176</ele>
        <time>2018-05-05T07:36:52.000Z</time>
      </trkpt>
      <trkpt lat="45.23485" lon="0.5611">
        <ele>180.39999389648</ele>
        <time>2018-05-05T07:37:00.000Z</time>
      </trkpt>
      <trkpt lat="45.23463" lon="0.56114">
        <ele>180.80000305176</ele>
        <time>2018-05-05T07:37:07.000Z</time>
      </trkpt>
      <trkpt lat="45.23454" lon="0.56121">
        <ele>181</ele>
        <time>2018-05-05T07:37:10.000Z</time>
      </trkpt>
      <trkpt lat="45.23449" lon="0.56123">
        <ele>181.19999694824</ele>
        <time>2018-05-05T07:37:12.000Z</time>
      </trkpt>
      <trkpt lat="45.23433" lon="0.56134">
        <ele>182.19999694824</ele>
        <time>2018-05-05T07:37:19.000Z</time>
      </trkpt>
      <trkpt lat="45.23429" lon="0.56146">
        <ele>183.19999694824</ele>
        <time>2018-05-05T07:37:24.000Z</time>
      </trkpt>
      <trkpt lat="45.23428" lon="0.56147">
        <ele>180.8</ele>
      </trkpt>
      <trkpt lat="45.23428" lon="0.56149">
        <ele>183.39999389648</ele>
        <time>2018-05-05T07:37:25.000Z</time>
      </trkpt>
      <trkpt lat="45.23425" lon="0.56162">
        <ele>184.39999389648</ele>
        <time>2018-05-05T07:37:30.000Z</time>
      </trkpt>
      <trkpt lat="45.23422" lon="0.56164">
        <ele>183</ele>
      </trkpt>
      <trkpt lat="45.23423" lon="0.56173">
        <ele>185.60000610352</ele>
        <time>2018-05-05T07:37:35.000Z</time>
      </trkpt>
      <trkpt lat="45.23423" lon="0.56181">
        <ele>186.19999694824</ele>
        <time>2018-05-05T07:37:38.000Z</time>
      </trkpt>
      <trkpt lat="45.23416" lon="0.56182">
        <ele>185.4</ele>
      </trkpt>
      <trkpt lat="45.23416" lon="0.56191">
        <ele>186</ele>
      </trkpt>
      <trkpt lat="45.23413" lon="0.56201">
        <ele>186.5</ele>
      </trkpt>
      <trkpt lat="45.23413" lon="0.56204">
        <ele>186.6</ele>
      </trkpt>
      <trkpt lat="45.23411" lon="0.56208">
        <ele>186.8</ele>
      </trkpt>
      <trkpt lat="45.23402" lon="0.56229">
        <ele>187.5</ele>
      </trkpt>
      <trkpt lat="45.23399" lon="0.56256">
        <ele>189.7</ele>
      </trkpt>
      <trkpt lat="45.234" lon="0.56266">
        <ele>190</ele>
      </trkpt>
      <trkpt lat="45.23398" lon="0.5627">
        <ele>190.2</ele>
      </trkpt>
      <trkpt lat="45.23394" lon="0.56285">
        <ele>190.8</ele>
      </trkpt>
      <trkpt lat="45.23399" lon="0.56297">
        <ele>190.80000305176</ele>
        <time>2018-05-05T07:38:08.000Z</time>
      </trkpt>
      <trkpt lat="45.23391" lon="0.56304">
        <ele>191.3</ele>
      </trkpt>
      <trkpt lat="45.23391" lon="0.56323">
        <ele>191.6</ele>
      </trkpt>
      <trkpt lat="45.23391" lon="0.56327">
        <ele>192.39999389648</ele>
        <time>2018-05-05T07:38:16.000Z</time>
      </trkpt>
      <trkpt lat="45.23387" lon="0.5633">
        <ele>191.7</ele>
      </trkpt>
      <trkpt lat="45.2339" lon="0.56336">
        <ele>192.39999389648</ele>
        <time>2018-05-05T07:38:19.000Z</time>
      </trkpt>
      <trkpt lat="45.23382" lon="0.56336">
        <ele>193.3</ele>
      </trkpt>
      <trkpt lat="45.23383" lon="0.5634">
        <ele>192.80000305176</ele>
        <time>2018-05-05T07:38:22.000Z</time>
      </trkpt>
      <trkpt lat="45.23379" lon="0.56341">
        <ele>192.80000305176</ele>
        <time>2018-05-05T07:38:24.000Z</time>
      </trkpt>
      <trkpt lat="45.23375" lon="0.56341">
        <ele>193.19999694824</ele>
        <time>2018-05-05T07:38:26.000Z</time>
      </trkpt>
      <trkpt lat="45.23367" lon="0.56343">
        <ele>193.39999389648</ele>
        <time>2018-05-05T07:38:29.000Z</time>
      </trkpt>
      <trkpt lat="45.23349" lon="0.5635">
        <ele>194</ele>
        <time>2018-05-05T07:38:36.000Z</time>
      </trkpt>
      <trkpt lat="45.23341" lon="0.56356">
        <ele>194.39999389648</ele>
        <time>2018-05-05T07:38:40.000Z</time>
      </trkpt>
      <trkpt lat="45.23333" lon="0.56359">
        <ele>194.60000610352</ele>
        <time>2018-05-05T07:38:43.000Z</time>
      </trkpt>
      <trkpt lat="45.23316" lon="0.56363">
        <ele>195.39999389648</ele>
        <time>2018-05-05T07:38:50.000Z</time>
      </trkpt>
      <trkpt lat="45.2331" lon="0.56368">
        <ele>195.60000610352</ele>
        <time>2018-05-05T07:38:53.000Z</time>
      </trkpt>
      <trkpt lat="45.23299" lon="0.56375">
        <ele>196</ele>
        <time>2018-05-05T07:38:56.000Z</time>
      </trkpt>
      <trkpt lat="45.23295" lon="0.56377">
        <ele>196.39999389648</ele>
        <time>2018-05-05T07:38:57.000Z</time>
      </trkpt>
      <trkpt lat="45.23281" lon="0.56383">
        <ele>197</ele>
        <time>2018-05-05T07:39:02.000Z</time>
      </trkpt>
      <trkpt lat="45.23276" lon="0.56385">
        <ele>197.60000610352</ele>
        <time>2018-05-05T07:39:04.000Z</time>
      </trkpt>
      <trkpt lat="45.23263" lon="0.56392">
        <ele>198.19999694824</ele>
        <time>2018-05-05T07:39:10.000Z</time>
      </trkpt>
      <trkpt lat="45.23253" lon="0.56396">
        <ele>198.60000610352</ele>
        <time>2018-05-05T07:39:14.000Z</time>
      </trkpt>
      <trkpt lat="45.23244" lon="0.56401">
        <ele>199.19999694824</ele>
        <time>2018-05-05T07:39:17.000Z</time>
      </trkpt>
      <trkpt lat="45.23237" lon="0.56406">
        <ele>199.39999389648</ele>
        <time>2018-05-05T07:39:19.000Z</time>
      </trkpt>
      <trkpt lat="45.23235" lon="0.56413">
        <ele>199.80000305176</ele>
        <time>2018-05-05T07:39:21.000Z</time>
      </trkpt>
      <trkpt lat="45.23235" lon="0.56416">
        <ele>200.19999694824</ele>
        <time>2018-05-05T07:39:22.000Z</time>
      </trkpt>
      <trkpt lat="45.23223" lon="0.5642">
        <ele>197.7</ele>
      </trkpt>
      <trkpt lat="45.23225" lon="0.56431">
        <ele>197.8</ele>
      </trkpt>
      <trkpt lat="45.23224" lon="0.56441">
        <ele>198.1</ele>
      </trkpt>
      <trkpt lat="45.23223" lon="0.56449">
        <ele>198.2</ele>
      </trkpt>
      <trkpt lat="45.23219" lon="0.56456">
        <ele>198.4</ele>
      </trkpt>
      <trkpt lat="45.23221" lon="0.56477">
        <ele>199</ele>
      </trkpt>
      <trkpt lat="45.2322" lon="0.56484">
        <ele>199.1</ele>
      </trkpt>
      <trkpt lat="45.23218" lon="0.56515">
        <ele>201.1</ele>
      </trkpt>
      <trkpt lat="45.23212" lon="0.56547">
        <ele>201.4</ele>
      </trkpt>
      <trkpt lat="45.23209" lon="0.56588">
        <ele>202.7</ele>
      </trkpt>
      <trkpt lat="45.23206" lon="0.56625">
        <ele>203.4</ele>
      </trkpt>
      <trkpt lat="45.23214" lon="0.5665">
        <ele>203.2</ele>
      </trkpt>
      <trkpt lat="45.23222" lon="0.56659">
        <ele>205.60000610352</ele>
        <time>2018-05-05T07:40:17.000Z</time>
      </trkpt>
      <trkpt lat="45.2322" lon="0.56668">
        <ele>206.19999694824</ele>
        <time>2018-05-05T07:40:19.000Z</time>
      </trkpt>
      <trkpt lat="45.23218" lon="0.56674">
        <ele>206.80000305176</ele>
        <time>2018-05-05T07:40:21.000Z</time>
      </trkpt>
      <trkpt lat="45.23217" lon="0.56676">
        <ele>207</ele>
        <time>2018-05-05T07:40:22.000Z</time>
      </trkpt>
      <trkpt lat="45.23213" lon="0.56674">
        <ele>207.39999389648</ele>
        <time>2018-05-05T07:40:24.000Z</time>
      </trkpt>
      <trkpt lat="45.23211" lon="0.56672">
        <ele>207.39999389648</ele>
        <time>2018-05-05T07:40:25.000Z</time>
      </trkpt>
      <trkpt lat="45.23209" lon="0.56669">
        <ele>207.60000610352</ele>
        <time>2018-05-05T07:40:26.000Z</time>
      </trkpt>
      <trkpt lat="45.23194" lon="0.56659">
        <ele>208.39999389648</ele>
        <time>2018-05-05T07:40:32.000Z</time>
      </trkpt>
      <trkpt lat="45.23185" lon="0.56654">
        <ele>209.60000610352</ele>
        <time>2018-05-05T07:40:36.000Z</time>
      </trkpt>
      <trkpt lat="45.23181" lon="0.5665">
        <ele>210</ele>
        <time>2018-05-05T07:40:38.000Z</time>
      </trkpt>
      <trkpt lat="45.23174" lon="0.56646">
        <ele>210.60000610352</ele>
        <time>2018-05-05T07:40:41.000Z</time>
      </trkpt>
      <trkpt lat="45.23168" lon="0.56642">
        <ele>211.39999389648</ele>
        <time>2018-05-05T07:40:44.000Z</time>
      </trkpt>
      <trkpt lat="45.23162" lon="0.56638">
        <ele>211.80000305176</ele>
        <time>2018-05-05T07:40:47.000Z</time>
      </trkpt>
      <trkpt lat="45.23152" lon="0.5663">
        <ele>212.80000305176</ele>
        <time>2018-05-05T07:40:52.000Z</time>
      </trkpt>
      <trkpt lat="45.23143" lon="0.56624">
        <ele>214.19999694824</ele>
        <time>2018-05-05T07:40:57.000Z</time>
      </trkpt>
      <trkpt lat="45.2314" lon="0.56622">
        <ele>214.60000610352</ele>
        <time>2018-05-05T07:40:59.000Z</time>
      </trkpt>
      <trkpt lat="45.23132" lon="0.56618">
        <ele>215.19999694824</ele>
        <time>2018-05-05T07:41:02.000Z</time>
      </trkpt>
      <trkpt lat="45.23124" lon="0.56614">
        <ele>215.80000305176</ele>
        <time>2018-05-05T07:41:05.000Z</time>
      </trkpt>
      <trkpt lat="45.23117" lon="0.56612">
        <ele>216.19999694824</ele>
        <time>2018-05-05T07:41:08.000Z</time>
      </trkpt>
      <trkpt lat="45.23109" lon="0.56609">
        <ele>216.60000610352</ele>
        <time>2018-05-05T07:41:11.000Z</time>
      </trkpt>
      <trkpt lat="45.23091" lon="0.56601">
        <ele>217.19999694824</ele>
        <time>2018-05-05T07:41:17.000Z</time>
      </trkpt>
      <trkpt lat="45.23085" lon="0.566">
        <ele>217.19999694824</ele>
        <time>2018-05-05T07:41:19.000Z</time>
      </trkpt>
      <trkpt lat="45.23066" lon="0.56597">
        <ele>217.19999694824</ele>
        <time>2018-05-05T07:41:24.000Z</time>
      </trkpt>
      <trkpt lat="45.23049" lon="0.56603">
        <ele>216.80000305176</ele>
        <time>2018-05-05T07:41:29.000Z</time>
      </trkpt>
      <trkpt lat="45.23047" lon="0.56607">
        <ele>217</ele>
        <time>2018-05-05T07:41:30.000Z</time>
      </trkpt>
      <trkpt lat="45.23048" lon="0.56627">
        <ele>218.19999694824</ele>
        <time>2018-05-05T07:41:34.000Z</time>
      </trkpt>
      <trkpt lat="45.23049" lon="0.56632">
        <ele>218.39999389648</ele>
        <time>2018-05-05T07:41:35.000Z</time>
      </trkpt>
      <trkpt lat="45.23055" lon="0.56658">
        <ele>219.39999389648</ele>
        <time>2018-05-05T07:41:41.000Z</time>
      </trkpt>
      <trkpt lat="45.23056" lon="0.56663">
        <ele>219.60000610352</ele>
        <time>2018-05-05T07:41:42.000Z</time>
      </trkpt>
      <trkpt lat="45.23055" lon="0.56691">
        <ele>219.19999694824</ele>
        <time>2018-05-05T07:41:48.000Z</time>
      </trkpt>
      <trkpt lat="45.23044" lon="0.56715">
        <ele>219.39999389648</ele>
        <time>2018-05-05T07:41:53.000Z</time>
      </trkpt>
      <trkpt lat="45.23029" lon="0.56754">
        <ele>218.80000305176</ele>
        <time>2018-05-05T07:41:59.000Z</time>
      </trkpt>
      <trkpt lat="45.23022" lon="0.56766">
        <ele>218.39999389648</ele>
        <time>2018-05-05T07:42:01.000Z</time>
      </trkpt>
      <trkpt lat="45.23019" lon="0.56773">
        <ele>218.19999694824</ele>
        <time>2018-05-05T07:42:02.000Z</time>
      </trkpt>
      <trkpt lat="45.23017" lon="0.56789">
        <ele>218</ele>
        <time>2018-05-05T07:42:04.000Z</time>
      </trkpt>
      <trkpt lat="45.23013" lon="0.56814">
        <ele>217.39999389648</ele>
        <time>2018-05-05T07:42:07.000Z</time>
      </trkpt>
      <trkpt lat="45.2301" lon="0.56822">
        <ele>217.19999694824</ele>
        <time>2018-05-05T07:42:08.000Z</time>
      </trkpt>
      <trkpt lat="45.23003" lon="0.56834">
        <ele>216</ele>
        <time>2018-05-05T07:42:10.000Z</time>
      </trkpt>
      <trkpt lat="45.22996" lon="0.56839">
        <ele>215.19999694824</ele>
        <time>2018-05-05T07:42:12.000Z</time>
      </trkpt>
      <trkpt lat="45.22994" lon="0.56841">
        <ele>214.80000305176</ele>
        <time>2018-05-05T07:42:13.000Z</time>
      </trkpt>
      <trkpt lat="45.22987" lon="0.56845">
        <ele>214.39999389648</ele>
        <time>2018-05-05T07:42:16.000Z</time>
      </trkpt>
      <trkpt lat="45.22975" lon="0.56855">
        <ele>214.39999389648</ele>
        <time>2018-05-05T07:42:19.000Z</time>
      </trkpt>
      <trkpt lat="45.22971" lon="0.56859">
        <ele>214.39999389648</ele>
        <time>2018-05-05T07:42:20.000Z</time>
      </trkpt>
      <trkpt lat="45.22949" lon="0.56889">
        <ele>213.80000305176</ele>
        <time>2018-05-05T07:42:25.000Z</time>
      </trkpt>
      <trkpt lat="45.22936" lon="0.5691">
        <ele>212.80000305176</ele>
        <time>2018-05-05T07:42:28.000Z</time>
      </trkpt>
      <trkpt lat="45.22919" lon="0.56941">
        <ele>211.80000305176</ele>
        <time>2018-05-05T07:42:32.000Z</time>
      </trkpt>
      <trkpt lat="45.22915" lon="0.56949">
        <ele>211.19999694824</ele>
        <time>2018-05-05T07:42:33.000Z</time>
      </trkpt>
      <trkpt lat="45.22909" lon="0.56962">
        <ele>210.19999694824</ele>
        <time>2018-05-05T07:42:35.000Z</time>
      </trkpt>
      <trkpt lat="45.22907" lon="0.56967">
        <ele>209.39999389648</ele>
        <time>2018-05-05T07:42:36.000Z</time>
      </trkpt>
      <trkpt lat="45.22906" lon="0.56972">
        <ele>209</ele>
        <time>2018-05-05T07:42:37.000Z</time>
      </trkpt>
      <trkpt lat="45.22897" lon="0.56994">
        <ele>209</ele>
        <time>2018-05-05T07:42:41.000Z</time>
      </trkpt>
      <trkpt lat="45.22891" lon="0.57006">
        <ele>208.80000305176</ele>
        <time>2018-05-05T07:42:43.000Z</time>
      </trkpt>
      <trkpt lat="45.22875" lon="0.57026">
        <ele>204.9</ele>
      </trkpt>
      <trkpt lat="45.22865" lon="0.57044">
        <ele>204</ele>
      </trkpt>
      <trkpt lat="45.22859" lon="0.57065">
        <ele>203.8</ele>
      </trkpt>
      <trkpt lat="45.22858" lon="0.57075">
        <ele>203.5</ele>
      </trkpt>
      <trkpt lat="45.22855" lon="0.5709">
        <ele>202.1</ele>
      </trkpt>
      <trkpt lat="45.22853" lon="0.57101">
        <ele>202.1</ele>
      </trkpt>
      <trkpt lat="45.22871" lon="0.57127">
        <ele>202.4</ele>
      </trkpt>
      <trkpt lat="45.22875" lon="0.57133">
        <ele>202.3</ele>
      </trkpt>
      <trkpt lat="45.22881" lon="0.57147">
        <ele>202</ele>
      </trkpt>
      <trkpt lat="45.22889" lon="0.57159">
        <ele>206.80000305176</ele>
        <time>2018-05-05T07:43:01.000Z</time>
      </trkpt>
      <trkpt lat="45.22888" lon="0.57168">
        <ele>206.80000305176</ele>
        <time>2018-05-05T07:43:02.000Z</time>
      </trkpt>
      <trkpt lat="45.22879" lon="0.57181">
        <ele>206.60000610352</ele>
        <time>2018-05-05T07:43:04.000Z</time>
      </trkpt>
      <trkpt lat="45.22868" lon="0.57192">
        <ele>206.39999389648</ele>
        <time>2018-05-05T07:43:06.000Z</time>
      </trkpt>
      <trkpt lat="45.22849" lon="0.57209">
        <ele>205.80000305176</ele>
        <time>2018-05-05T07:43:09.000Z</time>
      </trkpt>
      <trkpt lat="45.22837" lon="0.57221">
        <ele>205.60000610352</ele>
        <time>2018-05-05T07:43:11.000Z</time>
      </trkpt>
      <trkpt lat="45.22806" lon="0.57255">
        <ele>204.39999389648</ele>
        <time>2018-05-05T07:43:17.000Z</time>
      </trkpt>
      <trkpt lat="45.22807" lon="0.57268">
        <ele>203.60000610352</ele>
        <time>2018-05-05T07:43:19.000Z</time>
      </trkpt>
      <trkpt lat="45.22818" lon="0.57282">
        <ele>203.60000610352</ele>
        <time>2018-05-05T07:43:22.000Z</time>
      </trkpt>
      <trkpt lat="45.22827" lon="0.573">
        <ele>203.19999694824</ele>
        <time>2018-05-05T07:43:25.000Z</time>
      </trkpt>
      <trkpt lat="45.22828" lon="0.57307">
        <ele>202.80000305176</ele>
        <time>2018-05-05T07:43:26.000Z</time>
      </trkpt>
      <trkpt lat="45.22824" lon="0.57327">
        <ele>202</ele>
        <time>2018-05-05T07:43:29.000Z</time>
      </trkpt>
      <trkpt lat="45.22822" lon="0.57336">
        <ele>202</ele>
        <time>2018-05-05T07:43:30.000Z</time>
      </trkpt>
      <trkpt lat="45.22822" lon="0.57347">
        <ele>201.80000305176</ele>
        <time>2018-05-05T07:43:31.000Z</time>
      </trkpt>
      <trkpt lat="45.22822" lon="0.57368">
        <ele>201.39999389648</ele>
        <time>2018-05-05T07:43:33.000Z</time>
      </trkpt>
      <trkpt lat="45.22821" lon="0.57378">
        <ele>201.19999694824</ele>
        <time>2018-05-05T07:43:34.000Z</time>
      </trkpt>
      <trkpt lat="45.2282" lon="0.57388">
        <ele>200.60000610352</ele>
        <time>2018-05-05T07:43:35.000Z</time>
      </trkpt>
      <trkpt lat="45.22818" lon="0.57397">
        <ele>200</ele>
        <time>2018-05-05T07:43:36.000Z</time>
      </trkpt>
      <trkpt lat="45.22814" lon="0.57406">
        <ele>199.60000610352</ele>
        <time>2018-05-05T07:43:37.000Z</time>
      </trkpt>
      <trkpt lat="45.22803" lon="0.5743">
        <ele>199</ele>
        <time>2018-05-05T07:43:40.000Z</time>
      </trkpt>
      <trkpt lat="45.228" lon="0.57439">
        <ele>198.80000305176</ele>
        <time>2018-05-05T07:43:41.000Z</time>
      </trkpt>
      <trkpt lat="45.22797" lon="0.57449">
        <ele>198.39999389648</ele>
        <time>2018-05-05T07:43:42.000Z</time>
      </trkpt>
      <trkpt lat="45.22792" lon="0.57478">
        <ele>197</ele>
        <time>2018-05-05T07:43:45.000Z</time>
      </trkpt>
      <trkpt lat="45.22791" lon="0.57487">
        <ele>196.39999389648</ele>
        <time>2018-05-05T07:43:46.000Z</time>
      </trkpt>
      <trkpt lat="45.22788" lon="0.57505">
        <ele>195.80000305176</ele>
        <time>2018-05-05T07:43:48.000Z</time>
      </trkpt>
      <trkpt lat="45.22778" lon="0.57522">
        <ele>195.19999694824</ele>
        <time>2018-05-05T07:43:50.000Z</time>
      </trkpt>
      <trkpt lat="45.22766" lon="0.57537">
        <ele>194.60000610352</ele>
        <time>2018-05-05T07:43:52.000Z</time>
      </trkpt>
      <trkpt lat="45.22746" lon="0.57558">
        <ele>193.80000305176</ele>
        <time>2018-05-05T07:43:55.000Z</time>
      </trkpt>
      <trkpt lat="45.22729" lon="0.57579">
        <ele>193.60000610352</ele>
        <time>2018-05-05T07:43:58.000Z</time>
      </trkpt>
      <trkpt lat="45.22718" lon="0.57593">
        <ele>193</ele>
        <time>2018-05-05T07:44:00.000Z</time>
      </trkpt>
      <trkpt lat="45.22694" lon="0.57623">
        <ele>192.39999389648</ele>
        <time>2018-05-05T07:44:04.000Z</time>
      </trkpt>
      <trkpt lat="45.22677" lon="0.57642">
        <ele>191</ele>
        <time>2018-05-05T07:44:07.000Z</time>
      </trkpt>
      <trkpt lat="45.2267" lon="0.57647">
        <ele>191</ele>
        <time>2018-05-05T07:44:08.000Z</time>
      </trkpt>
      <trkpt lat="45.22655" lon="0.57655">
        <ele>190</ele>
        <time>2018-05-05T07:44:10.000Z</time>
      </trkpt>
      <trkpt lat="45.22639" lon="0.57659">
        <ele>189.19999694824</ele>
        <time>2018-05-05T07:44:12.000Z</time>
      </trkpt>
      <trkpt lat="45.2263" lon="0.57661">
        <ele>188.60000610352</ele>
        <time>2018-05-05T07:44:13.000Z</time>
      </trkpt>
      <trkpt lat="45.22614" lon="0.57667">
        <ele>187.19999694824</ele>
        <time>2018-05-05T07:44:15.000Z</time>
      </trkpt>
      <trkpt lat="45.22604" lon="0.5768">
        <ele>186</ele>
        <time>2018-05-05T07:44:17.000Z</time>
      </trkpt>
      <trkpt lat="45.22594" lon="0.57685">
        <ele>184.60000610352</ele>
        <time>2018-05-05T07:44:19.000Z</time>
      </trkpt>
      <trkpt lat="45.22588" lon="0.57682">
        <ele>184</ele>
        <time>2018-05-05T07:44:20.000Z</time>
      </trkpt>
      <trkpt lat="45.22576" lon="0.57676">
        <ele>183.19999694824</ele>
        <time>2018-05-05T07:44:22.000Z</time>
      </trkpt>
      <trkpt lat="45.22564" lon="0.57665">
        <ele>182.39999389648</ele>
        <time>2018-05-05T07:44:24.000Z</time>
      </trkpt>
      <trkpt lat="45.22561" lon="0.57654">
        <ele>182</ele>
        <time>2018-05-05T07:44:25.000Z</time>
      </trkpt>
      <trkpt lat="45.22559" lon="0.57643">
        <ele>181.39999389648</ele>
        <time>2018-05-05T07:44:26.000Z</time>
      </trkpt>
      <trkpt lat="45.22558" lon="0.57632">
        <ele>181</ele>
        <time>2018-05-05T07:44:27.000Z</time>
      </trkpt>
      <trkpt lat="45.22557" lon="0.57621">
        <ele>180.80000305176</ele>
        <time>2018-05-05T07:44:28.000Z</time>
      </trkpt>
      <trkpt lat="45.22547" lon="0.57606">
        <ele>179.1</ele>
      </trkpt>
      <trkpt lat="45.22534" lon="0.57584">
        <ele>178.4</ele>
      </trkpt>
      <trkpt lat="45.2253" lon="0.57576">
        <ele>180.8</ele>
      </trkpt>
      <trkpt lat="45.22513" lon="0.57561">
        <ele>179.9</ele>
      </trkpt>
      <trkpt lat="45.22498" lon="0.57551">
        <ele>175</ele>
      </trkpt>
      <trkpt lat="45.22485" lon="0.57542">
        <ele>174.6</ele>
      </trkpt>
      <trkpt lat="45.22468" lon="0.57532">
        <ele>174.2</ele>
      </trkpt>
      <trkpt lat="45.22457" lon="0.57525">
        <ele>173.7</ele>
      </trkpt>
      <trkpt lat="45.22444" lon="0.57516">
        <ele>172.9</ele>
      </trkpt>
      <trkpt lat="45.22433" lon="0.57501">
        <ele>171.8</ele>
      </trkpt>
      <trkpt lat="45.22426" lon="0.57495">
        <ele>171.8</ele>
      </trkpt>
      <trkpt lat="45.22416" lon="0.57496">
        <ele>170.8</ele>
      </trkpt>
      <trkpt lat="45.22411" lon="0.5749">
        <ele>170.80000305176</ele>
        <time>2018-05-05T07:44:53.000Z</time>
      </trkpt>
      <trkpt lat="45.22408" lon="0.57498">
        <ele>171.7</ele>
      </trkpt>
      <trkpt lat="45.22402" lon="0.57476">
        <ele>170.19999694824</ele>
        <time>2018-05-05T07:44:57.000Z</time>
      </trkpt>
      <trkpt lat="45.22398" lon="0.57453">
        <ele>171</ele>
        <time>2018-05-05T07:45:01.000Z</time>
      </trkpt>
      <trkpt lat="45.22396" lon="0.57447">
        <ele>171.19999694824</ele>
        <time>2018-05-05T07:45:02.000Z</time>
      </trkpt>
      <trkpt lat="45.22385" lon="0.57393">
        <ele>171.60000610352</ele>
        <time>2018-05-05T07:45:11.000Z</time>
      </trkpt>
      <trkpt lat="45.22379" lon="0.57368">
        <ele>171.80000305176</ele>
        <time>2018-05-05T07:45:15.000Z</time>
      </trkpt>
      <trkpt lat="45.22374" lon="0.57342">
        <ele>172.39999389648</ele>
        <time>2018-05-05T07:45:19.000Z</time>
      </trkpt>
      <trkpt lat="45.22366" lon="0.57307">
        <ele>173</ele>
        <time>2018-05-05T07:45:24.000Z</time>
      </trkpt>
      <trkpt lat="45.22363" lon="0.57286">
        <ele>173</ele>
        <time>2018-05-05T07:45:27.000Z</time>
      </trkpt>
      <trkpt lat="45.22357" lon="0.57244">
        <ele>174</ele>
        <time>2018-05-05T07:45:33.000Z</time>
      </trkpt>
      <trkpt lat="45.22354" lon="0.57215">
        <ele>174.80000305176</ele>
        <time>2018-05-05T07:45:37.000Z</time>
      </trkpt>
      <trkpt lat="45.22353" lon="0.57208">
        <ele>175</ele>
        <time>2018-05-05T07:45:38.000Z</time>
      </trkpt>
      <trkpt lat="45.22347" lon="0.57148">
        <ele>176.19999694824</ele>
        <time>2018-05-05T07:45:46.000Z</time>
      </trkpt>
      <trkpt lat="45.22346" lon="0.57141">
        <ele>176.19999694824</ele>
        <time>2018-05-05T07:45:47.000Z</time>
      </trkpt>
      <trkpt lat="45.22341" lon="0.57077">
        <ele>177</ele>
        <time>2018-05-05T07:45:56.000Z</time>
      </trkpt>
      <trkpt lat="45.22339" lon="0.57056">
        <ele>177.19999694824</ele>
        <time>2018-05-05T07:45:59.000Z</time>
      </trkpt>
      <trkpt lat="45.22335" lon="0.57028">
        <ele>177.80000305176</ele>
        <time>2018-05-05T07:46:04.000Z</time>
      </trkpt>
      <trkpt lat="45.2233" lon="0.57025">
        <ele>178</ele>
        <time>2018-05-05T07:46:05.000Z</time>
      </trkpt>
      <trkpt lat="45.22322" lon="0.57028">
        <ele>178.19999694824</ele>
        <time>2018-05-05T07:46:07.000Z</time>
      </trkpt>
      <trkpt lat="45.22313" lon="0.57043">
        <ele>177.80000305176</ele>
        <time>2018-05-05T07:46:10.000Z</time>
      </trkpt>
      <trkpt lat="45.22311" lon="0.57049">
        <ele>177.80000305176</ele>
        <time>2018-05-05T07:46:11.000Z</time>
      </trkpt>
      <trkpt lat="45.22304" lon="0.57076">
        <ele>178</ele>
        <time>2018-05-05T07:46:15.000Z</time>
      </trkpt>
      <trkpt lat="45.22299" lon="0.57093">
        <ele>178.19999694824</ele>
        <time>2018-05-05T07:46:18.000Z</time>
      </trkpt>
      <trkpt lat="45.22298" lon="0.57101">
        <ele>178.80000305176</ele>
        <time>2018-05-05T07:46:20.000Z</time>
      </trkpt>
      <trkpt lat="45.22296" lon="0.57108">
        <ele>179.39999389648</ele>
        <time>2018-05-05T07:46:22.000Z</time>
      </trkpt>
      <trkpt lat="45.2229" lon="0.57123">
        <ele>180.39999389648</ele>
        <time>2018-05-05T07:46:26.000Z</time>
      </trkpt>
      <trkpt lat="45.22287" lon="0.5713">
        <ele>180.80000305176</ele>
        <time>2018-05-05T07:46:28.000Z</time>
      </trkpt>
      <trkpt lat="45.22283" lon="0.57136">
        <ele>181.39999389648</ele>
        <time>2018-05-05T07:46:30.000Z</time>
      </trkpt>
      <trkpt lat="45.22277" lon="0.57149">
        <ele>182.80000305176</ele>
        <time>2018-05-05T07:46:34.000Z</time>
      </trkpt>
      <trkpt lat="45.22276" lon="0.57155">
        <ele>183.39999389648</ele>
        <time>2018-05-05T07:46:36.000Z</time>
      </trkpt>
      <trkpt lat="45.22274" lon="0.57161">
        <ele>184</ele>
        <time>2018-05-05T07:46:38.000Z</time>
      </trkpt>
      <trkpt lat="45.2227" lon="0.57174">
        <ele>185</ele>
        <time>2018-05-05T07:46:42.000Z</time>
      </trkpt>
      <trkpt lat="45.22265" lon="0.57185">
        <ele>186</ele>
        <time>2018-05-05T07:46:46.000Z</time>
      </trkpt>
      <trkpt lat="45.2226" lon="0.57194">
        <ele>187</ele>
        <time>2018-05-05T07:46:50.000Z</time>
      </trkpt>
      <trkpt lat="45.22252" lon="0.57211">
        <ele>188.19999694824</ele>
        <time>2018-05-05T07:46:56.000Z</time>
      </trkpt>
      <trkpt lat="45.2225" lon="0.57214">
        <ele>188.39999389648</ele>
        <time>2018-05-05T07:46:57.000Z</time>
      </trkpt>
      <trkpt lat="45.22244" lon="0.57225">
        <ele>189.19999694824</ele>
        <time>2018-05-05T07:47:01.000Z</time>
      </trkpt>
      <trkpt lat="45.2224" lon="0.5723">
        <ele>189.60000610352</ele>
        <time>2018-05-05T07:47:03.000Z</time>
      </trkpt>
      <trkpt lat="45.22224" lon="0.57247">
        <ele>190.19999694824</ele>
        <time>2018-05-05T07:47:10.000Z</time>
      </trkpt>
      <trkpt lat="45.22221" lon="0.57251">
        <ele>190.39999389648</ele>
        <time>2018-05-05T07:47:11.000Z</time>
      </trkpt>
      <trkpt lat="45.22209" lon="0.57268">
        <ele>191</ele>
        <time>2018-05-05T07:47:16.000Z</time>
      </trkpt>
      <trkpt lat="45.22189" lon="0.573">
        <ele>191.39999389648</ele>
        <time>2018-05-05T07:47:23.000Z</time>
      </trkpt>
      <trkpt lat="45.22183" lon="0.5731">
        <ele>191.39999389648</ele>
        <time>2018-05-05T07:47:25.000Z</time>
      </trkpt>
      <trkpt lat="45.22171" lon="0.5733">
        <ele>191.39999389648</ele>
        <time>2018-05-05T07:47:29.000Z</time>
      </trkpt>
      <trkpt lat="45.22168" lon="0.57336">
        <ele>191.39999389648</ele>
        <time>2018-05-05T07:47:30.000Z</time>
      </trkpt>
      <trkpt lat="45.22152" lon="0.57365">
        <ele>192.19999694824</ele>
        <time>2018-05-05T07:47:36.000Z</time>
      </trkpt>
      <trkpt lat="45.22142" lon="0.57385">
        <ele>192.60000610352</ele>
        <time>2018-05-05T07:47:40.000Z</time>
      </trkpt>
      <trkpt lat="45.22133" lon="0.57399">
        <ele>193</ele>
        <time>2018-05-05T07:47:43.000Z</time>
      </trkpt>
      <trkpt lat="45.2213" lon="0.57403">
        <ele>193</ele>
        <time>2018-05-05T07:47:44.000Z</time>
      </trkpt>
      <trkpt lat="45.22117" lon="0.5742">
        <ele>193.60000610352</ele>
        <time>2018-05-05T07:47:48.000Z</time>
      </trkpt>
      <trkpt lat="45.2211" lon="0.57428">
        <ele>193.80000305176</ele>
        <time>2018-05-05T07:47:50.000Z</time>
      </trkpt>
      <trkpt lat="45.22102" lon="0.57436">
        <ele>194</ele>
        <time>2018-05-05T07:47:52.000Z</time>
      </trkpt>
      <trkpt lat="45.22086" lon="0.57453">
        <ele>194.19999694824</ele>
        <time>2018-05-05T07:47:56.000Z</time>
      </trkpt>
      <trkpt lat="45.22064" lon="0.57483">
        <ele>194.19999694824</ele>
        <time>2018-05-05T07:48:02.000Z</time>
      </trkpt>
      <trkpt lat="45.22058" lon="0.57496">
        <ele>194.19999694824</ele>
        <time>2018-05-05T07:48:04.000Z</time>
      </trkpt>
      <trkpt lat="45.22053" lon="0.57512">
        <ele>193.80000305176</ele>
        <time>2018-05-05T07:48:06.000Z</time>
      </trkpt>
      <trkpt lat="45.2205" lon="0.5752">
        <ele>193.60000610352</ele>
        <time>2018-05-05T07:48:07.000Z</time>
      </trkpt>
      <trkpt lat="45.22041" lon="0.57548">
        <ele>192.39999389648</ele>
        <time>2018-05-05T07:48:10.000Z</time>
      </trkpt>
      <trkpt lat="45.22032" lon="0.57578">
        <ele>191.60000610352</ele>
        <time>2018-05-05T07:48:13.000Z</time>
      </trkpt>
      <trkpt lat="45.22028" lon="0.57589">
        <ele>191.19999694824</ele>
        <time>2018-05-05T07:48:14.000Z</time>
      </trkpt>
      <trkpt lat="45.22015" lon="0.57624">
        <ele>190</ele>
        <time>2018-05-05T07:48:17.000Z</time>
      </trkpt>
      <trkpt lat="45.22008" lon="0.57649">
        <ele>189.60000610352</ele>
        <time>2018-05-05T07:48:19.000Z</time>
      </trkpt>
      <trkpt lat="45.22" lon="0.57674">
        <ele>188.60000610352</ele>
        <time>2018-05-05T07:48:21.000Z</time>
      </trkpt>
      <trkpt lat="45.21992" lon="0.577">
        <ele>187.39999389648</ele>
        <time>2018-05-05T07:48:23.000Z</time>
      </trkpt>
      <trkpt lat="45.21987" lon="0.57727">
        <ele>186.19999694824</ele>
        <time>2018-05-05T07:48:25.000Z</time>
      </trkpt>
      <trkpt lat="45.21985" lon="0.5774">
        <ele>185.39999389648</ele>
        <time>2018-05-05T07:48:26.000Z</time>
      </trkpt>
      <trkpt lat="45.21983" lon="0.57754">
        <ele>185</ele>
        <time>2018-05-05T07:48:27.000Z</time>
      </trkpt>
      <trkpt lat="45.2198" lon="0.57782">
        <ele>183.80000305176</ele>
        <time>2018-05-05T07:48:29.000Z</time>
      </trkpt>
      <trkpt lat="45.21977" lon="0.57812">
        <ele>182.19999694824</ele>
        <time>2018-05-05T07:48:31.000Z</time>
      </trkpt>
      <trkpt lat="45.21975" lon="0.57842">
        <ele>180.19999694824</ele>
        <time>2018-05-05T07:48:33.000Z</time>
      </trkpt>
      <trkpt lat="45.21973" lon="0.57882">
        <ele>179.39999389648</ele>
        <time>2018-05-05T07:48:36.000Z</time>
      </trkpt>
      <trkpt lat="45.21969" lon="0.57923">
        <ele>179.60000610352</ele>
        <time>2018-05-05T07:48:40.000Z</time>
      </trkpt>
      <trkpt lat="45.21956" lon="0.57962">
        <ele>180.80000305176</ele>
        <time>2018-05-05T07:48:45.000Z</time>
      </trkpt>
      <trkpt lat="45.21949" lon="0.57985">
        <ele>181.19999694824</ele>
        <time>2018-05-05T07:48:48.000Z</time>
      </trkpt>
      <trkpt lat="45.21944" lon="0.58008">
        <ele>180.80000305176</ele>
        <time>2018-05-05T07:48:51.000Z</time>
      </trkpt>
      <trkpt lat="45.21942" lon="0.58032">
        <ele>181</ele>
        <time>2018-05-05T07:48:54.000Z</time>
      </trkpt>
      <trkpt lat="45.21941" lon="0.58058">
        <ele>181.60000610352</ele>
        <time>2018-05-05T07:48:57.000Z</time>
      </trkpt>
      <trkpt lat="45.21936" lon="0.58126">
        <ele>180.60000610352</ele>
        <time>2018-05-05T07:49:04.000Z</time>
      </trkpt>
      <trkpt lat="45.21931" lon="0.58156">
        <ele>180.19999694824</ele>
        <time>2018-05-05T07:49:07.000Z</time>
      </trkpt>
      <trkpt lat="45.21927" lon="0.58173">
        <ele>180.19999694824</ele>
        <time>2018-05-05T07:49:09.000Z</time>
      </trkpt>
      <trkpt lat="45.21906" lon="0.5825">
        <ele>179.80000305176</ele>
        <time>2018-05-05T07:49:17.000Z</time>
      </trkpt>
      <trkpt lat="45.21901" lon="0.58291">
        <ele>179.19999694824</ele>
        <time>2018-05-05T07:49:21.000Z</time>
      </trkpt>
      <trkpt lat="45.21898" lon="0.58325">
        <ele>178.19999694824</ele>
        <time>2018-05-05T07:49:24.000Z</time>
      </trkpt>
      <trkpt lat="45.21894" lon="0.58362">
        <ele>177</ele>
        <time>2018-05-05T07:49:27.000Z</time>
      </trkpt>
      <trkpt lat="45.21892" lon="0.58413">
        <ele>175.80000305176</ele>
        <time>2018-05-05T07:49:31.000Z</time>
      </trkpt>
      <trkpt lat="45.2189" lon="0.58455">
        <ele>174.19999694824</ele>
        <time>2018-05-05T07:49:34.000Z</time>
      </trkpt>
      <trkpt lat="45.21886" lon="0.58491">
        <ele>173</ele>
        <time>2018-05-05T07:49:37.000Z</time>
      </trkpt>
      <trkpt lat="45.21879" lon="0.58527">
        <ele>172.80000305176</ele>
        <time>2018-05-05T07:49:41.000Z</time>
      </trkpt>
      <trkpt lat="45.21862" lon="0.5858">
        <ele>174.19999694824</ele>
        <time>2018-05-05T07:49:48.000Z</time>
      </trkpt>
      <trkpt lat="45.2186" lon="0.58586">
        <ele>174.39999389648</ele>
        <time>2018-05-05T07:49:49.000Z</time>
      </trkpt>
      <trkpt lat="45.21853" lon="0.58608">
        <ele>175.19999694824</ele>
        <time>2018-05-05T07:49:53.000Z</time>
      </trkpt>
      <trkpt lat="45.2185" lon="0.5862">
        <ele>175.80000305176</ele>
        <time>2018-05-05T07:49:55.000Z</time>
      </trkpt>
      <trkpt lat="45.21846" lon="0.5863">
        <ele>176.39999389648</ele>
        <time>2018-05-05T07:49:57.000Z</time>
      </trkpt>
      <trkpt lat="45.21838" lon="0.58654">
        <ele>177.60000610352</ele>
        <time>2018-05-05T07:50:01.000Z</time>
      </trkpt>
      <trkpt lat="45.21828" lon="0.58688">
        <ele>178.19999694824</ele>
        <time>2018-05-05T07:50:07.000Z</time>
      </trkpt>
      <trkpt lat="45.21823" lon="0.58703">
        <ele>178.80000305176</ele>
        <time>2018-05-05T07:50:10.000Z</time>
      </trkpt>
      <trkpt lat="45.21814" lon="0.58738">
        <ele>179</ele>
        <time>2018-05-05T07:50:16.000Z</time>
      </trkpt>
      <trkpt lat="45.21796" lon="0.58787">
        <ele>179</ele>
        <time>2018-05-05T07:50:23.000Z</time>
      </trkpt>
      <trkpt lat="45.21776" lon="0.58843">
        <ele>178.39999389648</ele>
        <time>2018-05-05T07:50:30.000Z</time>
      </trkpt>
      <trkpt lat="45.21769" lon="0.58892">
        <ele>179.19999694824</ele>
        <time>2018-05-05T07:50:36.000Z</time>
      </trkpt>
      <trkpt lat="45.21764" lon="0.58931">
        <ele>179</ele>
        <time>2018-05-05T07:50:41.000Z</time>
      </trkpt>
      <trkpt lat="45.2176" lon="0.58953">
        <ele>179.60000610352</ele>
        <time>2018-05-05T07:50:44.000Z</time>
      </trkpt>
      <trkpt lat="45.21759" lon="0.5896">
        <ele>179.80000305176</ele>
        <time>2018-05-05T07:50:45.000Z</time>
      </trkpt>
      <trkpt lat="45.21753" lon="0.59005">
        <ele>180</ele>
        <time>2018-05-05T07:50:52.000Z</time>
      </trkpt>
      <trkpt lat="45.21749" lon="0.59023">
        <ele>180.39999389648</ele>
        <time>2018-05-05T07:50:55.000Z</time>
      </trkpt>
      <trkpt lat="45.21746" lon="0.59035">
        <ele>180.39999389648</ele>
        <time>2018-05-05T07:50:57.000Z</time>
      </trkpt>
      <trkpt lat="45.21742" lon="0.59039">
        <ele>180.19999694824</ele>
        <time>2018-05-05T07:50:58.000Z</time>
      </trkpt>
      <trkpt lat="45.21729" lon="0.59038">
        <ele>180.19999694824</ele>
        <time>2018-05-05T07:51:01.000Z</time>
      </trkpt>
      <trkpt lat="45.21718" lon="0.59024">
        <ele>180.19999694824</ele>
        <time>2018-05-05T07:51:04.000Z</time>
      </trkpt>
      <trkpt lat="45.21714" lon="0.5902">
        <ele>180.19999694824</ele>
        <time>2018-05-05T07:51:05.000Z</time>
      </trkpt>
      <trkpt lat="45.217" lon="0.59009">
        <ele>180.19999694824</ele>
        <time>2018-05-05T07:51:08.000Z</time>
      </trkpt>
      <trkpt lat="45.21695" lon="0.59005">
        <ele>180</ele>
        <time>2018-05-05T07:51:09.000Z</time>
      </trkpt>
      <trkpt lat="45.21663" lon="0.58976">
        <ele>179.39999389648</ele>
        <time>2018-05-05T07:51:16.000Z</time>
      </trkpt>
      <trkpt lat="45.21645" lon="0.58961">
        <ele>178.80000305176</ele>
        <time>2018-05-05T07:51:20.000Z</time>
      </trkpt>
      <trkpt lat="45.21635" lon="0.58954">
        <ele>179</ele>
        <time>2018-05-05T07:51:22.000Z</time>
      </trkpt>
      <trkpt lat="45.21615" lon="0.58936">
        <ele>178.80000305176</ele>
        <time>2018-05-05T07:51:27.000Z</time>
      </trkpt>
      <trkpt lat="45.21587" lon="0.58904">
        <ele>177.80000305176</ele>
        <time>2018-05-05T07:51:34.000Z</time>
      </trkpt>
      <trkpt lat="45.21569" lon="0.58885">
        <ele>177.39999389648</ele>
        <time>2018-05-05T07:51:38.000Z</time>
      </trkpt>
      <trkpt lat="45.2156" lon="0.58875">
        <ele>176.39999389648</ele>
        <time>2018-05-05T07:51:40.000Z</time>
      </trkpt>
      <trkpt lat="45.21554" lon="0.58872">
        <ele>176.19999694824</ele>
        <time>2018-05-05T07:51:41.000Z</time>
      </trkpt>
      <trkpt lat="45.21534" lon="0.58868">
        <ele>175</ele>
        <time>2018-05-05T07:51:44.000Z</time>
      </trkpt>
      <trkpt lat="45.2152" lon="0.58865">
        <ele>173.39999389648</ele>
        <time>2018-05-05T07:51:46.000Z</time>
      </trkpt>
      <trkpt lat="45.21495" lon="0.5886">
        <ele>172.19999694824</ele>
        <time>2018-05-05T07:51:49.000Z</time>
      </trkpt>
      <trkpt lat="45.21479" lon="0.58857">
        <ele>171.19999694824</ele>
        <time>2018-05-05T07:51:51.000Z</time>
      </trkpt>
      <trkpt lat="45.21464" lon="0.58856">
        <ele>170</ele>
        <time>2018-05-05T07:51:53.000Z</time>
      </trkpt>
      <trkpt lat="45.21458" lon="0.58856">
        <ele>169</ele>
        <time>2018-05-05T07:51:54.000Z</time>
      </trkpt>
      <trkpt lat="45.21447" lon="0.58855">
        <ele>166.80000305176</ele>
        <time>2018-05-05T07:51:56.000Z</time>
      </trkpt>
      <trkpt lat="45.21435" lon="0.58854">
        <ele>165.19999694824</ele>
        <time>2018-05-05T07:51:58.000Z</time>
      </trkpt>
      <trkpt lat="45.21426" lon="0.58852">
        <ele>163.60000610352</ele>
        <time>2018-05-05T07:52:00.000Z</time>
      </trkpt>
      <trkpt lat="45.21419" lon="0.58849">
        <ele>162</ele>
        <time>2018-05-05T07:52:02.000Z</time>
      </trkpt>
      <trkpt lat="45.21412" lon="0.58847">
        <ele>160.19999694824</ele>
        <time>2018-05-05T07:52:04.000Z</time>
      </trkpt>
      <trkpt lat="45.21405" lon="0.58844">
        <ele>158.60000610352</ele>
        <time>2018-05-05T07:52:06.000Z</time>
      </trkpt>
      <trkpt lat="45.21401" lon="0.58843">
        <ele>157.80000305176</ele>
        <time>2018-05-05T07:52:07.000Z</time>
      </trkpt>
      <trkpt lat="45.21397" lon="0.58842">
        <ele>156.80000305176</ele>
        <time>2018-05-05T07:52:08.000Z</time>
      </trkpt>
      <trkpt lat="45.21393" lon="0.5884">
        <ele>155.39999389648</ele>
        <time>2018-05-05T07:52:09.000Z</time>
      </trkpt>
      <trkpt lat="45.21389" lon="0.58839">
        <ele>153.39999389648</ele>
        <time>2018-05-05T07:52:10.000Z</time>
      </trkpt>
      <trkpt lat="45.2138" lon="0.58836">
        <ele>151.60000610352</ele>
        <time>2018-05-05T07:52:12.000Z</time>
      </trkpt>
      <trkpt lat="45.21374" lon="0.58834">
        <ele>150.19999694824</ele>
        <time>2018-05-05T07:52:13.000Z</time>
      </trkpt>
      <trkpt lat="45.21368" lon="0.58833">
        <ele>149.19999694824</ele>
        <time>2018-05-05T07:52:14.000Z</time>
      </trkpt>
      <trkpt lat="45.21363" lon="0.5883">
        <ele>148</ele>
        <time>2018-05-05T07:52:15.000Z</time>
      </trkpt>
      <trkpt lat="45.2136" lon="0.58827">
        <ele>146.80000305176</ele>
        <time>2018-05-05T07:52:16.000Z</time>
      </trkpt>
      <trkpt lat="45.21358" lon="0.58822">
        <ele>145.60000610352</ele>
        <time>2018-05-05T07:52:17.000Z</time>
      </trkpt>
      <trkpt lat="45.21358" lon="0.58817">
        <ele>144.60000610352</ele>
        <time>2018-05-05T07:52:18.000Z</time>
      </trkpt>
      <trkpt lat="45.2136" lon="0.58813">
        <ele>144</ele>
        <time>2018-05-05T07:52:19.000Z</time>
      </trkpt>
      <trkpt lat="45.21365" lon="0.5881">
        <ele>143.60000610352</ele>
        <time>2018-05-05T07:52:21.000Z</time>
      </trkpt>
      <trkpt lat="45.21371" lon="0.58803">
        <ele>143.80000305176</ele>
        <time>2018-05-05T07:52:23.000Z</time>
      </trkpt>
      <trkpt lat="45.21381" lon="0.58795">
        <ele>144</ele>
        <time>2018-05-05T07:52:26.000Z</time>
      </trkpt>
      <trkpt lat="45.21397" lon="0.58785">
        <ele>145.19999694824</ele>
        <time>2018-05-05T07:52:31.000Z</time>
      </trkpt>
      <trkpt lat="45.21399" lon="0.58784">
        <ele>145.60000610352</ele>
        <time>2018-05-05T07:52:32.000Z</time>
      </trkpt>
      <trkpt lat="45.21418" lon="0.58774">
        <ele>146.39999389648</ele>
        <time>2018-05-05T07:52:38.000Z</time>
      </trkpt>
      <trkpt lat="45.2144" lon="0.58758">
        <ele>147.60000610352</ele>
        <time>2018-05-05T07:52:46.000Z</time>
      </trkpt>
      <trkpt lat="45.21454" lon="0.58743">
        <ele>148.80000305176</ele>
        <time>2018-05-05T07:52:53.000Z</time>
      </trkpt>
      <trkpt lat="45.21462" lon="0.58731">
        <ele>150</ele>
        <time>2018-05-05T07:52:58.000Z</time>
      </trkpt>
      <trkpt lat="45.21462" lon="0.58728">
        <ele>150.19999694824</ele>
        <time>2018-05-05T07:52:59.000Z</time>
      </trkpt>
      <trkpt lat="45.21462" lon="0.58722">
        <ele>151.19999694824</ele>
        <time>2018-05-05T07:53:02.000Z</time>
      </trkpt>
      <trkpt lat="45.21462" lon="0.58714">
        <ele>152.19999694824</ele>
        <time>2018-05-05T07:53:05.000Z</time>
      </trkpt>
      <trkpt lat="45.21462" lon="0.5871">
        <ele>152.60000610352</ele>
        <time>2018-05-05T07:53:07.000Z</time>
      </trkpt>
      <trkpt lat="45.21462" lon="0.58708">
        <ele>152.80000305176</ele>
        <time>2018-05-05T07:53:08.000Z</time>
      </trkpt>
      <trkpt lat="45.21462" lon="0.58704">
        <ele>153.39999389648</ele>
        <time>2018-05-05T07:53:10.000Z</time>
      </trkpt>
      <trkpt lat="45.21462" lon="0.58693">
        <ele>154.60000610352</ele>
        <time>2018-05-05T07:53:14.000Z</time>
      </trkpt>
      <trkpt lat="45.21462" lon="0.5869">
        <ele>155.19999694824</ele>
        <time>2018-05-05T07:53:16.000Z</time>
      </trkpt>
      <trkpt lat="45.21463" lon="0.58685">
        <ele>155.60000610352</ele>
        <time>2018-05-05T07:53:18.000Z</time>
      </trkpt>
      <trkpt lat="45.21464" lon="0.58684">
        <ele>156</ele>
        <time>2018-05-05T07:53:19.000Z</time>
      </trkpt>
      <trkpt lat="45.21465" lon="0.58678">
        <ele>157</ele>
        <time>2018-05-05T07:53:22.000Z</time>
      </trkpt>
      <trkpt lat="45.21465" lon="0.58672">
        <ele>157.80000305176</ele>
        <time>2018-05-05T07:53:25.000Z</time>
      </trkpt>
      <trkpt lat="45.21466" lon="0.5867">
        <ele>158</ele>
        <time>2018-05-05T07:53:26.000Z</time>
      </trkpt>
      <trkpt lat="45.21467" lon="0.58663">
        <ele>158.60000610352</ele>
        <time>2018-05-05T07:53:29.000Z</time>
      </trkpt>
      <trkpt lat="45.21468" lon="0.58659">
        <ele>159</ele>
        <time>2018-05-05T07:53:31.000Z</time>
      </trkpt>
      <trkpt lat="45.21469" lon="0.58648">
        <ele>160.19999694824</ele>
        <time>2018-05-05T07:53:36.000Z</time>
      </trkpt>
      <trkpt lat="45.2147" lon="0.5864">
        <ele>160.60000610352</ele>
        <time>2018-05-05T07:53:39.000Z</time>
      </trkpt>
      <trkpt lat="45.21471" lon="0.58635">
        <ele>161.19999694824</ele>
        <time>2018-05-05T07:53:41.000Z</time>
      </trkpt>
      <trkpt lat="45.21472" lon="0.58625">
        <ele>162.19999694824</ele>
        <time>2018-05-05T07:53:45.000Z</time>
      </trkpt>
      <trkpt lat="45.21473" lon="0.58619">
        <ele>162.80000305176</ele>
        <time>2018-05-05T07:53:48.000Z</time>
      </trkpt>
      <trkpt lat="45.21473" lon="0.58615">
        <ele>163.39999389648</ele>
        <time>2018-05-05T07:53:50.000Z</time>
      </trkpt>
      <trkpt lat="45.21474" lon="0.58603">
        <ele>164.19999694824</ele>
        <time>2018-05-05T07:53:55.000Z</time>
      </trkpt>
      <trkpt lat="45.21474" lon="0.58601">
        <ele>164.60000610352</ele>
        <time>2018-05-05T07:53:56.000Z</time>
      </trkpt>
      <trkpt lat="45.21477" lon="0.58589">
        <ele>165.80000305176</ele>
        <time>2018-05-05T07:54:01.000Z</time>
      </trkpt>
      <trkpt lat="45.21478" lon="0.58583">
        <ele>166.39999389648</ele>
        <time>2018-05-05T07:54:04.000Z</time>
      </trkpt>
      <trkpt lat="45.21479" lon="0.58578">
        <ele>166.80000305176</ele>
        <time>2018-05-05T07:54:06.000Z</time>
      </trkpt>
      <trkpt lat="45.21479" lon="0.58566">
        <ele>168</ele>
        <time>2018-05-05T07:54:11.000Z</time>
      </trkpt>
      <trkpt lat="45.21482" lon="0.58549">
        <ele>169.19999694824</ele>
        <time>2018-05-05T07:54:18.000Z</time>
      </trkpt>
      <trkpt lat="45.21483" lon="0.58545">
        <ele>169.39999389648</ele>
        <time>2018-05-05T07:54:20.000Z</time>
      </trkpt>
      <trkpt lat="45.21486" lon="0.58534">
        <ele>170.19999694824</ele>
        <time>2018-05-05T07:54:25.000Z</time>
      </trkpt>
      <trkpt lat="45.21487" lon="0.58527">
        <ele>170.80000305176</ele>
        <time>2018-05-05T07:54:28.000Z</time>
      </trkpt>
      <trkpt lat="45.21488" lon="0.58522">
        <ele>171.39999389648</ele>
        <time>2018-05-05T07:54:30.000Z</time>
      </trkpt>
      <trkpt lat="45.2149" lon="0.58509">
        <ele>172.39999389648</ele>
        <time>2018-05-05T07:54:35.000Z</time>
      </trkpt>
      <trkpt lat="45.21491" lon="0.58498">
        <ele>172.80000305176</ele>
        <time>2018-05-05T07:54:39.000Z</time>
      </trkpt>
      <trkpt lat="45.21493" lon="0.58486">
        <ele>173.39999389648</ele>
        <time>2018-05-05T07:54:43.000Z</time>
      </trkpt>
      <trkpt lat="45.21496" lon="0.58468">
        <ele>174.39999389648</ele>
        <time>2018-05-05T07:54:49.000Z</time>
      </trkpt>
      <trkpt lat="45.21496" lon="0.58465">
        <ele>174.39999389648</ele>
        <time>2018-05-05T07:54:50.000Z</time>
      </trkpt>
      <trkpt lat="45.215" lon="0.58439">
        <ele>175.60000610352</ele>
        <time>2018-05-05T07:54:58.000Z</time>
      </trkpt>
      <trkpt lat="45.21503" lon="0.58412">
        <ele>176.80000305176</ele>
        <time>2018-05-05T07:55:06.000Z</time>
      </trkpt>
      <trkpt lat="45.21503" lon="0.58408">
        <ele>177</ele>
        <time>2018-05-05T07:55:07.000Z</time>
      </trkpt>
      <trkpt lat="45.21508" lon="0.58382">
        <ele>177.60000610352</ele>
        <time>2018-05-05T07:55:14.000Z</time>
      </trkpt>
      <trkpt lat="45.21508" lon="0.58378">
        <ele>177.80000305176</ele>
        <time>2018-05-05T07:55:15.000Z</time>
      </trkpt>
      <trkpt lat="45.21514" lon="0.58341">
        <ele>178.39999389648</ele>
        <time>2018-05-05T07:55:23.000Z</time>
      </trkpt>
      <trkpt lat="45.21521" lon="0.58304">
        <ele>178.80000305176</ele>
        <time>2018-05-05T07:55:30.000Z</time>
      </trkpt>
      <trkpt lat="45.21522" lon="0.58299">
        <ele>179</ele>
        <time>2018-05-05T07:55:31.000Z</time>
      </trkpt>
      <trkpt lat="45.21529" lon="0.58265">
        <ele>179.60000610352</ele>
        <time>2018-05-05T07:55:38.000Z</time>
      </trkpt>
      <trkpt lat="45.2153" lon="0.58255">
        <ele>180</ele>
        <time>2018-05-05T07:55:40.000Z</time>
      </trkpt>
      <trkpt lat="45.21535" lon="0.58226">
        <ele>181.19999694824</ele>
        <time>2018-05-05T07:55:46.000Z</time>
      </trkpt>
      <trkpt lat="45.2154" lon="0.58207">
        <ele>182.39999389648</ele>
        <time>2018-05-05T07:55:50.000Z</time>
      </trkpt>
      <trkpt lat="45.21541" lon="0.58192">
        <ele>182.80000305176</ele>
        <time>2018-05-05T07:55:53.000Z</time>
      </trkpt>
      <trkpt lat="45.21545" lon="0.58177">
        <ele>183.39999389648</ele>
        <time>2018-05-05T07:55:56.000Z</time>
      </trkpt>
      <trkpt lat="45.21549" lon="0.58158">
        <ele>184</ele>
        <time>2018-05-05T07:56:00.000Z</time>
      </trkpt>
      <trkpt lat="45.21552" lon="0.58144">
        <ele>184.60000610352</ele>
        <time>2018-05-05T07:56:03.000Z</time>
      </trkpt>
      <trkpt lat="45.21554" lon="0.58121">
        <ele>185.19999694824</ele>
        <time>2018-05-05T07:56:08.000Z</time>
      </trkpt>
      <trkpt lat="45.21555" lon="0.58113">
        <ele>186</ele>
        <time>2018-05-05T07:56:10.000Z</time>
      </trkpt>
      <trkpt lat="45.21558" lon="0.58091">
        <ele>187</ele>
        <time>2018-05-05T07:56:15.000Z</time>
      </trkpt>
      <trkpt lat="45.21558" lon="0.58086">
        <ele>187.19999694824</ele>
        <time>2018-05-05T07:56:16.000Z</time>
      </trkpt>
      <trkpt lat="45.21559" lon="0.58068">
        <ele>188.19999694824</ele>
        <time>2018-05-05T07:56:20.000Z</time>
      </trkpt>
      <trkpt lat="45.2156" lon="0.58054">
        <ele>188.60000610352</ele>
        <time>2018-05-05T07:56:23.000Z</time>
      </trkpt>
      <trkpt lat="45.2156" lon="0.58036">
        <ele>189.19999694824</ele>
        <time>2018-05-05T07:56:27.000Z</time>
      </trkpt>
      <trkpt lat="45.21561" lon="0.58023">
        <ele>189.60000610352</ele>
        <time>2018-05-05T07:56:30.000Z</time>
      </trkpt>
      <trkpt lat="45.21564" lon="0.57997">
        <ele>190.19999694824</ele>
        <time>2018-05-05T07:56:36.000Z</time>
      </trkpt>
      <trkpt lat="45.21567" lon="0.57983">
        <ele>191</ele>
        <time>2018-05-05T07:56:39.000Z</time>
      </trkpt>
      <trkpt lat="45.21569" lon="0.5797">
        <ele>191.39999389648</ele>
        <time>2018-05-05T07:56:42.000Z</time>
      </trkpt>
      <trkpt lat="45.21573" lon="0.57942">
        <ele>192</ele>
        <time>2018-05-05T07:56:48.000Z</time>
      </trkpt>
      <trkpt lat="45.21575" lon="0.57922">
        <ele>192.39999389648</ele>
        <time>2018-05-05T07:56:52.000Z</time>
      </trkpt>
      <trkpt lat="45.21576" lon="0.57907">
        <ele>192.60000610352</ele>
        <time>2018-05-05T07:56:55.000Z</time>
      </trkpt>
      <trkpt lat="45.21581" lon="0.57868">
        <ele>192.80000305176</ele>
        <time>2018-05-05T07:57:02.000Z</time>
      </trkpt>
      <trkpt lat="45.21586" lon="0.5782">
        <ele>192.39999389648</ele>
        <time>2018-05-05T07:57:09.000Z</time>
      </trkpt>
      <trkpt lat="45.2159" lon="0.57788">
        <ele>191.80000305176</ele>
        <time>2018-05-05T07:57:13.000Z</time>
      </trkpt>
      <trkpt lat="45.21592" lon="0.57774">
        <ele>191.60000610352</ele>
        <time>2018-05-05T07:57:15.000Z</time>
      </trkpt>
      <trkpt lat="45.21598" lon="0.57747">
        <ele>192.60000610352</ele>
        <time>2018-05-05T07:57:20.000Z</time>
      </trkpt>
      <trkpt lat="45.21602" lon="0.5773">
        <ele>193.80000305176</ele>
        <time>2018-05-05T07:57:23.000Z</time>
      </trkpt>
      <trkpt lat="45.21603" lon="0.57725">
        <ele>194</ele>
        <time>2018-05-05T07:57:24.000Z</time>
      </trkpt>
      <trkpt lat="45.21606" lon="0.57708">
        <ele>194.80000305176</ele>
        <time>2018-05-05T07:57:27.000Z</time>
      </trkpt>
      <trkpt lat="45.2161" lon="0.57681">
        <ele>195.80000305176</ele>
        <time>2018-05-05T07:57:32.000Z</time>
      </trkpt>
      <trkpt lat="45.21612" lon="0.57659">
        <ele>196.80000305176</ele>
        <time>2018-05-05T07:57:36.000Z</time>
      </trkpt>
      <trkpt lat="45.21612" lon="0.57653">
        <ele>197</ele>
        <time>2018-05-05T07:57:37.000Z</time>
      </trkpt>
      <trkpt lat="45.21615" lon="0.57631">
        <ele>198.19999694824</ele>
        <time>2018-05-05T07:57:41.000Z</time>
      </trkpt>
      <trkpt lat="45.21616" lon="0.57615">
        <ele>198.60000610352</ele>
        <time>2018-05-05T07:57:44.000Z</time>
      </trkpt>
      <trkpt lat="45.21621" lon="0.57587">
        <ele>199</ele>
        <time>2018-05-05T07:57:49.000Z</time>
      </trkpt>
      <trkpt lat="45.21625" lon="0.57557">
        <ele>199.19999694824</ele>
        <time>2018-05-05T07:57:54.000Z</time>
      </trkpt>
      <trkpt lat="45.21629" lon="0.57533">
        <ele>199.19999694824</ele>
        <time>2018-05-05T07:57:58.000Z</time>
      </trkpt>
      <trkpt lat="45.21636" lon="0.5749">
        <ele>200</ele>
        <time>2018-05-05T07:58:05.000Z</time>
      </trkpt>
      <trkpt lat="45.21637" lon="0.57484">
        <ele>200.19999694824</ele>
        <time>2018-05-05T07:58:06.000Z</time>
      </trkpt>
      <trkpt lat="45.21639" lon="0.57448">
        <ele>201</ele>
        <time>2018-05-05T07:58:12.000Z</time>
      </trkpt>
      <trkpt lat="45.21639" lon="0.57442">
        <ele>201.19999694824</ele>
        <time>2018-05-05T07:58:13.000Z</time>
      </trkpt>
      <trkpt lat="45.21643" lon="0.57397">
        <ele>201.80000305176</ele>
        <time>2018-05-05T07:58:21.000Z</time>
      </trkpt>
      <trkpt lat="45.21649" lon="0.57369">
        <ele>202.39999389648</ele>
        <time>2018-05-05T07:58:26.000Z</time>
      </trkpt>
      <trkpt lat="45.21649" lon="0.57363">
        <ele>202.60000610352</ele>
        <time>2018-05-05T07:58:27.000Z</time>
      </trkpt>
      <trkpt lat="45.21655" lon="0.57331">
        <ele>203.19999694824</ele>
        <time>2018-05-05T07:58:33.000Z</time>
      </trkpt>
      <trkpt lat="45.21658" lon="0.57315">
        <ele>203.60000610352</ele>
        <time>2018-05-05T07:58:36.000Z</time>
      </trkpt>
      <trkpt lat="45.21663" lon="0.57295">
        <ele>203.80000305176</ele>
        <time>2018-05-05T07:58:40.000Z</time>
      </trkpt>
      <trkpt lat="45.21674" lon="0.57247">
        <ele>204.19999694824</ele>
        <time>2018-05-05T07:58:48.000Z</time>
      </trkpt>
      <trkpt lat="45.21681" lon="0.57224">
        <ele>204.60000610352</ele>
        <time>2018-05-05T07:58:52.000Z</time>
      </trkpt>
      <trkpt lat="45.21686" lon="0.57209">
        <ele>204.80000305176</ele>
        <time>2018-05-05T07:58:55.000Z</time>
      </trkpt>
      <trkpt lat="45.217" lon="0.57177">
        <ele>205.60000610352</ele>
        <time>2018-05-05T07:59:02.000Z</time>
      </trkpt>
      <trkpt lat="45.21701" lon="0.57172">
        <ele>205.80000305176</ele>
        <time>2018-05-05T07:59:03.000Z</time>
      </trkpt>
      <trkpt lat="45.21708" lon="0.57142">
        <ele>206.19999694824</ele>
        <time>2018-05-05T07:59:08.000Z</time>
      </trkpt>
      <trkpt lat="45.2172" lon="0.57096">
        <ele>206.60000610352</ele>
        <time>2018-05-05T07:59:15.000Z</time>
      </trkpt>
      <trkpt lat="45.21731" lon="0.57056">
        <ele>206.80000305176</ele>
        <time>2018-05-05T07:59:21.000Z</time>
      </trkpt>
      <trkpt lat="45.21732" lon="0.57049">
        <ele>206.80000305176</ele>
        <time>2018-05-05T07:59:22.000Z</time>
      </trkpt>
      <trkpt lat="45.21742" lon="0.57012">
        <ele>207.60000610352</ele>
        <time>2018-05-05T07:59:28.000Z</time>
      </trkpt>
      <trkpt lat="45.21743" lon="0.57006">
        <ele>207.60000610352</ele>
        <time>2018-05-05T07:59:29.000Z</time>
      </trkpt>
      <trkpt lat="45.21751" lon="0.56973">
        <ele>207.80000305176</ele>
        <time>2018-05-05T07:59:35.000Z</time>
      </trkpt>
      <trkpt lat="45.21753" lon="0.56968">
        <ele>208</ele>
        <time>2018-05-05T07:59:36.000Z</time>
      </trkpt>
      <trkpt lat="45.21764" lon="0.56942">
        <ele>209</ele>
        <time>2018-05-05T07:59:42.000Z</time>
      </trkpt>
      <trkpt lat="45.21769" lon="0.56925">
        <ele>209</ele>
        <time>2018-05-05T07:59:45.000Z</time>
      </trkpt>
      <trkpt lat="45.21771" lon="0.5691">
        <ele>208.39999389648</ele>
        <time>2018-05-05T07:59:47.000Z</time>
      </trkpt>
      <trkpt lat="45.21771" lon="0.56896">
        <ele>208.60000610352</ele>
        <time>2018-05-05T07:59:49.000Z</time>
      </trkpt>
      <trkpt lat="45.2177" lon="0.56873">
        <ele>208.80000305176</ele>
        <time>2018-05-05T07:59:52.000Z</time>
      </trkpt>
      <trkpt lat="45.21765" lon="0.56824">
        <ele>209.19999694824</ele>
        <time>2018-05-05T07:59:59.000Z</time>
      </trkpt>
      <trkpt lat="45.21764" lon="0.56818">
        <ele>209.19999694824</ele>
        <time>2018-05-05T08:00:00.000Z</time>
      </trkpt>
      <trkpt lat="45.21762" lon="0.56805">
        <ele>206.39999389648</ele>
        <time>2018-05-05T08:00:02.000Z</time>
      </trkpt>
      <trkpt lat="45.2176" lon="0.56784">
        <ele>207.80000305176</ele>
        <time>2018-05-05T08:00:05.000Z</time>
      </trkpt>
      <trkpt lat="45.21758" lon="0.56778">
        <ele>207.39999389648</ele>
        <time>2018-05-05T08:00:06.000Z</time>
      </trkpt>
      <trkpt lat="45.21752" lon="0.56746">
        <ele>206.39999389648</ele>
        <time>2018-05-05T08:00:11.000Z</time>
      </trkpt>
      <trkpt lat="45.2175" lon="0.56743">
        <ele>206.19999694824</ele>
        <time>2018-05-05T08:00:12.000Z</time>
      </trkpt>
      <trkpt lat="45.21745" lon="0.5674">
        <ele>206</ele>
        <time>2018-05-05T08:00:14.000Z</time>
      </trkpt>
      <trkpt lat="45.21741" lon="0.56742">
        <ele>206.19999694824</ele>
        <time>2018-05-05T08:00:15.000Z</time>
      </trkpt>
      <trkpt lat="45.21725" lon="0.56747">
        <ele>207.60000610352</ele>
        <time>2018-05-05T08:00:19.000Z</time>
      </trkpt>
      <trkpt lat="45.21721" lon="0.5675">
        <ele>207.80000305176</ele>
        <time>2018-05-05T08:00:20.000Z</time>
      </trkpt>
      <trkpt lat="45.21717" lon="0.56752">
        <ele>208</ele>
        <time>2018-05-05T08:00:21.000Z</time>
      </trkpt>
      <trkpt lat="45.21707" lon="0.56754">
        <ele>208.60000610352</ele>
        <time>2018-05-05T08:00:23.000Z</time>
      </trkpt>
      <trkpt lat="45.21703" lon="0.56753">
        <ele>208.80000305176</ele>
        <time>2018-05-05T08:00:24.000Z</time>
      </trkpt>
      <trkpt lat="45.21695" lon="0.56738">
        <ele>209.19999694824</ele>
        <time>2018-05-05T08:00:27.000Z</time>
      </trkpt>
      <trkpt lat="45.21691" lon="0.56712">
        <ele>209.80000305176</ele>
        <time>2018-05-05T08:00:31.000Z</time>
      </trkpt>
      <trkpt lat="45.21689" lon="0.567">
        <ele>210</ele>
        <time>2018-05-05T08:00:33.000Z</time>
      </trkpt>
      <trkpt lat="45.21681" lon="0.56652">
        <ele>210.19999694824</ele>
        <time>2018-05-05T08:00:40.000Z</time>
      </trkpt>
      <trkpt lat="45.21673" lon="0.56603">
        <ele>210.60000610352</ele>
        <time>2018-05-05T08:00:47.000Z</time>
      </trkpt>
      <trkpt lat="45.21672" lon="0.56596">
        <ele>210.80000305176</ele>
        <time>2018-05-05T08:00:48.000Z</time>
      </trkpt>
      <trkpt lat="45.21669" lon="0.56575">
        <ele>211</ele>
        <time>2018-05-05T08:00:51.000Z</time>
      </trkpt>
      <trkpt lat="45.21667" lon="0.56553">
        <ele>211.19999694824</ele>
        <time>2018-05-05T08:00:54.000Z</time>
      </trkpt>
      <trkpt lat="45.21662" lon="0.56501">
        <ele>211.19999694824</ele>
        <time>2018-05-05T08:01:01.000Z</time>
      </trkpt>
      <trkpt lat="45.21656" lon="0.56454">
        <ele>211.19999694824</ele>
        <time>2018-05-05T08:01:08.000Z</time>
      </trkpt>
      <trkpt lat="45.21656" lon="0.56447">
        <ele>211</ele>
        <time>2018-05-05T08:01:09.000Z</time>
      </trkpt>
      <trkpt lat="45.21661" lon="0.56433">
        <ele>211.60000610352</ele>
        <time>2018-05-05T08:01:12.000Z</time>
      </trkpt>
      <trkpt lat="45.21676" lon="0.56424">
        <ele>211.60000610352</ele>
        <time>2018-05-05T08:01:16.000Z</time>
      </trkpt>
      <trkpt lat="45.21687" lon="0.56418">
        <ele>211.39999389648</ele>
        <time>2018-05-05T08:01:18.000Z</time>
      </trkpt>
      <trkpt lat="45.21707" lon="0.56404">
        <ele>211.19999694824</ele>
        <time>2018-05-05T08:01:22.000Z</time>
      </trkpt>
      <trkpt lat="45.2173" lon="0.56379">
        <ele>209.80000305176</ele>
        <time>2018-05-05T08:01:27.000Z</time>
      </trkpt>
      <trkpt lat="45.21735" lon="0.56373">
        <ele>209.60000610352</ele>
        <time>2018-05-05T08:01:28.000Z</time>
      </trkpt>
      <trkpt lat="45.21749" lon="0.56354">
        <ele>208</ele>
        <time>2018-05-05T08:01:31.000Z</time>
      </trkpt>
      <trkpt lat="45.21761" lon="0.56344">
        <ele>206.80000305176</ele>
        <time>2018-05-05T08:01:33.000Z</time>
      </trkpt>
      <trkpt lat="45.21779" lon="0.56331">
        <ele>205.60000610352</ele>
        <time>2018-05-05T08:01:36.000Z</time>
      </trkpt>
      <trkpt lat="45.21791" lon="0.56323">
        <ele>205.19999694824</ele>
        <time>2018-05-05T08:01:38.000Z</time>
      </trkpt>
      <trkpt lat="45.21796" lon="0.56319">
        <ele>204.80000305176</ele>
        <time>2018-05-05T08:01:39.000Z</time>
      </trkpt>
      <trkpt lat="45.21802" lon="0.56315">
        <ele>204.39999389648</ele>
        <time>2018-05-05T08:01:40.000Z</time>
      </trkpt>
      <trkpt lat="45.21811" lon="0.56306">
        <ele>203.80000305176</ele>
        <time>2018-05-05T08:01:42.000Z</time>
      </trkpt>
      <trkpt lat="45.21815" lon="0.563">
        <ele>203.60000610352</ele>
        <time>2018-05-05T08:01:43.000Z</time>
      </trkpt>
      <trkpt lat="45.2182" lon="0.56293">
        <ele>203.19999694824</ele>
        <time>2018-05-05T08:01:44.000Z</time>
      </trkpt>
      <trkpt lat="45.21835" lon="0.56275">
        <ele>201.60000610352</ele>
        <time>2018-05-05T08:01:47.000Z</time>
      </trkpt>
      <trkpt lat="45.2184" lon="0.56269">
        <ele>201.60000610352</ele>
        <time>2018-05-05T08:01:48.000Z</time>
      </trkpt>
      <trkpt lat="45.21871" lon="0.56232">
        <ele>201</ele>
        <time>2018-05-05T08:01:55.000Z</time>
      </trkpt>
      <trkpt lat="45.21895" lon="0.56204">
        <ele>200.80000305176</ele>
        <time>2018-05-05T08:02:01.000Z</time>
      </trkpt>
      <trkpt lat="45.21898" lon="0.56199">
        <ele>200.60000610352</ele>
        <time>2018-05-05T08:02:02.000Z</time>
      </trkpt>
      <trkpt lat="45.21901" lon="0.56195">
        <ele>200.60000610352</ele>
        <time>2018-05-05T08:02:03.000Z</time>
      </trkpt>
      <trkpt lat="45.2191" lon="0.56181">
        <ele>200.39999389648</ele>
        <time>2018-05-05T08:02:06.000Z</time>
      </trkpt>
      <trkpt lat="45.21916" lon="0.56171">
        <ele>200.60000610352</ele>
        <time>2018-05-05T08:02:08.000Z</time>
      </trkpt>
      <trkpt lat="45.21923" lon="0.56162">
        <ele>200.60000610352</ele>
        <time>2018-05-05T08:02:10.000Z</time>
      </trkpt>
      <trkpt lat="45.21926" lon="0.56157">
        <ele>200.60000610352</ele>
        <time>2018-05-05T08:02:11.000Z</time>
      </trkpt>
      <trkpt lat="45.21944" lon="0.56121">
        <ele>201</ele>
        <time>2018-05-05T08:02:18.000Z</time>
      </trkpt>
      <trkpt lat="45.21964" lon="0.56076">
        <ele>200.19999694824</ele>
        <time>2018-05-05T08:02:25.000Z</time>
      </trkpt>
      <trkpt lat="45.21973" lon="0.56055">
        <ele>200</ele>
        <time>2018-05-05T08:02:28.000Z</time>
      </trkpt>
      <trkpt lat="45.21976" lon="0.56041">
        <ele>199.80000305176</ele>
        <time>2018-05-05T08:02:30.000Z</time>
      </trkpt>
      <trkpt lat="45.21977" lon="0.56033">
        <ele>199.39999389648</ele>
        <time>2018-05-05T08:02:31.000Z</time>
      </trkpt>
      <trkpt lat="45.21984" lon="0.55994">
        <ele>199.19999694824</ele>
        <time>2018-05-05T08:02:36.000Z</time>
      </trkpt>
      <trkpt lat="45.21997" lon="0.55917">
        <ele>199.19999694824</ele>
        <time>2018-05-05T08:02:46.000Z</time>
      </trkpt>
      <trkpt lat="45.22013" lon="0.55854">
        <ele>199.19999694824</ele>
        <time>2018-05-05T08:02:54.000Z</time>
      </trkpt>
      <trkpt lat="45.22035" lon="0.55792">
        <ele>199</ele>
        <time>2018-05-05T08:03:02.000Z</time>
      </trkpt>
      <trkpt lat="45.22053" lon="0.55745">
        <ele>198.39999389648</ele>
        <time>2018-05-05T08:03:08.000Z</time>
      </trkpt>
      <trkpt lat="45.22064" lon="0.55721">
        <ele>198.19999694824</ele>
        <time>2018-05-05T08:03:11.000Z</time>
      </trkpt>
      <trkpt lat="45.22078" lon="0.55689">
        <ele>197.39999389648</ele>
        <time>2018-05-05T08:03:15.000Z</time>
      </trkpt>
      <trkpt lat="45.22087" lon="0.55661">
        <ele>196.60000610352</ele>
        <time>2018-05-05T08:03:18.000Z</time>
      </trkpt>
      <trkpt lat="45.2209" lon="0.55651">
        <ele>196.19999694824</ele>
        <time>2018-05-05T08:03:19.000Z</time>
      </trkpt>
      <trkpt lat="45.22096" lon="0.5562">
        <ele>195.19999694824</ele>
        <time>2018-05-05T08:03:22.000Z</time>
      </trkpt>
      <trkpt lat="45.221" lon="0.55599">
        <ele>194</ele>
        <time>2018-05-05T08:03:24.000Z</time>
      </trkpt>
      <trkpt lat="45.22102" lon="0.55588">
        <ele>193.39999389648</ele>
        <time>2018-05-05T08:03:25.000Z</time>
      </trkpt>
      <trkpt lat="45.22105" lon="0.55566">
        <ele>192.60000610352</ele>
        <time>2018-05-05T08:03:27.000Z</time>
      </trkpt>
      <trkpt lat="45.22111" lon="0.55533">
        <ele>191.19999694824</ele>
        <time>2018-05-05T08:03:30.000Z</time>
      </trkpt>
      <trkpt lat="45.22116" lon="0.55501">
        <ele>190.19999694824</ele>
        <time>2018-05-05T08:03:33.000Z</time>
      </trkpt>
      <trkpt lat="45.2212" lon="0.55471">
        <ele>189</ele>
        <time>2018-05-05T08:03:36.000Z</time>
      </trkpt>
      <trkpt lat="45.22124" lon="0.55442">
        <ele>188.39999389648</ele>
        <time>2018-05-05T08:03:39.000Z</time>
      </trkpt>
      <trkpt lat="45.22129" lon="0.55406">
        <ele>188</ele>
        <time>2018-05-05T08:03:43.000Z</time>
      </trkpt>
      <trkpt lat="45.22132" lon="0.55382">
        <ele>187.19999694824</ele>
        <time>2018-05-05T08:03:46.000Z</time>
      </trkpt>
      <trkpt lat="45.22126" lon="0.55336">
        <ele>182.4</ele>
      </trkpt>
      <trkpt lat="45.22123" lon="0.55296">
        <ele>183.1</ele>
      </trkpt>
      <trkpt lat="45.22131" lon="0.55269">
        <ele>183.9</ele>
      </trkpt>
      <trkpt lat="45.22157" lon="0.55207">
        <ele>185.8</ele>
      </trkpt>
      <trkpt lat="45.2219" lon="0.55148">
        <ele>187.1</ele>
      </trkpt>
      <trkpt lat="45.22207" lon="0.55127">
        <ele>186.6</ele>
      </trkpt>
      <trkpt lat="45.22231" lon="0.55109">
        <ele>185.7</ele>
      </trkpt>
      <trkpt lat="45.22268" lon="0.55071">
        <ele>180.4</ele>
      </trkpt>
      <trkpt lat="45.22324" lon="0.55013">
        <ele>176.6</ele>
      </trkpt>
      <trkpt lat="45.22349" lon="0.54993">
        <ele>174.3</ele>
      </trkpt>
      <trkpt lat="45.22368" lon="0.54995">
        <ele>174.2</ele>
      </trkpt>
      <trkpt lat="45.22387" lon="0.5501">
        <ele>177</ele>
      </trkpt>
      <trkpt lat="45.22419" lon="0.55036">
        <ele>176.1</ele>
      </trkpt>
      <trkpt lat="45.22425" lon="0.55123">
        <ele>177.5</ele>
      </trkpt>
      <trkpt lat="45.22428" lon="0.55195">
        <ele>177.2</ele>
      </trkpt>
      <trkpt lat="45.22431" lon="0.55261">
        <ele>176.3</ele>
      </trkpt>
      <trkpt lat="45.2243" lon="0.55384">
        <ele>170.7</ele>
      </trkpt>
      <trkpt lat="45.22427" lon="0.55409">
        <ele>169.7</ele>
      </trkpt>
      <trkpt lat="45.22426" lon="0.55439">
        <ele>168</ele>
      </trkpt>
      <trkpt lat="45.22428" lon="0.55463">
        <ele>167.6</ele>
      </trkpt>
      <trkpt lat="45.22439" lon="0.55543">
        <ele>168.4</ele>
      </trkpt>
      <trkpt lat="45.22453" lon="0.55638">
        <ele>170.7</ele>
      </trkpt>
      <trkpt lat="45.22463" lon="0.55686">
        <ele>172.9</ele>
      </trkpt>
      <trkpt lat="45.2247" lon="0.55734">
        <ele>174.1</ele>
      </trkpt>
      <trkpt lat="45.22474" lon="0.55767">
        <ele>177.7</ele>
      </trkpt>
      <trkpt lat="45.22487" lon="0.55787">
        <ele>178.5</ele>
      </trkpt>
      <trkpt lat="45.22501" lon="0.55795">
        <ele>180.5</ele>
      </trkpt>
      <trkpt lat="45.2252" lon="0.55823">
        <ele>181.6</ele>
      </trkpt>
      <trkpt lat="45.22525" lon="0.55834">
        <ele>184.7</ele>
      </trkpt>
      <trkpt lat="45.22538" lon="0.55841">
        <ele>185.1</ele>
      </trkpt>
      <trkpt lat="45.22547" lon="0.55853">
        <ele>185.4</ele>
      </trkpt>
      <trkpt lat="45.22555" lon="0.5587">
        <ele>185.9</ele>
      </trkpt>
      <trkpt lat="45.22561" lon="0.55894">
        <ele>186.6</ele>
      </trkpt>
      <trkpt lat="45.22571" lon="0.55928">
        <ele>189.8</ele>
      </trkpt>
      <trkpt lat="45.22574" lon="0.55963">
        <ele>191.7</ele>
      </trkpt>
    </trkseg>
  </trk>
</gpx>